<?xml version='1.0' encoding='UTF-8'?><gpx version="1.1" creator="JPX - https://github.com/jenetics/jpx" xmlns="http://www.topografix.com/GPX/1/1"><trk><trkseg><trkpt lat="43.6353541" lon="12.3395608"><ele>535.3333333333334</ele><time>2026-05-01T13:43:46.248Z</time></trkpt><trkpt lat="43.6352953" lon="12.3395037"><ele>536.6666666666666</ele><time>2026-05-01T13:43:57.254Z</time></trkpt><trkpt lat="43.6351722" lon="12.3394233"><ele>538.0</ele><time>2026-05-01T13:43:59.249Z</time></trkpt><trkpt lat="43.6351013" lon="12.3393863"><ele>539.3333333333333</ele><time>2026-05-01T13:44:00.25Z</time></trkpt><trkpt lat="43.635031" lon="12.3393493"><ele>540.6666666666666</ele><time>2026-05-01T13:44:01.253Z</time></trkpt><trkpt lat="43.6349586" lon="12.3393012"><ele>542.0</ele><time>2026-05-01T13:44:02.251Z</time></trkpt><trkpt lat="43.6348975" lon="12.339258"><ele>542.0</ele><time>2026-05-01T13:44:03.253Z</time></trkpt><trkpt lat="43.6347976" lon="12.3391813"><ele>542.0</ele><time>2026-05-01T13:44:05.239Z</time></trkpt><trkpt lat="43.6347324" lon="12.3390773"><ele>542.0</ele><time>2026-05-01T13:44:07.247Z</time></trkpt><trkpt lat="43.6347359" lon="12.3389416"><ele>542.0</ele><time>2026-05-01T13:44:09.256Z</time></trkpt><trkpt lat="43.6347889" lon="12.3388295"><ele>542.0</ele><time>2026-05-01T13:44:11.249Z</time></trkpt><trkpt lat="43.6348696" lon="12.3388029"><ele>540.8333333333333</ele><time>2026-05-01T13:44:17.245Z</time></trkpt><trkpt lat="43.6348279" lon="12.3386952"><ele>539.6666666666666</ele><time>2026-05-01T13:44:34.242Z</time></trkpt><trkpt lat="43.6347619" lon="12.3386591"><ele>538.5</ele><time>2026-05-01T13:44:36.243Z</time></trkpt><trkpt lat="43.6346919" lon="12.3385838"><ele>537.3333333333334</ele><time>2026-05-01T13:44:39.246Z</time></trkpt><trkpt lat="43.6346406" lon="12.3385217"><ele>536.1666666666667</ele><time>2026-05-01T13:44:41.254Z</time></trkpt><trkpt lat="43.6345613" lon="12.3384744"><ele>535.0</ele><time>2026-05-01T13:44:43.251Z</time></trkpt><trkpt lat="43.6344722" lon="12.3384558"><ele>536.0</ele><time>2026-05-01T13:44:45.253Z</time></trkpt><trkpt lat="43.6343851" lon="12.3384217"><ele>537.0</ele><time>2026-05-01T13:44:47.265Z</time></trkpt><trkpt lat="43.6343095" lon="12.3383696"><ele>538.0</ele><time>2026-05-01T13:44:49.255Z</time></trkpt><trkpt lat="43.6341965" lon="12.338343"><ele>539.0</ele><time>2026-05-01T13:45:11.232Z</time></trkpt><trkpt lat="43.6340909" lon="12.3383772"><ele>540.0</ele><time>2026-05-01T13:45:13.236Z</time></trkpt><trkpt lat="43.6339899" lon="12.3384519"><ele>540.0</ele><time>2026-05-01T13:45:15.229Z</time></trkpt><trkpt lat="43.6338786" lon="12.3384801"><ele>540.0</ele><time>2026-05-01T13:45:17.232Z</time></trkpt><trkpt lat="43.6338098" lon="12.3384916"><ele>540.0</ele><time>2026-05-01T13:45:18.234Z</time></trkpt><trkpt lat="43.6337425" lon="12.3384993"><ele>540.0</ele><time>2026-05-01T13:45:19.23Z</time></trkpt><trkpt lat="43.633673" lon="12.3385"><ele>540.0</ele><time>2026-05-01T13:45:20.229Z</time></trkpt><trkpt lat="43.6335602" lon="12.3385119"><ele>540.0</ele><time>2026-05-01T13:45:22.227Z</time></trkpt><trkpt lat="43.6334953" lon="12.338538"><ele>541.8333333333334</ele><time>2026-05-01T13:45:53.229Z</time></trkpt><trkpt lat="43.6334259" lon="12.338567"><ele>543.6666666666666</ele><time>2026-05-01T13:45:57.229Z</time></trkpt><trkpt lat="43.633357" lon="12.3385832"><ele>545.5</ele><time>2026-05-01T13:45:59.232Z</time></trkpt><trkpt lat="43.6332939" lon="12.3386139"><ele>547.3333333333333</ele><time>2026-05-01T13:46:01.232Z</time></trkpt><trkpt lat="43.6332257" lon="12.3386717"><ele>549.1666666666666</ele><time>2026-05-01T13:46:03.226Z</time></trkpt><trkpt lat="43.6331527" lon="12.3387418"><ele>551.0</ele><time>2026-05-01T13:46:05.215Z</time></trkpt><trkpt lat="43.6330583" lon="12.3387824"><ele>551.0</ele><time>2026-05-01T13:46:07.218Z</time></trkpt><trkpt lat="43.6329649" lon="12.3387484"><ele>551.0</ele><time>2026-05-01T13:46:10.217Z</time></trkpt><trkpt lat="43.6328811" lon="12.3386641"><ele>551.0</ele><time>2026-05-01T13:46:12.217Z</time></trkpt><trkpt lat="43.6327826" lon="12.3385701"><ele>551.0</ele><time>2026-05-01T13:46:14.227Z</time></trkpt><trkpt lat="43.6327239" lon="12.3385305"><ele>551.0</ele><time>2026-05-01T13:46:15.221Z</time></trkpt><trkpt lat="43.6326475" lon="12.3384848"><ele>552.3333333333333</ele><time>2026-05-01T13:46:16.237Z</time></trkpt><trkpt lat="43.6325604" lon="12.3384361"><ele>553.6666666666666</ele><time>2026-05-01T13:46:17.223Z</time></trkpt><trkpt lat="43.6324759" lon="12.3383845"><ele>555.0</ele><time>2026-05-01T13:46:18.227Z</time></trkpt><trkpt lat="43.6324126" lon="12.3383601"><ele>556.3333333333334</ele><time>2026-05-01T13:46:19.225Z</time></trkpt><trkpt lat="43.6322891" lon="12.3383328"><ele>557.6666666666667</ele><time>2026-05-01T13:46:21.228Z</time></trkpt><trkpt lat="43.6322175" lon="12.3383401"><ele>559.0</ele><time>2026-05-01T13:46:23.225Z</time></trkpt><trkpt lat="43.6321544" lon="12.3383669"><ele>559.0</ele><time>2026-05-01T13:46:45.226Z</time></trkpt><trkpt lat="43.6320809" lon="12.3383763"><ele>559.0</ele><time>2026-05-01T13:46:47.228Z</time></trkpt><trkpt lat="43.6321779" lon="12.3383503"><ele>559.0</ele><time>2026-05-01T13:47:17.224Z</time></trkpt><trkpt lat="43.6322552" lon="12.3383595"><ele>559.0</ele><time>2026-05-01T13:47:19.219Z</time></trkpt><trkpt lat="43.6322173" lon="12.3382882"><ele>559.0</ele><time>2026-05-01T13:47:37.231Z</time></trkpt><trkpt lat="43.6322074" lon="12.338194"><ele>559.0</ele><time>2026-05-01T13:47:59.228Z</time></trkpt><trkpt lat="43.632231" lon="12.338291"><ele>559.0</ele><time>2026-05-01T13:51:36.238Z</time></trkpt><trkpt lat="43.6323105" lon="12.338361"><ele>559.0</ele><time>2026-05-01T13:51:39.237Z</time></trkpt><trkpt lat="43.6323928" lon="12.3384079"><ele>559.0</ele><time>2026-05-01T13:51:41.246Z</time></trkpt><trkpt lat="43.6324824" lon="12.3384506"><ele>559.0</ele><time>2026-05-01T13:51:43.247Z</time></trkpt><trkpt lat="43.632566" lon="12.3384942"><ele>559.0</ele><time>2026-05-01T13:51:45.244Z</time></trkpt><trkpt lat="43.632653" lon="12.3385264"><ele>559.0</ele><time>2026-05-01T13:51:47.238Z</time></trkpt><trkpt lat="43.632723" lon="12.338557"><ele>559.0</ele><time>2026-05-01T13:51:49.252Z</time></trkpt><trkpt lat="43.6328112" lon="12.3385963"><ele>559.0</ele><time>2026-05-01T13:51:52.239Z</time></trkpt><trkpt lat="43.6328639" lon="12.3386544"><ele>559.0</ele><time>2026-05-01T13:51:54.247Z</time></trkpt><trkpt lat="43.6329287" lon="12.3387186"><ele>559.0</ele><time>2026-05-01T13:51:56.246Z</time></trkpt><trkpt lat="43.6329831" lon="12.338778"><ele>559.0</ele><time>2026-05-01T13:51:58.237Z</time></trkpt><trkpt lat="43.6330435" lon="12.3388147"><ele>559.0</ele><time>2026-05-01T13:52:00.253Z</time></trkpt><trkpt lat="43.6331317" lon="12.3387795"><ele>557.8571428571429</ele><time>2026-05-01T13:52:03.237Z</time></trkpt><trkpt lat="43.6331919" lon="12.3387384"><ele>556.7142857142858</ele><time>2026-05-01T13:52:05.237Z</time></trkpt><trkpt lat="43.6332632" lon="12.3386716"><ele>555.5714285714286</ele><time>2026-05-01T13:52:07.232Z</time></trkpt><trkpt lat="43.6333181" lon="12.3386066"><ele>554.4285714285714</ele><time>2026-05-01T13:52:09.241Z</time></trkpt><trkpt lat="43.6333882" lon="12.3385854"><ele>553.2857142857142</ele><time>2026-05-01T13:52:19.26Z</time></trkpt><trkpt lat="43.6334599" lon="12.3385986"><ele>552.1428571428571</ele><time>2026-05-01T13:52:22.251Z</time></trkpt><trkpt lat="43.6335275" lon="12.3385928"><ele>551.0</ele><time>2026-05-01T13:52:24.241Z</time></trkpt><trkpt lat="43.6336051" lon="12.3385503"><ele>548.8</ele><time>2026-05-01T13:52:27.263Z</time></trkpt><trkpt lat="43.63369" lon="12.3384941"><ele>546.6</ele><time>2026-05-01T13:52:30.254Z</time></trkpt><trkpt lat="43.6337599" lon="12.3384454"><ele>544.4</ele><time>2026-05-01T13:52:32.255Z</time></trkpt><trkpt lat="43.6338479" lon="12.3383895"><ele>542.2</ele><time>2026-05-01T13:52:34.249Z</time></trkpt><trkpt lat="43.6339329" lon="12.3383161"><ele>540.0</ele><time>2026-05-01T13:52:36.263Z</time></trkpt><trkpt lat="43.6340366" lon="12.338276"><ele>540.0</ele><time>2026-05-01T13:52:38.255Z</time></trkpt><trkpt lat="43.6341461" lon="12.3383103"><ele>540.0</ele><time>2026-05-01T13:52:40.257Z</time></trkpt><trkpt lat="43.6342144" lon="12.3383365"><ele>540.0</ele><time>2026-05-01T13:52:41.248Z</time></trkpt><trkpt lat="43.6342868" lon="12.3383714"><ele>540.0</ele><time>2026-05-01T13:52:42.239Z</time></trkpt><trkpt lat="43.6343652" lon="12.338409"><ele>540.0</ele><time>2026-05-01T13:52:43.241Z</time></trkpt><trkpt lat="43.6344484" lon="12.338449"><ele>540.0</ele><time>2026-05-01T13:52:44.244Z</time></trkpt><trkpt lat="43.6345333" lon="12.3384768"><ele>539.1666666666666</ele><time>2026-05-01T13:52:45.242Z</time></trkpt><trkpt lat="43.6346131" lon="12.3384934"><ele>538.3333333333334</ele><time>2026-05-01T13:52:46.25Z</time></trkpt><trkpt lat="43.6346795" lon="12.3385121"><ele>537.5</ele><time>2026-05-01T13:52:47.249Z</time></trkpt><trkpt lat="43.6347562" lon="12.3385694"><ele>536.6666666666667</ele><time>2026-05-01T13:52:49.253Z</time></trkpt><trkpt lat="43.6348118" lon="12.3386429"><ele>535.8333333333334</ele><time>2026-05-01T13:52:55.248Z</time></trkpt><trkpt lat="43.6349024" lon="12.3387155"><ele>535.0</ele><time>2026-05-01T13:52:57.262Z</time></trkpt><trkpt lat="43.6349737" lon="12.3387824"><ele>535.0</ele><time>2026-05-01T13:52:59.269Z</time></trkpt><trkpt lat="43.6348696" lon="12.3388173"><ele>535.0</ele><time>2026-05-01T13:53:09.246Z</time></trkpt><trkpt lat="43.6347682" lon="12.3388912"><ele>535.0</ele><time>2026-05-01T13:53:11.261Z</time></trkpt><trkpt lat="43.6347255" lon="12.3390359"><ele>535.0</ele><time>2026-05-01T13:53:13.247Z</time></trkpt><trkpt lat="43.6348145" lon="12.3391919"><ele>534.75</ele><time>2026-05-01T13:53:15.252Z</time></trkpt><trkpt lat="43.634924" lon="12.3392712"><ele>534.5</ele><time>2026-05-01T13:53:16.26Z</time></trkpt><trkpt lat="43.6350689" lon="12.339344"><ele>534.25</ele><time>2026-05-01T13:53:17.249Z</time></trkpt><trkpt lat="43.6352057" lon="12.3394097"><ele>534.0</ele><time>2026-05-01T13:53:18.246Z</time></trkpt><trkpt lat="43.6353255" lon="12.3394709"><ele>534.0</ele><time>2026-05-01T13:53:19.255Z</time></trkpt><trkpt lat="43.6354266" lon="12.3395155"><ele>534.0</ele><time>2026-05-01T13:53:20.255Z</time></trkpt><trkpt lat="43.6355116" lon="12.3395515"><ele>534.0</ele><time>2026-05-01T13:53:21.261Z</time></trkpt><trkpt lat="43.63558" lon="12.3395834"><ele>534.0</ele><time>2026-05-01T13:53:22.255Z</time></trkpt><trkpt lat="43.6356791" lon="12.3396662"><ele>534.0</ele><time>2026-05-01T13:53:24.255Z</time></trkpt><trkpt lat="43.6357162" lon="12.3397768"><ele>537.3333333333334</ele><time>2026-05-01T13:53:26.249Z</time></trkpt><trkpt lat="43.635671" lon="12.3399265"><ele>540.6666666666666</ele><time>2026-05-01T13:53:28.248Z</time></trkpt><trkpt lat="43.6356312" lon="12.3400015"><ele>544.0</ele><time>2026-05-01T13:53:29.247Z</time></trkpt><trkpt lat="43.635581" lon="12.3400641"><ele>547.3333333333333</ele><time>2026-05-01T13:53:30.243Z</time></trkpt><trkpt lat="43.6355291" lon="12.3401152"><ele>550.6666666666666</ele><time>2026-05-01T13:53:31.244Z</time></trkpt><trkpt lat="43.6354635" lon="12.3401235"><ele>554.0</ele><time>2026-05-01T13:53:32.236Z</time></trkpt><trkpt lat="43.6353619" lon="12.3400742"><ele>555.6666666666666</ele><time>2026-05-01T13:53:33.242Z</time></trkpt><trkpt lat="43.6352039" lon="12.3400041"><ele>557.3333333333334</ele><time>2026-05-01T13:53:34.234Z</time></trkpt><trkpt lat="43.6350339" lon="12.3399295"><ele>559.0</ele><time>2026-05-01T13:53:35.237Z</time></trkpt><trkpt lat="43.6348737" lon="12.3398805"><ele>559.0</ele><time>2026-05-01T13:53:36.24Z</time></trkpt><trkpt lat="43.6347179" lon="12.3398652"><ele>559.0</ele><time>2026-05-01T13:53:37.242Z</time></trkpt><trkpt lat="43.6345646" lon="12.339863"><ele>559.0</ele><time>2026-05-01T13:53:38.253Z</time></trkpt><trkpt lat="43.6344306" lon="12.3398975"><ele>559.0</ele><time>2026-05-01T13:53:39.25Z</time></trkpt><trkpt lat="43.6343091" lon="12.3399428"><ele>559.6</ele><time>2026-05-01T13:53:40.249Z</time></trkpt><trkpt lat="43.6341941" lon="12.3399918"><ele>560.2</ele><time>2026-05-01T13:53:41.245Z</time></trkpt><trkpt lat="43.6340851" lon="12.3400488"><ele>560.8000000000001</ele><time>2026-05-01T13:53:42.267Z</time></trkpt><trkpt lat="43.6339859" lon="12.3401143"><ele>561.4</ele><time>2026-05-01T13:53:43.257Z</time></trkpt><trkpt lat="43.6338965" lon="12.3401825"><ele>562.0</ele><time>2026-05-01T13:53:44.253Z</time></trkpt><trkpt lat="43.6338211" lon="12.3402626"><ele>562.0</ele><time>2026-05-01T13:53:45.253Z</time></trkpt><trkpt lat="43.6337548" lon="12.3403459"><ele>562.0</ele><time>2026-05-01T13:53:46.26Z</time></trkpt><trkpt lat="43.6336902" lon="12.3404317"><ele>562.0</ele><time>2026-05-01T13:53:47.252Z</time></trkpt><trkpt lat="43.6336289" lon="12.3405171"><ele>562.0</ele><time>2026-05-01T13:53:48.248Z</time></trkpt><trkpt lat="43.6335699" lon="12.3405993"><ele>562.0</ele><time>2026-05-01T13:53:49.248Z</time></trkpt><trkpt lat="43.6335169" lon="12.3406789"><ele>562.0</ele><time>2026-05-01T13:53:50.25Z</time></trkpt><trkpt lat="43.6334702" lon="12.3407659"><ele>564.0</ele><time>2026-05-01T13:53:51.249Z</time></trkpt><trkpt lat="43.6334284" lon="12.3408523"><ele>566.0</ele><time>2026-05-01T13:53:52.254Z</time></trkpt><trkpt lat="43.6333911" lon="12.3409376"><ele>568.0</ele><time>2026-05-01T13:53:53.252Z</time></trkpt><trkpt lat="43.6333347" lon="12.3410841"><ele>570.0</ele><time>2026-05-01T13:53:55.257Z</time></trkpt><trkpt lat="43.6333064" lon="12.3412511"><ele>572.0</ele><time>2026-05-01T13:53:57.25Z</time></trkpt><trkpt lat="43.6333329" lon="12.3413778"><ele>574.0</ele><time>2026-05-01T13:53:59.249Z</time></trkpt><trkpt lat="43.6334139" lon="12.3414814"><ele>576.0</ele><time>2026-05-01T13:54:01.251Z</time></trkpt><trkpt lat="43.6334821" lon="12.3415276"><ele>578.0</ele><time>2026-05-01T13:54:02.253Z</time></trkpt><trkpt lat="43.6335464" lon="12.3415526"><ele>580.0</ele><time>2026-05-01T13:54:03.246Z</time></trkpt><trkpt lat="43.6336157" lon="12.3415607"><ele>582.0</ele><time>2026-05-01T13:55:55.261Z</time></trkpt><trkpt lat="43.6337242" lon="12.3415656"><ele>584.0</ele><time>2026-05-01T13:55:57.251Z</time></trkpt><trkpt lat="43.633843" lon="12.3415689"><ele>585.0</ele><time>2026-05-01T13:55:58.245Z</time></trkpt><trkpt lat="43.633976" lon="12.3415804"><ele>586.0</ele><time>2026-05-01T13:55:59.256Z</time></trkpt><trkpt lat="43.6341402" lon="12.3415871"><ele>587.0</ele><time>2026-05-01T13:56:00.248Z</time></trkpt><trkpt lat="43.6343059" lon="12.3415938"><ele>587.0</ele><time>2026-05-01T13:56:01.26Z</time></trkpt><trkpt lat="43.6344574" lon="12.3416179"><ele>587.0</ele><time>2026-05-01T13:56:02.262Z</time></trkpt><trkpt lat="43.6345929" lon="12.341633"><ele>587.0</ele><time>2026-05-01T13:56:03.262Z</time></trkpt><trkpt lat="43.6347258" lon="12.3416659"><ele>587.0</ele><time>2026-05-01T13:56:04.258Z</time></trkpt><trkpt lat="43.6348635" lon="12.3417079"><ele>586.6666666666666</ele><time>2026-05-01T13:56:05.262Z</time></trkpt><trkpt lat="43.6350074" lon="12.3417702"><ele>586.3333333333334</ele><time>2026-05-01T13:56:06.261Z</time></trkpt><trkpt lat="43.635171" lon="12.3418719"><ele>586.0</ele><time>2026-05-01T13:56:07.261Z</time></trkpt><trkpt lat="43.6353354" lon="12.3419617"><ele>587.25</ele><time>2026-05-01T13:56:08.25Z</time></trkpt><trkpt lat="43.6354868" lon="12.3419966"><ele>588.5</ele><time>2026-05-01T13:56:09.25Z</time></trkpt><trkpt lat="43.63562" lon="12.3419816"><ele>589.75</ele><time>2026-05-01T13:56:10.257Z</time></trkpt><trkpt lat="43.6357445" lon="12.341925"><ele>591.0</ele><time>2026-05-01T13:56:11.25Z</time></trkpt><trkpt lat="43.6358374" lon="12.3418873"><ele>591.0</ele><time>2026-05-01T13:56:12.26Z</time></trkpt><trkpt lat="43.6359042" lon="12.3418827"><ele>591.0</ele><time>2026-05-01T13:56:13.259Z</time></trkpt><trkpt lat="43.6360208" lon="12.3419639"><ele>591.0</ele><time>2026-05-01T13:56:15.257Z</time></trkpt><trkpt lat="43.6360544" lon="12.3420469"><ele>591.0</ele><time>2026-05-01T13:56:16.257Z</time></trkpt><trkpt lat="43.6360589" lon="12.3421415"><ele>591.0</ele><time>2026-05-01T13:56:17.261Z</time></trkpt><trkpt lat="43.6360325" lon="12.3422584"><ele>591.0</ele><time>2026-05-01T13:56:18.249Z</time></trkpt><trkpt lat="43.6359859" lon="12.3423626"><ele>594.25</ele><time>2026-05-01T13:56:19.254Z</time></trkpt><trkpt lat="43.635928" lon="12.3424619"><ele>597.5</ele><time>2026-05-01T13:56:20.257Z</time></trkpt><trkpt lat="43.6358583" lon="12.3425688"><ele>600.75</ele><time>2026-05-01T13:56:21.26Z</time></trkpt><trkpt lat="43.6357488" lon="12.3426632"><ele>604.0</ele><time>2026-05-01T13:56:22.257Z</time></trkpt><trkpt lat="43.6356338" lon="12.3427551"><ele>604.0</ele><time>2026-05-01T13:56:23.261Z</time></trkpt><trkpt lat="43.6355306" lon="12.3428379"><ele>604.0</ele><time>2026-05-01T13:56:24.259Z</time></trkpt><trkpt lat="43.6354327" lon="12.3429066"><ele>604.0</ele><time>2026-05-01T13:56:25.256Z</time></trkpt><trkpt lat="43.6353371" lon="12.3429685"><ele>604.0</ele><time>2026-05-01T13:56:26.257Z</time></trkpt><trkpt lat="43.6352428" lon="12.3430165"><ele>604.0</ele><time>2026-05-01T13:56:27.257Z</time></trkpt><trkpt lat="43.635147" lon="12.3430478"><ele>603.5</ele><time>2026-05-01T13:56:28.257Z</time></trkpt><trkpt lat="43.6350526" lon="12.3430483"><ele>603.0</ele><time>2026-05-01T13:56:29.261Z</time></trkpt><trkpt lat="43.6349651" lon="12.3430282"><ele>602.5</ele><time>2026-05-01T13:56:30.26Z</time></trkpt><trkpt lat="43.6348779" lon="12.3430092"><ele>602.0</ele><time>2026-05-01T13:56:31.257Z</time></trkpt><trkpt lat="43.6347978" lon="12.3430091"><ele>601.5</ele><time>2026-05-01T13:56:32.258Z</time></trkpt><trkpt lat="43.6347164" lon="12.3430149"><ele>601.0</ele><time>2026-05-01T13:56:33.252Z</time></trkpt><trkpt lat="43.6346383" lon="12.3430393"><ele>602.1666666666667</ele><time>2026-05-01T13:56:34.252Z</time></trkpt><trkpt lat="43.6345662" lon="12.3430724"><ele>603.3333333333334</ele><time>2026-05-01T13:56:35.257Z</time></trkpt><trkpt lat="43.6344929" lon="12.343118"><ele>604.5</ele><time>2026-05-01T13:56:36.259Z</time></trkpt><trkpt lat="43.6344338" lon="12.3431875"><ele>605.6666666666666</ele><time>2026-05-01T13:56:37.256Z</time></trkpt><trkpt lat="43.6343835" lon="12.3432788"><ele>606.8333333333333</ele><time>2026-05-01T13:56:38.258Z</time></trkpt><trkpt lat="43.6343413" lon="12.3433713"><ele>608.0</ele><time>2026-05-01T13:56:39.254Z</time></trkpt><trkpt lat="43.634301" lon="12.3434805"><ele>608.0</ele><time>2026-05-01T13:56:40.259Z</time></trkpt><trkpt lat="43.6342598" lon="12.3435935"><ele>608.0</ele><time>2026-05-01T13:56:41.256Z</time></trkpt><trkpt lat="43.6342155" lon="12.3437071"><ele>608.0</ele><time>2026-05-01T13:56:42.255Z</time></trkpt><trkpt lat="43.6341648" lon="12.3438174"><ele>608.0</ele><time>2026-05-01T13:56:43.256Z</time></trkpt><trkpt lat="43.6341129" lon="12.3439164"><ele>608.0</ele><time>2026-05-01T13:56:44.258Z</time></trkpt><trkpt lat="43.6340509" lon="12.3440055"><ele>609.5</ele><time>2026-05-01T13:56:45.259Z</time></trkpt><trkpt lat="43.6339852" lon="12.3440761"><ele>611.0</ele><time>2026-05-01T13:56:46.256Z</time></trkpt><trkpt lat="43.6339159" lon="12.3441233"><ele>612.5</ele><time>2026-05-01T13:56:47.257Z</time></trkpt><trkpt lat="43.6338471" lon="12.3441399"><ele>614.0</ele><time>2026-05-01T13:56:48.263Z</time></trkpt><trkpt lat="43.6337698" lon="12.34414"><ele>615.5</ele><time>2026-05-01T13:56:49.251Z</time></trkpt><trkpt lat="43.6336922" lon="12.3441374"><ele>617.0</ele><time>2026-05-01T13:56:50.255Z</time></trkpt><trkpt lat="43.6336193" lon="12.3441369"><ele>617.0</ele><time>2026-05-01T13:56:51.262Z</time></trkpt><trkpt lat="43.6335461" lon="12.3441455"><ele>617.0</ele><time>2026-05-01T13:56:52.258Z</time></trkpt><trkpt lat="43.6334749" lon="12.3441618"><ele>617.0</ele><time>2026-05-01T13:56:53.252Z</time></trkpt><trkpt lat="43.6334172" lon="12.3441999"><ele>617.0</ele><time>2026-05-01T13:56:54.258Z</time></trkpt><trkpt lat="43.6333695" lon="12.3442598"><ele>617.0</ele><time>2026-05-01T13:56:55.253Z</time></trkpt><trkpt lat="43.6333277" lon="12.3443376"><ele>617.0</ele><time>2026-05-01T13:56:56.26Z</time></trkpt><trkpt lat="43.6332813" lon="12.3444545"><ele>617.0</ele><time>2026-05-01T13:56:57.258Z</time></trkpt><trkpt lat="43.633219" lon="12.3446271"><ele>621.0</ele><time>2026-05-01T13:56:58.254Z</time></trkpt><trkpt lat="43.6331418" lon="12.3448137"><ele>625.0</ele><time>2026-05-01T13:56:59.255Z</time></trkpt><trkpt lat="43.6330397" lon="12.345009"><ele>629.0</ele><time>2026-05-01T13:57:00.257Z</time></trkpt><trkpt lat="43.6328946" lon="12.3452374"><ele>629.6666666666666</ele><time>2026-05-01T13:57:01.25Z</time></trkpt><trkpt lat="43.6327433" lon="12.345472"><ele>630.3333333333334</ele><time>2026-05-01T13:57:02.26Z</time></trkpt><trkpt lat="43.6326007" lon="12.3456947"><ele>631.0</ele><time>2026-05-01T13:57:03.257Z</time></trkpt><trkpt lat="43.632457" lon="12.3459108"><ele>631.0</ele><time>2026-05-01T13:57:04.251Z</time></trkpt><trkpt lat="43.6323389" lon="12.3460948"><ele>631.0</ele><time>2026-05-01T13:57:05.249Z</time></trkpt><trkpt lat="43.6322376" lon="12.3462623"><ele>631.0</ele><time>2026-05-01T13:57:06.255Z</time></trkpt><trkpt lat="43.6321561" lon="12.3464192"><ele>634.0</ele><time>2026-05-01T13:57:07.249Z</time></trkpt><trkpt lat="43.6320874" lon="12.3465817"><ele>637.0</ele><time>2026-05-01T13:57:08.256Z</time></trkpt><trkpt lat="43.6320318" lon="12.346743"><ele>640.0</ele><time>2026-05-01T13:57:09.252Z</time></trkpt><trkpt lat="43.6319937" lon="12.3469228"><ele>643.0</ele><time>2026-05-01T13:57:10.252Z</time></trkpt><trkpt lat="43.6319862" lon="12.3471238"><ele>643.0</ele><time>2026-05-01T13:57:11.251Z</time></trkpt><trkpt lat="43.6320041" lon="12.3473341"><ele>643.0</ele><time>2026-05-01T13:57:12.255Z</time></trkpt><trkpt lat="43.6320125" lon="12.3475202"><ele>643.0</ele><time>2026-05-01T13:57:13.257Z</time></trkpt><trkpt lat="43.6319935" lon="12.3476792"><ele>643.0</ele><time>2026-05-01T13:57:14.257Z</time></trkpt><trkpt lat="43.6319561" lon="12.3478381"><ele>643.0</ele><time>2026-05-01T13:57:15.263Z</time></trkpt><trkpt lat="43.631904" lon="12.3479869"><ele>643.0</ele><time>2026-05-01T13:57:16.256Z</time></trkpt><trkpt lat="43.6318531" lon="12.3481197"><ele>643.0</ele><time>2026-05-01T13:57:17.253Z</time></trkpt><trkpt lat="43.6318008" lon="12.3482367"><ele>643.0</ele><time>2026-05-01T13:57:18.248Z</time></trkpt><trkpt lat="43.6317514" lon="12.3483288"><ele>643.0</ele><time>2026-05-01T13:57:19.26Z</time></trkpt><trkpt lat="43.631699" lon="12.3483937"><ele>645.0</ele><time>2026-05-01T13:57:20.253Z</time></trkpt><trkpt lat="43.6316381" lon="12.3484515"><ele>647.0</ele><time>2026-05-01T13:57:21.249Z</time></trkpt><trkpt lat="43.6315716" lon="12.3484946"><ele>649.0</ele><time>2026-05-01T13:57:22.254Z</time></trkpt><trkpt lat="43.6315069" lon="12.3485265"><ele>651.0</ele><time>2026-05-01T13:57:23.253Z</time></trkpt><trkpt lat="43.6314419" lon="12.348541"><ele>653.0</ele><time>2026-05-01T13:57:24.255Z</time></trkpt><trkpt lat="43.6313769" lon="12.3485422"><ele>655.0</ele><time>2026-05-01T13:57:25.259Z</time></trkpt><trkpt lat="43.6313121" lon="12.3485289"><ele>657.0</ele><time>2026-05-01T13:57:26.256Z</time></trkpt><trkpt lat="43.6312002" lon="12.3484656"><ele>657.0</ele><time>2026-05-01T13:57:28.255Z</time></trkpt><trkpt lat="43.6311492" lon="12.348412"><ele>657.0</ele><time>2026-05-01T13:57:29.255Z</time></trkpt><trkpt lat="43.6310911" lon="12.3483524"><ele>657.0</ele><time>2026-05-01T13:57:30.264Z</time></trkpt><trkpt lat="43.6310319" lon="12.3482894"><ele>657.0</ele><time>2026-05-01T13:57:31.266Z</time></trkpt><trkpt lat="43.6309781" lon="12.348227"><ele>657.0</ele><time>2026-05-01T13:57:32.265Z</time></trkpt><trkpt lat="43.6309194" lon="12.3481655"><ele>657.0</ele><time>2026-05-01T13:57:33.26Z</time></trkpt><trkpt lat="43.6308557" lon="12.3480999"><ele>657.0</ele><time>2026-05-01T13:57:34.264Z</time></trkpt><trkpt lat="43.6307796" lon="12.3480362"><ele>655.5</ele><time>2026-05-01T13:57:35.261Z</time></trkpt><trkpt lat="43.6306976" lon="12.347973"><ele>654.0</ele><time>2026-05-01T13:57:36.262Z</time></trkpt><trkpt lat="43.6306149" lon="12.3479166"><ele>652.5</ele><time>2026-05-01T13:57:37.257Z</time></trkpt><trkpt lat="43.6305441" lon="12.3478759"><ele>651.0</ele><time>2026-05-01T13:57:38.257Z</time></trkpt><trkpt lat="43.6304782" lon="12.3478418"><ele>649.5</ele><time>2026-05-01T13:57:39.259Z</time></trkpt><trkpt lat="43.6304153" lon="12.3478138"><ele>648.0</ele><time>2026-05-01T13:57:40.257Z</time></trkpt><trkpt lat="43.6303456" lon="12.3478047"><ele>650.0</ele><time>2026-05-01T13:57:41.258Z</time></trkpt><trkpt lat="43.6302712" lon="12.3478184"><ele>652.0</ele><time>2026-05-01T13:57:42.267Z</time></trkpt><trkpt lat="43.630184" lon="12.3478643"><ele>654.0</ele><time>2026-05-01T13:57:43.26Z</time></trkpt><trkpt lat="43.6300752" lon="12.3479236"><ele>656.0</ele><time>2026-05-01T13:57:44.264Z</time></trkpt><trkpt lat="43.6299523" lon="12.3479782"><ele>658.0</ele><time>2026-05-01T13:57:45.261Z</time></trkpt><trkpt lat="43.6298088" lon="12.3480363"><ele>660.0</ele><time>2026-05-01T13:57:46.262Z</time></trkpt><trkpt lat="43.6296628" lon="12.3480992"><ele>662.0</ele><time>2026-05-01T13:57:47.271Z</time></trkpt><trkpt lat="43.6295198" lon="12.3481646"><ele>664.0</ele><time>2026-05-01T13:57:48.268Z</time></trkpt><trkpt lat="43.6293851" lon="12.3482404"><ele>666.0</ele><time>2026-05-01T13:57:49.264Z</time></trkpt><trkpt lat="43.6292519" lon="12.348345"><ele>666.0</ele><time>2026-05-01T13:57:50.276Z</time></trkpt><trkpt lat="43.6291292" lon="12.3484752"><ele>666.0</ele><time>2026-05-01T13:57:51.26Z</time></trkpt><trkpt lat="43.6290198" lon="12.3486258"><ele>666.0</ele><time>2026-05-01T13:57:52.249Z</time></trkpt><trkpt lat="43.628922" lon="12.3487852"><ele>666.5</ele><time>2026-05-01T13:57:53.261Z</time></trkpt><trkpt lat="43.6288321" lon="12.3489667"><ele>667.0</ele><time>2026-05-01T13:57:54.268Z</time></trkpt><trkpt lat="43.628753" lon="12.3491198"><ele>667.5</ele><time>2026-05-01T13:57:55.261Z</time></trkpt><trkpt lat="43.62868" lon="12.3492706"><ele>668.0</ele><time>2026-05-01T13:57:56.266Z</time></trkpt><trkpt lat="43.6286219" lon="12.3494326"><ele>668.0</ele><time>2026-05-01T13:57:57.257Z</time></trkpt><trkpt lat="43.6285755" lon="12.3496048"><ele>668.0</ele><time>2026-05-01T13:57:58.26Z</time></trkpt><trkpt lat="43.6285496" lon="12.3497732"><ele>668.0</ele><time>2026-05-01T13:57:59.258Z</time></trkpt><trkpt lat="43.6285453" lon="12.3499599"><ele>668.0</ele><time>2026-05-01T13:58:00.256Z</time></trkpt><trkpt lat="43.6285297" lon="12.3501618"><ele>671.3333333333333</ele><time>2026-05-01T13:58:01.258Z</time></trkpt><trkpt lat="43.6285201" lon="12.3503899"><ele>674.6666666666666</ele><time>2026-05-01T13:58:02.259Z</time></trkpt><trkpt lat="43.6285075" lon="12.3506285"><ele>678.0</ele><time>2026-05-01T13:58:03.254Z</time></trkpt><trkpt lat="43.6284928" lon="12.3508748"><ele>680.3333333333334</ele><time>2026-05-01T13:58:04.254Z</time></trkpt><trkpt lat="43.628474" lon="12.351103"><ele>682.6666666666667</ele><time>2026-05-01T13:58:05.252Z</time></trkpt><trkpt lat="43.6284659" lon="12.3513311"><ele>685.0</ele><time>2026-05-01T13:58:06.259Z</time></trkpt><trkpt lat="43.6284512" lon="12.3515399"><ele>688.0</ele><time>2026-05-01T13:58:07.254Z</time></trkpt><trkpt lat="43.6284291" lon="12.3517347"><ele>691.0</ele><time>2026-05-01T13:58:08.248Z</time></trkpt><trkpt lat="43.6283957" lon="12.3519221"><ele>694.0</ele><time>2026-05-01T13:58:09.251Z</time></trkpt><trkpt lat="43.6283534" lon="12.3521138"><ele>697.0</ele><time>2026-05-01T13:58:10.248Z</time></trkpt><trkpt lat="43.628298" lon="12.3522795"><ele>700.25</ele><time>2026-05-01T13:58:11.249Z</time></trkpt><trkpt lat="43.6282106" lon="12.3524238"><ele>703.5</ele><time>2026-05-01T13:58:12.234Z</time></trkpt><trkpt lat="43.6281025" lon="12.3525487"><ele>706.75</ele><time>2026-05-01T13:58:13.249Z</time></trkpt><trkpt lat="43.6279693" lon="12.3526408"><ele>710.0</ele><time>2026-05-01T13:58:14.256Z</time></trkpt><trkpt lat="43.6278568" lon="12.3527193"><ele>709.8</ele><time>2026-05-01T13:58:15.251Z</time></trkpt><trkpt lat="43.6277588" lon="12.3527677"><ele>709.6</ele><time>2026-05-01T13:58:16.25Z</time></trkpt><trkpt lat="43.6276683" lon="12.3527707"><ele>709.4000000000001</ele><time>2026-05-01T13:58:17.251Z</time></trkpt><trkpt lat="43.6275722" lon="12.3527428"><ele>709.2</ele><time>2026-05-01T13:58:18.255Z</time></trkpt><trkpt lat="43.6274887" lon="12.3526734"><ele>709.0</ele><time>2026-05-01T13:58:19.256Z</time></trkpt><trkpt lat="43.6274236" lon="12.3525562"><ele>709.0</ele><time>2026-05-01T13:58:20.255Z</time></trkpt><trkpt lat="43.6273628" lon="12.3523915"><ele>709.0</ele><time>2026-05-01T13:58:21.263Z</time></trkpt><trkpt lat="43.6272973" lon="12.3522093"><ele>709.0</ele><time>2026-05-01T13:58:22.27Z</time></trkpt><trkpt lat="43.6272541" lon="12.3520156"><ele>709.0</ele><time>2026-05-01T13:58:23.277Z</time></trkpt><trkpt lat="43.6272526" lon="12.3518323"><ele>708.25</ele><time>2026-05-01T13:58:24.26Z</time></trkpt><trkpt lat="43.6272389" lon="12.3516891"><ele>707.5</ele><time>2026-05-01T13:58:25.267Z</time></trkpt><trkpt lat="43.6271849" lon="12.3515741"><ele>706.75</ele><time>2026-05-01T13:58:26.257Z</time></trkpt><trkpt lat="43.6270822" lon="12.3514585"><ele>706.0</ele><time>2026-05-01T13:58:27.247Z</time></trkpt><trkpt lat="43.6269594" lon="12.3513741"><ele>710.6666666666667</ele><time>2026-05-01T13:58:28.253Z</time></trkpt><trkpt lat="43.6268163" lon="12.3512896"><ele>715.3333333333334</ele><time>2026-05-01T13:58:29.257Z</time></trkpt><trkpt lat="43.6266646" lon="12.3511911"><ele>720.0</ele><time>2026-05-01T13:58:30.254Z</time></trkpt><trkpt lat="43.6265326" lon="12.3510958"><ele>720.0</ele><time>2026-05-01T13:58:31.257Z</time></trkpt><trkpt lat="43.6264293" lon="12.3510117"><ele>720.0</ele><time>2026-05-01T13:58:32.262Z</time></trkpt><trkpt lat="43.626352" lon="12.3509088"><ele>720.0</ele><time>2026-05-01T13:58:33.257Z</time></trkpt><trkpt lat="43.6262979" lon="12.3507881"><ele>720.0</ele><time>2026-05-01T13:58:34.259Z</time></trkpt><trkpt lat="43.6262782" lon="12.3506402"><ele>720.0</ele><time>2026-05-01T13:58:35.257Z</time></trkpt><trkpt lat="43.6262921" lon="12.3504642"><ele>719.0</ele><time>2026-05-01T13:58:36.253Z</time></trkpt><trkpt lat="43.6263416" lon="12.350255"><ele>718.0</ele><time>2026-05-01T13:58:37.255Z</time></trkpt><trkpt lat="43.6263599" lon="12.3500725"><ele>717.0</ele><time>2026-05-01T13:58:38.243Z</time></trkpt><trkpt lat="43.6263684" lon="12.3499143"><ele>716.0</ele><time>2026-05-01T13:58:39.244Z</time></trkpt><trkpt lat="43.6263633" lon="12.3497846"><ele>714.8</ele><time>2026-05-01T13:58:40.244Z</time></trkpt><trkpt lat="43.6263369" lon="12.349669"><ele>713.5999999999999</ele><time>2026-05-01T13:58:41.245Z</time></trkpt><trkpt lat="43.6262873" lon="12.3495771"><ele>712.4</ele><time>2026-05-01T13:58:42.262Z</time></trkpt><trkpt lat="43.6262039" lon="12.349522"><ele>711.2</ele><time>2026-05-01T13:58:43.264Z</time></trkpt><trkpt lat="43.626072" lon="12.3494842"><ele>710.0</ele><time>2026-05-01T13:58:44.249Z</time></trkpt><trkpt lat="43.6258919" lon="12.3494434"><ele>717.3333333333333</ele><time>2026-05-01T13:58:45.248Z</time></trkpt><trkpt lat="43.625717" lon="12.3493723"><ele>724.6666666666666</ele><time>2026-05-01T13:58:46.248Z</time></trkpt><trkpt lat="43.6255703" lon="12.3492524"><ele>732.0</ele><time>2026-05-01T13:58:47.258Z</time></trkpt><trkpt lat="43.6254652" lon="12.3491405"><ele>732.0</ele><time>2026-05-01T13:58:48.248Z</time></trkpt><trkpt lat="43.6253804" lon="12.3490221"><ele>732.0</ele><time>2026-05-01T13:58:49.253Z</time></trkpt><trkpt lat="43.625303" lon="12.3488734"><ele>732.0</ele><time>2026-05-01T13:58:50.26Z</time></trkpt><trkpt lat="43.6252276" lon="12.3486834"><ele>732.0</ele><time>2026-05-01T13:58:51.247Z</time></trkpt><trkpt lat="43.6251557" lon="12.3484711"><ele>735.0</ele><time>2026-05-01T13:58:52.265Z</time></trkpt><trkpt lat="43.6250882" lon="12.3482411"><ele>738.0</ele><time>2026-05-01T13:58:53.25Z</time></trkpt><trkpt lat="43.6250168" lon="12.3480137"><ele>741.0</ele><time>2026-05-01T13:58:54.256Z</time></trkpt><trkpt lat="43.6249397" lon="12.3477613"><ele>742.3333333333334</ele><time>2026-05-01T13:58:55.261Z</time></trkpt><trkpt lat="43.6248504" lon="12.3475082"><ele>743.6666666666667</ele><time>2026-05-01T13:58:56.263Z</time></trkpt><trkpt lat="43.6247712" lon="12.347275"><ele>745.0</ele><time>2026-05-01T13:58:57.256Z</time></trkpt><trkpt lat="43.6247092" lon="12.3470554"><ele>746.3333333333334</ele><time>2026-05-01T13:58:58.252Z</time></trkpt><trkpt lat="43.6246469" lon="12.3468586"><ele>747.6666666666666</ele><time>2026-05-01T13:58:59.251Z</time></trkpt><trkpt lat="43.6245797" lon="12.346653"><ele>749.0</ele><time>2026-05-01T13:59:00.253Z</time></trkpt><trkpt lat="43.6245152" lon="12.3464468"><ele>749.75</ele><time>2026-05-01T13:59:01.26Z</time></trkpt><trkpt lat="43.6244489" lon="12.3462536"><ele>750.5</ele><time>2026-05-01T13:59:02.261Z</time></trkpt><trkpt lat="43.6243896" lon="12.3460847"><ele>751.25</ele><time>2026-05-01T13:59:03.256Z</time></trkpt><trkpt lat="43.6243416" lon="12.3459302"><ele>752.0</ele><time>2026-05-01T13:59:04.258Z</time></trkpt><trkpt lat="43.6243068" lon="12.3457789"><ele>752.0</ele><time>2026-05-01T13:59:05.257Z</time></trkpt><trkpt lat="43.624297" lon="12.3456177"><ele>752.0</ele><time>2026-05-01T13:59:06.261Z</time></trkpt><trkpt lat="43.6243081" lon="12.3454715"><ele>752.0</ele><time>2026-05-01T13:59:07.251Z</time></trkpt><trkpt lat="43.6243482" lon="12.3453183"><ele>752.0</ele><time>2026-05-01T13:59:08.251Z</time></trkpt><trkpt lat="43.6244125" lon="12.3451424"><ele>748.0</ele><time>2026-05-01T13:59:09.254Z</time></trkpt><trkpt lat="43.6245107" lon="12.3449616"><ele>744.0</ele><time>2026-05-01T13:59:10.253Z</time></trkpt><trkpt lat="43.6246305" lon="12.3447977"><ele>740.0</ele><time>2026-05-01T13:59:11.246Z</time></trkpt><trkpt lat="43.6247804" lon="12.3446161"><ele>739.3333333333333</ele><time>2026-05-01T13:59:12.251Z</time></trkpt><trkpt lat="43.6249443" lon="12.3444177"><ele>738.6666666666666</ele><time>2026-05-01T13:59:13.249Z</time></trkpt><trkpt lat="43.6250921" lon="12.3442278"><ele>738.0</ele><time>2026-05-01T13:59:14.262Z</time></trkpt><trkpt lat="43.625225" lon="12.3440536"><ele>735.25</ele><time>2026-05-01T13:59:15.246Z</time></trkpt><trkpt lat="43.6253429" lon="12.3438955"><ele>732.5</ele><time>2026-05-01T13:59:16.249Z</time></trkpt><trkpt lat="43.6254518" lon="12.3437566"><ele>729.75</ele><time>2026-05-01T13:59:17.249Z</time></trkpt><trkpt lat="43.625544" lon="12.343641"><ele>727.0</ele><time>2026-05-01T13:59:18.256Z</time></trkpt><trkpt lat="43.6256221" lon="12.3435251"><ele>727.0</ele><time>2026-05-01T13:59:19.251Z</time></trkpt><trkpt lat="43.6256818" lon="12.3433875"><ele>727.0</ele><time>2026-05-01T13:59:20.259Z</time></trkpt><trkpt lat="43.625714" lon="12.3432308"><ele>727.0</ele><time>2026-05-01T13:59:21.26Z</time></trkpt><trkpt lat="43.6257194" lon="12.3430232"><ele>727.0</ele><time>2026-05-01T13:59:22.256Z</time></trkpt><trkpt lat="43.6257066" lon="12.3427896"><ele>727.0</ele><time>2026-05-01T13:59:23.263Z</time></trkpt><trkpt lat="43.6256745" lon="12.3425143"><ele>727.0</ele><time>2026-05-01T13:59:24.255Z</time></trkpt><trkpt lat="43.6256447" lon="12.3422027"><ele>727.0</ele><time>2026-05-01T13:59:25.246Z</time></trkpt><trkpt lat="43.625607" lon="12.3418814"><ele>729.5</ele><time>2026-05-01T13:59:26.254Z</time></trkpt><trkpt lat="43.625571" lon="12.3415495"><ele>732.0</ele><time>2026-05-01T13:59:27.257Z</time></trkpt><trkpt lat="43.6255323" lon="12.3412115"><ele>732.0</ele><time>2026-05-01T13:59:28.253Z</time></trkpt><trkpt lat="43.6255" lon="12.3408913"><ele>732.0</ele><time>2026-05-01T13:59:29.25Z</time></trkpt><trkpt lat="43.6254591" lon="12.3406078"><ele>732.0</ele><time>2026-05-01T13:59:30.257Z</time></trkpt><trkpt lat="43.6254166" lon="12.3403591"><ele>731.3333333333334</ele><time>2026-05-01T13:59:31.258Z</time></trkpt><trkpt lat="43.6253818" lon="12.3401424"><ele>730.6666666666667</ele><time>2026-05-01T13:59:32.252Z</time></trkpt><trkpt lat="43.6253538" lon="12.3399102"><ele>730.0</ele><time>2026-05-01T13:59:33.261Z</time></trkpt><trkpt lat="43.625335" lon="12.3396911"><ele>728.5</ele><time>2026-05-01T13:59:34.257Z</time></trkpt><trkpt lat="43.6253235" lon="12.339498"><ele>727.0</ele><time>2026-05-01T13:59:35.263Z</time></trkpt><trkpt lat="43.6253347" lon="12.3393379"><ele>725.5</ele><time>2026-05-01T13:59:36.256Z</time></trkpt><trkpt lat="43.6253469" lon="12.3391741"><ele>724.0</ele><time>2026-05-01T13:59:37.253Z</time></trkpt><trkpt lat="43.6253804" lon="12.3389903"><ele>724.0</ele><time>2026-05-01T13:59:38.249Z</time></trkpt><trkpt lat="43.6254266" lon="12.3387919"><ele>724.0</ele><time>2026-05-01T13:59:39.268Z</time></trkpt><trkpt lat="43.6254681" lon="12.3385892"><ele>724.0</ele><time>2026-05-01T13:59:40.253Z</time></trkpt><trkpt lat="43.6255057" lon="12.3383939"><ele>724.0</ele><time>2026-05-01T13:59:41.25Z</time></trkpt><trkpt lat="43.6255251" lon="12.3382217"><ele>724.0</ele><time>2026-05-01T13:59:42.252Z</time></trkpt><trkpt lat="43.6255267" lon="12.3380749"><ele>724.0</ele><time>2026-05-01T13:59:43.255Z</time></trkpt><trkpt lat="43.6255161" lon="12.3379753"><ele>724.0</ele><time>2026-05-01T13:59:44.255Z</time></trkpt><trkpt lat="43.6254269" lon="12.3378495"><ele>724.0</ele><time>2026-05-01T13:59:46.256Z</time></trkpt><trkpt lat="43.6253589" lon="12.3378139"><ele>728.6</ele><time>2026-05-01T13:59:47.258Z</time></trkpt><trkpt lat="43.6252775" lon="12.3378207"><ele>733.2</ele><time>2026-05-01T13:59:48.253Z</time></trkpt><trkpt lat="43.6251924" lon="12.3378571"><ele>737.8000000000001</ele><time>2026-05-01T13:59:49.25Z</time></trkpt><trkpt lat="43.6251047" lon="12.3379178"><ele>742.4000000000001</ele><time>2026-05-01T13:59:50.25Z</time></trkpt><trkpt lat="43.6250067" lon="12.3380219"><ele>747.0</ele><time>2026-05-01T13:59:51.245Z</time></trkpt><trkpt lat="43.6249147" lon="12.3381332"><ele>747.0</ele><time>2026-05-01T13:59:52.246Z</time></trkpt><trkpt lat="43.6248238" lon="12.3382218"><ele>747.0</ele><time>2026-05-01T13:59:53.249Z</time></trkpt><trkpt lat="43.624733" lon="12.3382803"><ele>747.0</ele><time>2026-05-01T13:59:54.253Z</time></trkpt><trkpt lat="43.6246535" lon="12.3383053"><ele>747.0</ele><time>2026-05-01T13:59:55.253Z</time></trkpt><trkpt lat="43.6245814" lon="12.3383036"><ele>747.0</ele><time>2026-05-01T13:59:56.252Z</time></trkpt><trkpt lat="43.6245123" lon="12.3382513"><ele>747.0</ele><time>2026-05-01T13:59:57.248Z</time></trkpt><trkpt lat="43.624449" lon="12.3381599"><ele>747.25</ele><time>2026-05-01T13:59:58.249Z</time></trkpt><trkpt lat="43.6243775" lon="12.3380222"><ele>747.5</ele><time>2026-05-01T13:59:59.25Z</time></trkpt><trkpt lat="43.6243029" lon="12.3378414"><ele>747.75</ele><time>2026-05-01T14:00:00.247Z</time></trkpt><trkpt lat="43.6242275" lon="12.3376566"><ele>748.0</ele><time>2026-05-01T14:00:01.25Z</time></trkpt><trkpt lat="43.6241546" lon="12.3374877"><ele>748.0</ele><time>2026-05-01T14:00:02.247Z</time></trkpt><trkpt lat="43.6240953" lon="12.3373366"><ele>748.0</ele><time>2026-05-01T14:00:03.25Z</time></trkpt><trkpt lat="43.6240472" lon="12.337183"><ele>748.0</ele><time>2026-05-01T14:00:04.256Z</time></trkpt><trkpt lat="43.6240296" lon="12.3369865"><ele>748.0</ele><time>2026-05-01T14:00:05.25Z</time></trkpt><trkpt lat="43.6240267" lon="12.3367354"><ele>750.3333333333334</ele><time>2026-05-01T14:00:06.252Z</time></trkpt><trkpt lat="43.6240175" lon="12.3364872"><ele>752.6666666666666</ele><time>2026-05-01T14:00:07.251Z</time></trkpt><trkpt lat="43.6240106" lon="12.3362705"><ele>755.0</ele><time>2026-05-01T14:00:08.249Z</time></trkpt><trkpt lat="43.6240033" lon="12.3360897"><ele>757.25</ele><time>2026-05-01T14:00:09.243Z</time></trkpt><trkpt lat="43.6239822" lon="12.3359281"><ele>759.5</ele><time>2026-05-01T14:00:10.249Z</time></trkpt><trkpt lat="43.6239497" lon="12.3357872"><ele>761.75</ele><time>2026-05-01T14:00:11.237Z</time></trkpt><trkpt lat="43.6238778" lon="12.3356727"><ele>764.0</ele><time>2026-05-01T14:00:12.252Z</time></trkpt><trkpt lat="43.6237781" lon="12.335584"><ele>763.0</ele><time>2026-05-01T14:00:13.246Z</time></trkpt><trkpt lat="43.6236558" lon="12.3355353"><ele>762.0</ele><time>2026-05-01T14:00:14.249Z</time></trkpt><trkpt lat="43.62352" lon="12.3355297"><ele>761.0</ele><time>2026-05-01T14:00:15.244Z</time></trkpt><trkpt lat="43.6233889" lon="12.3355377"><ele>760.0</ele><time>2026-05-01T14:00:16.239Z</time></trkpt><trkpt lat="43.6232732" lon="12.3355141"><ele>760.0</ele><time>2026-05-01T14:00:17.245Z</time></trkpt><trkpt lat="43.6231695" lon="12.3354564"><ele>760.0</ele><time>2026-05-01T14:00:18.237Z</time></trkpt><trkpt lat="43.6230606" lon="12.3353538"><ele>760.0</ele><time>2026-05-01T14:00:19.245Z</time></trkpt><trkpt lat="43.6229376" lon="12.3351985"><ele>760.0</ele><time>2026-05-01T14:00:20.245Z</time></trkpt><trkpt lat="43.6228256" lon="12.3350312"><ele>758.0</ele><time>2026-05-01T14:00:21.248Z</time></trkpt><trkpt lat="43.6227206" lon="12.334888"><ele>756.0</ele><time>2026-05-01T14:00:22.247Z</time></trkpt><trkpt lat="43.6226302" lon="12.3347177"><ele>754.0</ele><time>2026-05-01T14:00:23.246Z</time></trkpt><trkpt lat="43.6225518" lon="12.3345515"><ele>752.0</ele><time>2026-05-01T14:00:24.246Z</time></trkpt><trkpt lat="43.6224746" lon="12.334407"><ele>752.0</ele><time>2026-05-01T14:00:25.25Z</time></trkpt><trkpt lat="43.6223863" lon="12.3342867"><ele>752.0</ele><time>2026-05-01T14:00:26.254Z</time></trkpt><trkpt lat="43.6222571" lon="12.3342001"><ele>752.0</ele><time>2026-05-01T14:00:27.255Z</time></trkpt><trkpt lat="43.6220847" lon="12.3341368"><ele>752.0</ele><time>2026-05-01T14:00:28.252Z</time></trkpt><trkpt lat="43.6218799" lon="12.3341026"><ele>748.0</ele><time>2026-05-01T14:00:29.246Z</time></trkpt><trkpt lat="43.6217172" lon="12.3340621"><ele>744.0</ele><time>2026-05-01T14:00:30.247Z</time></trkpt><trkpt lat="43.6215701" lon="12.3340128"><ele>740.0</ele><time>2026-05-01T14:00:31.253Z</time></trkpt><trkpt lat="43.6214333" lon="12.3339793"><ele>740.0</ele><time>2026-05-01T14:00:32.25Z</time></trkpt><trkpt lat="43.6212934" lon="12.3339824"><ele>740.0</ele><time>2026-05-01T14:00:33.246Z</time></trkpt><trkpt lat="43.6211389" lon="12.3340395"><ele>740.0</ele><time>2026-05-01T14:00:34.244Z</time></trkpt><trkpt lat="43.6210039" lon="12.3341384"><ele>744.3333333333333</ele><time>2026-05-01T14:00:35.243Z</time></trkpt><trkpt lat="43.6208714" lon="12.3342845"><ele>748.6666666666666</ele><time>2026-05-01T14:00:36.246Z</time></trkpt><trkpt lat="43.6207442" lon="12.3344737"><ele>753.0</ele><time>2026-05-01T14:00:37.243Z</time></trkpt><trkpt lat="43.6206359" lon="12.3346399"><ele>752.5</ele><time>2026-05-01T14:00:38.241Z</time></trkpt><trkpt lat="43.6205578" lon="12.3347504"><ele>752.0</ele><time>2026-05-01T14:00:39.235Z</time></trkpt><trkpt lat="43.6204635" lon="12.3348164"><ele>751.5</ele><time>2026-05-01T14:00:40.237Z</time></trkpt><trkpt lat="43.620348" lon="12.3348651"><ele>751.0</ele><time>2026-05-01T14:00:41.243Z</time></trkpt><trkpt lat="43.6202285" lon="12.334866"><ele>751.0</ele><time>2026-05-01T14:00:42.238Z</time></trkpt><trkpt lat="43.6200912" lon="12.3348434"><ele>751.0</ele><time>2026-05-01T14:00:43.236Z</time></trkpt><trkpt lat="43.619963" lon="12.3348084"><ele>751.0</ele><time>2026-05-01T14:00:44.244Z</time></trkpt><trkpt lat="43.6198341" lon="12.3347949"><ele>751.0</ele><time>2026-05-01T14:00:45.237Z</time></trkpt><trkpt lat="43.6197103" lon="12.3348113"><ele>751.0</ele><time>2026-05-01T14:00:46.24Z</time></trkpt><trkpt lat="43.6195949" lon="12.3348487"><ele>751.0</ele><time>2026-05-01T14:00:47.241Z</time></trkpt><trkpt lat="43.6194955" lon="12.3348917"><ele>751.0</ele><time>2026-05-01T14:00:48.249Z</time></trkpt><trkpt lat="43.6194117" lon="12.3349265"><ele>751.0</ele><time>2026-05-01T14:00:49.251Z</time></trkpt><trkpt lat="43.6193453" lon="12.334953"><ele>751.0</ele><time>2026-05-01T14:00:50.256Z</time></trkpt><trkpt lat="43.6192521" lon="12.334987"><ele>750.5</ele><time>2026-05-01T14:00:52.259Z</time></trkpt><trkpt lat="43.6191949" lon="12.3350331"><ele>750.0</ele><time>2026-05-01T14:00:54.254Z</time></trkpt><trkpt lat="43.6191615" lon="12.3351392"><ele>749.5</ele><time>2026-05-01T14:01:44.26Z</time></trkpt><trkpt lat="43.6191322" lon="12.3352169"><ele>749.0</ele><time>2026-05-01T14:01:46.257Z</time></trkpt><trkpt lat="43.6190694" lon="12.3353449"><ele>748.5</ele><time>2026-05-01T14:02:19.274Z</time></trkpt><trkpt lat="43.6190246" lon="12.3354566"><ele>748.0</ele><time>2026-05-01T14:02:20.268Z</time></trkpt><trkpt lat="43.6189757" lon="12.3355855"><ele>749.5</ele><time>2026-05-01T14:02:21.274Z</time></trkpt><trkpt lat="43.6189321" lon="12.3357355"><ele>751.0</ele><time>2026-05-01T14:02:22.275Z</time></trkpt><trkpt lat="43.618886" lon="12.3358968"><ele>752.5</ele><time>2026-05-01T14:02:23.268Z</time></trkpt><trkpt lat="43.6188411" lon="12.3360535"><ele>754.0</ele><time>2026-05-01T14:02:24.265Z</time></trkpt><trkpt lat="43.6187897" lon="12.3362167"><ele>754.0</ele><time>2026-05-01T14:02:25.267Z</time></trkpt><trkpt lat="43.6187247" lon="12.3363857"><ele>754.0</ele><time>2026-05-01T14:02:26.267Z</time></trkpt><trkpt lat="43.6186559" lon="12.3365485"><ele>754.0</ele><time>2026-05-01T14:02:27.267Z</time></trkpt><trkpt lat="43.6185735" lon="12.3367124"><ele>754.0</ele><time>2026-05-01T14:02:28.264Z</time></trkpt><trkpt lat="43.6184948" lon="12.3368687"><ele>754.25</ele><time>2026-05-01T14:02:29.267Z</time></trkpt><trkpt lat="43.6184143" lon="12.3370174"><ele>754.5</ele><time>2026-05-01T14:02:30.269Z</time></trkpt><trkpt lat="43.6183276" lon="12.3371507"><ele>754.75</ele><time>2026-05-01T14:02:31.268Z</time></trkpt><trkpt lat="43.618233" lon="12.3372658"><ele>755.0</ele><time>2026-05-01T14:02:32.279Z</time></trkpt><trkpt lat="43.6181436" lon="12.3373542"><ele>756.2</ele><time>2026-05-01T14:02:33.27Z</time></trkpt><trkpt lat="43.6180679" lon="12.3374303"><ele>757.4</ele><time>2026-05-01T14:02:34.265Z</time></trkpt><trkpt lat="43.6179954" lon="12.3375124"><ele>758.5999999999999</ele><time>2026-05-01T14:02:35.256Z</time></trkpt><trkpt lat="43.6179307" lon="12.3376105"><ele>759.8</ele><time>2026-05-01T14:02:36.243Z</time></trkpt><trkpt lat="43.617878" lon="12.3377352"><ele>761.0</ele><time>2026-05-01T14:02:37.253Z</time></trkpt><trkpt lat="43.6178326" lon="12.3378941"><ele>760.0</ele><time>2026-05-01T14:02:38.254Z</time></trkpt><trkpt lat="43.6177944" lon="12.3380653"><ele>759.0</ele><time>2026-05-01T14:02:39.267Z</time></trkpt><trkpt lat="43.6177625" lon="12.3382519"><ele>758.0</ele><time>2026-05-01T14:02:40.266Z</time></trkpt><trkpt lat="43.6177233" lon="12.3384518"><ele>757.0</ele><time>2026-05-01T14:02:41.265Z</time></trkpt><trkpt lat="43.6176853" lon="12.3386591"><ele>757.0</ele><time>2026-05-01T14:02:42.261Z</time></trkpt><trkpt lat="43.6176356" lon="12.3388755"><ele>757.0</ele><time>2026-05-01T14:02:43.265Z</time></trkpt><trkpt lat="43.6175848" lon="12.3390868"><ele>757.0</ele><time>2026-05-01T14:02:44.267Z</time></trkpt><trkpt lat="43.6175306" lon="12.3392794"><ele>755.0</ele><time>2026-05-01T14:02:45.274Z</time></trkpt><trkpt lat="43.6174734" lon="12.3394801"><ele>753.0</ele><time>2026-05-01T14:02:46.255Z</time></trkpt><trkpt lat="43.6174219" lon="12.3396604"><ele>751.0</ele><time>2026-05-01T14:02:47.254Z</time></trkpt><trkpt lat="43.6173855" lon="12.3398363"><ele>749.0</ele><time>2026-05-01T14:02:48.255Z</time></trkpt><trkpt lat="43.6173646" lon="12.3400116"><ele>746.8000000000001</ele><time>2026-05-01T14:02:49.258Z</time></trkpt><trkpt lat="43.6173503" lon="12.3401679"><ele>744.6</ele><time>2026-05-01T14:02:50.259Z</time></trkpt><trkpt lat="43.6173492" lon="12.3403142"><ele>742.4</ele><time>2026-05-01T14:02:51.257Z</time></trkpt><trkpt lat="43.6173392" lon="12.3404578"><ele>740.2</ele><time>2026-05-01T14:02:52.258Z</time></trkpt><trkpt lat="43.617323" lon="12.3405929"><ele>738.0</ele><time>2026-05-01T14:02:53.256Z</time></trkpt><trkpt lat="43.6172936" lon="12.3407286"><ele>735.8</ele><time>2026-05-01T14:02:54.263Z</time></trkpt><trkpt lat="43.6172402" lon="12.3408581"><ele>733.5999999999999</ele><time>2026-05-01T14:02:55.263Z</time></trkpt><trkpt lat="43.6171809" lon="12.3409919"><ele>731.4000000000001</ele><time>2026-05-01T14:02:56.249Z</time></trkpt><trkpt lat="43.6171312" lon="12.3411106"><ele>729.2</ele><time>2026-05-01T14:02:57.253Z</time></trkpt><trkpt lat="43.6170823" lon="12.3412311"><ele>727.0</ele><time>2026-05-01T14:02:58.263Z</time></trkpt><trkpt lat="43.6170555" lon="12.3413761"><ele>726.0</ele><time>2026-05-01T14:02:59.26Z</time></trkpt><trkpt lat="43.6170368" lon="12.3415316"><ele>725.0</ele><time>2026-05-01T14:03:00.266Z</time></trkpt><trkpt lat="43.617044" lon="12.3416964"><ele>724.0</ele><time>2026-05-01T14:03:01.27Z</time></trkpt><trkpt lat="43.617058" lon="12.3418642"><ele>723.0</ele><time>2026-05-01T14:03:02.282Z</time></trkpt><trkpt lat="43.6170846" lon="12.3420244"><ele>723.0</ele><time>2026-05-01T14:03:03.273Z</time></trkpt><trkpt lat="43.6171176" lon="12.3421795"><ele>723.0</ele><time>2026-05-01T14:03:04.276Z</time></trkpt><trkpt lat="43.6171666" lon="12.3423279"><ele>723.0</ele><time>2026-05-01T14:03:05.295Z</time></trkpt><trkpt lat="43.6172177" lon="12.3424604"><ele>723.0</ele><time>2026-05-01T14:03:06.292Z</time></trkpt><trkpt lat="43.6172638" lon="12.3425664"><ele>723.0</ele><time>2026-05-01T14:03:07.279Z</time></trkpt><trkpt lat="43.6173012" lon="12.342674"><ele>722.8</ele><time>2026-05-01T14:03:08.282Z</time></trkpt><trkpt lat="43.6173193" lon="12.3427785"><ele>722.5999999999999</ele><time>2026-05-01T14:03:09.26Z</time></trkpt><trkpt lat="43.6173214" lon="12.3428956"><ele>722.4000000000001</ele><time>2026-05-01T14:03:10.274Z</time></trkpt><trkpt lat="43.6172806" lon="12.3430217"><ele>722.2</ele><time>2026-05-01T14:03:11.278Z</time></trkpt><trkpt lat="43.6172135" lon="12.3431854"><ele>722.0</ele><time>2026-05-01T14:03:12.271Z</time></trkpt><trkpt lat="43.6171321" lon="12.3433427"><ele>723.0</ele><time>2026-05-01T14:03:13.266Z</time></trkpt><trkpt lat="43.617023" lon="12.3434963"><ele>724.0</ele><time>2026-05-01T14:03:14.267Z</time></trkpt><trkpt lat="43.6169091" lon="12.3436342"><ele>725.0</ele><time>2026-05-01T14:03:15.258Z</time></trkpt><trkpt lat="43.6168023" lon="12.3437551"><ele>726.0</ele><time>2026-05-01T14:03:16.273Z</time></trkpt><trkpt lat="43.6167076" lon="12.3438566"><ele>721.5999999999999</ele><time>2026-05-01T14:03:17.27Z</time></trkpt><trkpt lat="43.6165847" lon="12.3439485"><ele>717.2</ele><time>2026-05-01T14:03:18.276Z</time></trkpt><trkpt lat="43.6164801" lon="12.344038"><ele>712.8</ele><time>2026-05-01T14:03:19.268Z</time></trkpt><trkpt lat="43.6163952" lon="12.3441069"><ele>708.4000000000001</ele><time>2026-05-01T14:03:20.27Z</time></trkpt><trkpt lat="43.6163468" lon="12.3441664"><ele>704.0</ele><time>2026-05-01T14:03:21.263Z</time></trkpt><trkpt lat="43.6162979" lon="12.344232"><ele>704.0</ele><time>2026-05-01T14:03:22.27Z</time></trkpt><trkpt lat="43.6162375" lon="12.3443112"><ele>704.0</ele><time>2026-05-01T14:03:23.264Z</time></trkpt><trkpt lat="43.6161757" lon="12.3443802"><ele>704.0</ele><time>2026-05-01T14:03:24.26Z</time></trkpt><trkpt lat="43.6161175" lon="12.3444403"><ele>704.0</ele><time>2026-05-01T14:03:25.263Z</time></trkpt><trkpt lat="43.6160051" lon="12.3444392"><ele>704.0</ele><time>2026-05-01T14:03:27.249Z</time></trkpt><trkpt lat="43.6159285" lon="12.3443853"><ele>704.0</ele><time>2026-05-01T14:03:28.245Z</time></trkpt><trkpt lat="43.61584" lon="12.3442591"><ele>704.25</ele><time>2026-05-01T14:03:29.242Z</time></trkpt><trkpt lat="43.615746" lon="12.3440996"><ele>704.5</ele><time>2026-05-01T14:03:30.236Z</time></trkpt><trkpt lat="43.6156574" lon="12.3439453"><ele>704.75</ele><time>2026-05-01T14:03:31.252Z</time></trkpt><trkpt lat="43.6155715" lon="12.343815"><ele>705.0</ele><time>2026-05-01T14:03:32.242Z</time></trkpt><trkpt lat="43.6155069" lon="12.3437066"><ele>708.6</ele><time>2026-05-01T14:03:33.245Z</time></trkpt><trkpt lat="43.615446" lon="12.3436165"><ele>712.2</ele><time>2026-05-01T14:03:34.254Z</time></trkpt><trkpt lat="43.6153749" lon="12.3435521"><ele>715.8</ele><time>2026-05-01T14:03:35.253Z</time></trkpt><trkpt lat="43.6153031" lon="12.3435475"><ele>719.4</ele><time>2026-05-01T14:03:36.251Z</time></trkpt><trkpt lat="43.6152378" lon="12.3436159"><ele>723.0</ele><time>2026-05-01T14:03:37.245Z</time></trkpt><trkpt lat="43.615156" lon="12.3437533"><ele>717.25</ele><time>2026-05-01T14:03:38.239Z</time></trkpt><trkpt lat="43.6150703" lon="12.3439258"><ele>711.5</ele><time>2026-05-01T14:03:39.244Z</time></trkpt><trkpt lat="43.6149874" lon="12.3440982"><ele>705.75</ele><time>2026-05-01T14:03:40.256Z</time></trkpt><trkpt lat="43.6149097" lon="12.3442581"><ele>700.0</ele><time>2026-05-01T14:03:41.259Z</time></trkpt><trkpt lat="43.6148273" lon="12.3444019"><ele>700.0</ele><time>2026-05-01T14:03:42.249Z</time></trkpt><trkpt lat="43.6147351" lon="12.3445506"><ele>700.0</ele><time>2026-05-01T14:03:43.249Z</time></trkpt><trkpt lat="43.6146404" lon="12.3446877"><ele>700.0</ele><time>2026-05-01T14:03:44.249Z</time></trkpt><trkpt lat="43.6145491" lon="12.3448141"><ele>700.0</ele><time>2026-05-01T14:03:45.242Z</time></trkpt><trkpt lat="43.614469" lon="12.3449228"><ele>697.6</ele><time>2026-05-01T14:03:46.258Z</time></trkpt><trkpt lat="43.6143994" lon="12.3450331"><ele>695.2</ele><time>2026-05-01T14:03:47.245Z</time></trkpt><trkpt lat="43.6143428" lon="12.3451204"><ele>692.8</ele><time>2026-05-01T14:03:48.255Z</time></trkpt><trkpt lat="43.6142746" lon="12.3452382"><ele>690.4</ele><time>2026-05-01T14:03:50.27Z</time></trkpt><trkpt lat="43.6142004" lon="12.3452566"><ele>688.0</ele><time>2026-05-01T14:03:53.265Z</time></trkpt><trkpt lat="43.6141326" lon="12.34514"><ele>688.0</ele><time>2026-05-01T14:05:26.252Z</time></trkpt><trkpt lat="43.6140712" lon="12.3450447"><ele>688.0</ele><time>2026-05-01T14:05:27.253Z</time></trkpt><trkpt lat="43.6139776" lon="12.3449273"><ele>688.0</ele><time>2026-05-01T14:05:28.251Z</time></trkpt><trkpt lat="43.6138727" lon="12.344807"><ele>688.0</ele><time>2026-05-01T14:05:29.246Z</time></trkpt><trkpt lat="43.6137767" lon="12.3446835"><ele>688.5999999999999</ele><time>2026-05-01T14:05:30.248Z</time></trkpt><trkpt lat="43.6136886" lon="12.3445581"><ele>689.1999999999999</ele><time>2026-05-01T14:05:31.245Z</time></trkpt><trkpt lat="43.6136125" lon="12.3444503"><ele>689.8</ele><time>2026-05-01T14:05:32.247Z</time></trkpt><trkpt lat="43.6135509" lon="12.34436"><ele>690.4</ele><time>2026-05-01T14:05:33.238Z</time></trkpt><trkpt lat="43.6134844" lon="12.3442799"><ele>691.0</ele><time>2026-05-01T14:05:34.25Z</time></trkpt><trkpt lat="43.6134097" lon="12.3442074"><ele>691.0</ele><time>2026-05-01T14:05:35.248Z</time></trkpt><trkpt lat="43.6133252" lon="12.3441445"><ele>691.0</ele><time>2026-05-01T14:05:36.243Z</time></trkpt><trkpt lat="43.6132329" lon="12.344089"><ele>691.0</ele><time>2026-05-01T14:05:37.245Z</time></trkpt><trkpt lat="43.6131363" lon="12.3440336"><ele>691.0</ele><time>2026-05-01T14:05:38.241Z</time></trkpt><trkpt lat="43.6130299" lon="12.3439882"><ele>691.0</ele><time>2026-05-01T14:05:39.245Z</time></trkpt><trkpt lat="43.6129138" lon="12.343953"><ele>688.1999999999999</ele><time>2026-05-01T14:05:40.234Z</time></trkpt><trkpt lat="43.6128054" lon="12.3439296"><ele>685.4</ele><time>2026-05-01T14:05:41.244Z</time></trkpt><trkpt lat="43.6127009" lon="12.3439224"><ele>682.6</ele><time>2026-05-01T14:05:42.241Z</time></trkpt><trkpt lat="43.6126027" lon="12.3439308"><ele>679.8</ele><time>2026-05-01T14:05:43.241Z</time></trkpt><trkpt lat="43.6125152" lon="12.3439537"><ele>677.0</ele><time>2026-05-01T14:05:44.245Z</time></trkpt><trkpt lat="43.6124484" lon="12.343973"><ele>677.0</ele><time>2026-05-01T14:05:45.243Z</time></trkpt><trkpt lat="43.612371" lon="12.3439957"><ele>677.0</ele><time>2026-05-01T14:05:47.251Z</time></trkpt><trkpt lat="43.6122675" lon="12.34392"><ele>677.0</ele><time>2026-05-01T14:05:54.241Z</time></trkpt><trkpt lat="43.6122314" lon="12.3438053"><ele>677.0</ele><time>2026-05-01T14:05:55.234Z</time></trkpt><trkpt lat="43.6121889" lon="12.3436535"><ele>677.0</ele><time>2026-05-01T14:05:56.242Z</time></trkpt><trkpt lat="43.6121287" lon="12.3434957"><ele>677.0</ele><time>2026-05-01T14:05:57.241Z</time></trkpt><trkpt lat="43.6120614" lon="12.3433597"><ele>677.0</ele><time>2026-05-01T14:05:58.237Z</time></trkpt><trkpt lat="43.6120002" lon="12.3432553"><ele>677.0</ele><time>2026-05-01T14:05:59.239Z</time></trkpt><trkpt lat="43.611951" lon="12.3431533"><ele>677.0</ele><time>2026-05-01T14:06:00.24Z</time></trkpt><trkpt lat="43.6118902" lon="12.343057"><ele>677.0</ele><time>2026-05-01T14:06:01.242Z</time></trkpt><trkpt lat="43.6118214" lon="12.3429824"><ele>677.0</ele><time>2026-05-01T14:06:02.243Z</time></trkpt><trkpt lat="43.6117529" lon="12.3429277"><ele>677.0</ele><time>2026-05-01T14:06:03.246Z</time></trkpt><trkpt lat="43.6116824" lon="12.3428942"><ele>677.0</ele><time>2026-05-01T14:06:04.245Z</time></trkpt><trkpt lat="43.6116027" lon="12.3428784"><ele>677.0</ele><time>2026-05-01T14:06:05.246Z</time></trkpt><trkpt lat="43.6115132" lon="12.3428933"><ele>677.0</ele><time>2026-05-01T14:06:06.254Z</time></trkpt><trkpt lat="43.61142" lon="12.3429363"><ele>677.0</ele><time>2026-05-01T14:06:07.252Z</time></trkpt><trkpt lat="43.6113318" lon="12.3429809"><ele>677.0</ele><time>2026-05-01T14:06:08.25Z</time></trkpt><trkpt lat="43.611253" lon="12.3430108"><ele>677.0</ele><time>2026-05-01T14:06:09.248Z</time></trkpt><trkpt lat="43.611183" lon="12.3430162"><ele>677.0</ele><time>2026-05-01T14:06:10.253Z</time></trkpt><trkpt lat="43.6111035" lon="12.3428899"><ele>677.0</ele><time>2026-05-01T14:06:12.262Z</time></trkpt><trkpt lat="43.6111037" lon="12.3427408"><ele>677.0</ele><time>2026-05-01T14:06:13.258Z</time></trkpt><trkpt lat="43.6111298" lon="12.3425785"><ele>677.0</ele><time>2026-05-01T14:06:14.262Z</time></trkpt><trkpt lat="43.6111882" lon="12.3424243"><ele>677.0</ele><time>2026-05-01T14:06:15.253Z</time></trkpt><trkpt lat="43.6112737" lon="12.3422948"><ele>677.0</ele><time>2026-05-01T14:06:16.255Z</time></trkpt><trkpt lat="43.6113691" lon="12.3421849"><ele>677.0</ele><time>2026-05-01T14:06:17.256Z</time></trkpt><trkpt lat="43.6114597" lon="12.3420834"><ele>674.0</ele><time>2026-05-01T14:06:18.25Z</time></trkpt><trkpt lat="43.6115444" lon="12.3419879"><ele>671.0</ele><time>2026-05-01T14:06:19.25Z</time></trkpt><trkpt lat="43.6116184" lon="12.3418816"><ele>668.0</ele><time>2026-05-01T14:06:20.248Z</time></trkpt><trkpt lat="43.6116836" lon="12.3417751"><ele>665.0</ele><time>2026-05-01T14:06:21.25Z</time></trkpt><trkpt lat="43.6117538" lon="12.3416584"><ele>662.0</ele><time>2026-05-01T14:06:22.246Z</time></trkpt><trkpt lat="43.6118137" lon="12.341528"><ele>662.0</ele><time>2026-05-01T14:06:23.247Z</time></trkpt><trkpt lat="43.6118576" lon="12.3413849"><ele>662.0</ele><time>2026-05-01T14:06:24.247Z</time></trkpt><trkpt lat="43.6119069" lon="12.3412545"><ele>662.0</ele><time>2026-05-01T14:06:25.24Z</time></trkpt><trkpt lat="43.6119399" lon="12.3411285"><ele>662.0</ele><time>2026-05-01T14:06:26.242Z</time></trkpt><trkpt lat="43.6119538" lon="12.3409976"><ele>662.0</ele><time>2026-05-01T14:06:27.246Z</time></trkpt><trkpt lat="43.6119393" lon="12.3408627"><ele>664.6</ele><time>2026-05-01T14:06:28.246Z</time></trkpt><trkpt lat="43.6119289" lon="12.3407329"><ele>667.2</ele><time>2026-05-01T14:06:29.244Z</time></trkpt><trkpt lat="43.6119463" lon="12.3406116"><ele>669.8</ele><time>2026-05-01T14:06:30.24Z</time></trkpt><trkpt lat="43.6119805" lon="12.3404853"><ele>672.4</ele><time>2026-05-01T14:06:31.24Z</time></trkpt><trkpt lat="43.6120303" lon="12.3403516"><ele>675.0</ele><time>2026-05-01T14:06:32.24Z</time></trkpt><trkpt lat="43.6120574" lon="12.3402091"><ele>675.0</ele><time>2026-05-01T14:06:33.239Z</time></trkpt><trkpt lat="43.612053" lon="12.3400618"><ele>675.0</ele><time>2026-05-01T14:06:34.234Z</time></trkpt><trkpt lat="43.612021" lon="12.3399174"><ele>675.0</ele><time>2026-05-01T14:06:35.235Z</time></trkpt><trkpt lat="43.6119647" lon="12.339783"><ele>675.0</ele><time>2026-05-01T14:06:36.229Z</time></trkpt><trkpt lat="43.6118878" lon="12.3396465"><ele>667.8</ele><time>2026-05-01T14:06:37.239Z</time></trkpt><trkpt lat="43.6118221" lon="12.3395225"><ele>660.6</ele><time>2026-05-01T14:06:38.233Z</time></trkpt><trkpt lat="43.6117682" lon="12.3394127"><ele>653.4</ele><time>2026-05-01T14:06:39.246Z</time></trkpt><trkpt lat="43.6117463" lon="12.3392973"><ele>646.2</ele><time>2026-05-01T14:06:40.239Z</time></trkpt><trkpt lat="43.6117447" lon="12.3391763"><ele>639.0</ele><time>2026-05-01T14:06:41.241Z</time></trkpt><trkpt lat="43.6117531" lon="12.3390524"><ele>639.0</ele><time>2026-05-01T14:06:42.238Z</time></trkpt><trkpt lat="43.6117603" lon="12.3389366"><ele>639.0</ele><time>2026-05-01T14:06:43.248Z</time></trkpt><trkpt lat="43.6117355" lon="12.3388211"><ele>639.0</ele><time>2026-05-01T14:06:44.249Z</time></trkpt><trkpt lat="43.6116812" lon="12.3387009"><ele>639.0</ele><time>2026-05-01T14:06:45.235Z</time></trkpt><trkpt lat="43.6115881" lon="12.3385693"><ele>639.0</ele><time>2026-05-01T14:06:46.239Z</time></trkpt><trkpt lat="43.6114856" lon="12.3384272"><ele>639.2</ele><time>2026-05-01T14:06:47.24Z</time></trkpt><trkpt lat="43.611388" lon="12.3382992"><ele>639.4</ele><time>2026-05-01T14:06:48.235Z</time></trkpt><trkpt lat="43.6113139" lon="12.3381795"><ele>639.6</ele><time>2026-05-01T14:06:49.243Z</time></trkpt><trkpt lat="43.611269" lon="12.3380798"><ele>639.8</ele><time>2026-05-01T14:06:50.244Z</time></trkpt><trkpt lat="43.6112333" lon="12.3379616"><ele>640.0</ele><time>2026-05-01T14:06:52.257Z</time></trkpt><trkpt lat="43.6112594" lon="12.3378541"><ele>639.2</ele><time>2026-05-01T14:06:54.255Z</time></trkpt><trkpt lat="43.6113769" lon="12.3377678"><ele>638.4</ele><time>2026-05-01T14:06:56.246Z</time></trkpt><trkpt lat="43.6114552" lon="12.3377457"><ele>637.6</ele><time>2026-05-01T14:06:57.251Z</time></trkpt><trkpt lat="43.6115276" lon="12.3377071"><ele>636.8</ele><time>2026-05-01T14:06:58.25Z</time></trkpt><trkpt lat="43.611596" lon="12.3375443"><ele>636.0</ele><time>2026-05-01T14:07:00.245Z</time></trkpt><trkpt lat="43.6115985" lon="12.3374238"><ele>636.0</ele><time>2026-05-01T14:07:01.245Z</time></trkpt><trkpt lat="43.6115985" lon="12.3372896"><ele>636.0</ele><time>2026-05-01T14:07:02.243Z</time></trkpt><trkpt lat="43.6116116" lon="12.3371569"><ele>636.0</ele><time>2026-05-01T14:07:03.25Z</time></trkpt><trkpt lat="43.6116458" lon="12.3370486"><ele>636.0</ele><time>2026-05-01T14:07:04.251Z</time></trkpt><trkpt lat="43.6116841" lon="12.3369441"><ele>636.0</ele><time>2026-05-01T14:07:05.248Z</time></trkpt><trkpt lat="43.6117111" lon="12.3368345"><ele>636.0</ele><time>2026-05-01T14:07:06.25Z</time></trkpt><trkpt lat="43.6117278" lon="12.3367156"><ele>634.8</ele><time>2026-05-01T14:07:07.251Z</time></trkpt><trkpt lat="43.6117252" lon="12.336591"><ele>633.6</ele><time>2026-05-01T14:07:08.253Z</time></trkpt><trkpt lat="43.6117126" lon="12.336453"><ele>632.4</ele><time>2026-05-01T14:07:09.242Z</time></trkpt><trkpt lat="43.6116909" lon="12.3363164"><ele>631.2</ele><time>2026-05-01T14:07:10.248Z</time></trkpt><trkpt lat="43.6116759" lon="12.3361887"><ele>630.0</ele><time>2026-05-01T14:07:11.239Z</time></trkpt><trkpt lat="43.611683" lon="12.3360692"><ele>628.4</ele><time>2026-05-01T14:07:12.25Z</time></trkpt><trkpt lat="43.6117036" lon="12.3359449"><ele>626.8</ele><time>2026-05-01T14:07:13.251Z</time></trkpt><trkpt lat="43.6117577" lon="12.335815"><ele>625.2</ele><time>2026-05-01T14:07:14.247Z</time></trkpt><trkpt lat="43.6118244" lon="12.3356912"><ele>623.6</ele><time>2026-05-01T14:07:15.248Z</time></trkpt><trkpt lat="43.6118883" lon="12.3355714"><ele>622.0</ele><time>2026-05-01T14:07:16.246Z</time></trkpt><trkpt lat="43.6119472" lon="12.3354625"><ele>623.4</ele><time>2026-05-01T14:07:17.242Z</time></trkpt><trkpt lat="43.6119984" lon="12.3353728"><ele>624.8000000000001</ele><time>2026-05-01T14:07:18.249Z</time></trkpt><trkpt lat="43.6120435" lon="12.3353027"><ele>626.2</ele><time>2026-05-01T14:07:19.248Z</time></trkpt><trkpt lat="43.6120991" lon="12.3351704"><ele>627.6</ele><time>2026-05-01T14:07:21.246Z</time></trkpt><trkpt lat="43.6120957" lon="12.3350167"><ele>629.0</ele><time>2026-05-01T14:07:23.253Z</time></trkpt><trkpt lat="43.6120167" lon="12.3349275"><ele>627.6</ele><time>2026-05-01T14:07:25.251Z</time></trkpt><trkpt lat="43.6119504" lon="12.3349483"><ele>626.2</ele><time>2026-05-01T14:07:26.248Z</time></trkpt><trkpt lat="43.6118744" lon="12.3350091"><ele>624.8000000000001</ele><time>2026-05-01T14:07:27.252Z</time></trkpt><trkpt lat="43.6117748" lon="12.3351214"><ele>623.4</ele><time>2026-05-01T14:07:28.248Z</time></trkpt><trkpt lat="43.6116588" lon="12.3352447"><ele>622.0</ele><time>2026-05-01T14:07:29.238Z</time></trkpt><trkpt lat="43.6115432" lon="12.33538"><ele>622.0</ele><time>2026-05-01T14:07:30.239Z</time></trkpt><trkpt lat="43.6114316" lon="12.3355079"><ele>622.0</ele><time>2026-05-01T14:07:31.243Z</time></trkpt><trkpt lat="43.6113345" lon="12.335636"><ele>622.0</ele><time>2026-05-01T14:07:32.228Z</time></trkpt><trkpt lat="43.6112486" lon="12.3357757"><ele>622.0</ele><time>2026-05-01T14:07:33.235Z</time></trkpt><trkpt lat="43.6111833" lon="12.3359386"><ele>622.75</ele><time>2026-05-01T14:07:34.243Z</time></trkpt><trkpt lat="43.6111256" lon="12.33611"><ele>623.5</ele><time>2026-05-01T14:07:35.254Z</time></trkpt><trkpt lat="43.6110829" lon="12.3362765"><ele>624.25</ele><time>2026-05-01T14:07:36.249Z</time></trkpt><trkpt lat="43.6110389" lon="12.33643"><ele>625.0</ele><time>2026-05-01T14:07:37.246Z</time></trkpt><trkpt lat="43.6109929" lon="12.3365715"><ele>623.6666666666667</ele><time>2026-05-01T14:07:38.247Z</time></trkpt><trkpt lat="43.6109502" lon="12.3366724"><ele>622.3333333333334</ele><time>2026-05-01T14:07:39.248Z</time></trkpt><trkpt lat="43.6108969" lon="12.3367303"><ele>621.0</ele><time>2026-05-01T14:07:40.248Z</time></trkpt><trkpt lat="43.6108301" lon="12.3367893"><ele>619.6666666666666</ele><time>2026-05-01T14:07:41.245Z</time></trkpt><trkpt lat="43.6107471" lon="12.3368145"><ele>618.3333333333333</ele><time>2026-05-01T14:07:42.249Z</time></trkpt><trkpt lat="43.6106654" lon="12.336859"><ele>617.0</ele><time>2026-05-01T14:07:43.248Z</time></trkpt><trkpt lat="43.6106037" lon="12.3369573"><ele>617.0</ele><time>2026-05-01T14:07:44.25Z</time></trkpt><trkpt lat="43.6105518" lon="12.3370962"><ele>617.0</ele><time>2026-05-01T14:07:45.25Z</time></trkpt><trkpt lat="43.6105063" lon="12.3372891"><ele>617.0</ele><time>2026-05-01T14:07:46.239Z</time></trkpt><trkpt lat="43.6104748" lon="12.3375065"><ele>617.0</ele><time>2026-05-01T14:07:47.237Z</time></trkpt><trkpt lat="43.6104579" lon="12.3377261"><ele>616.5</ele><time>2026-05-01T14:07:48.243Z</time></trkpt><trkpt lat="43.6104648" lon="12.3379393"><ele>616.0</ele><time>2026-05-01T14:07:49.254Z</time></trkpt><trkpt lat="43.6104661" lon="12.3381491"><ele>615.5</ele><time>2026-05-01T14:07:50.249Z</time></trkpt><trkpt lat="43.6104605" lon="12.3383323"><ele>615.0</ele><time>2026-05-01T14:07:51.259Z</time></trkpt><trkpt lat="43.610444" lon="12.3384968"><ele>615.0</ele><time>2026-05-01T14:07:52.276Z</time></trkpt><trkpt lat="43.6104166" lon="12.3386223"><ele>615.0</ele><time>2026-05-01T14:07:53.275Z</time></trkpt><trkpt lat="43.6103769" lon="12.3387572"><ele>615.0</ele><time>2026-05-01T14:07:54.275Z</time></trkpt><trkpt lat="43.6103098" lon="12.338873"><ele>615.0</ele><time>2026-05-01T14:07:55.264Z</time></trkpt><trkpt lat="43.6102312" lon="12.3389755"><ele>615.0</ele><time>2026-05-01T14:07:56.27Z</time></trkpt><trkpt lat="43.6100999" lon="12.339071"><ele>613.0</ele><time>2026-05-01T14:07:57.253Z</time></trkpt><trkpt lat="43.6099598" lon="12.3391629"><ele>611.0</ele><time>2026-05-01T14:07:58.243Z</time></trkpt><trkpt lat="43.6098325" lon="12.3392558"><ele>609.0</ele><time>2026-05-01T14:07:59.257Z</time></trkpt><trkpt lat="43.6097209" lon="12.3393463"><ele>607.0</ele><time>2026-05-01T14:08:00.248Z</time></trkpt><trkpt lat="43.6096357" lon="12.3394563"><ele>607.0</ele><time>2026-05-01T14:08:01.256Z</time></trkpt><trkpt lat="43.6095713" lon="12.3395981"><ele>607.0</ele><time>2026-05-01T14:08:02.255Z</time></trkpt><trkpt lat="43.6095208" lon="12.3397639"><ele>607.0</ele><time>2026-05-01T14:08:03.264Z</time></trkpt><trkpt lat="43.6094622" lon="12.3399186"><ele>607.0</ele><time>2026-05-01T14:08:04.272Z</time></trkpt><trkpt lat="43.6093906" lon="12.3400575"><ele>605.8000000000001</ele><time>2026-05-01T14:08:05.267Z</time></trkpt><trkpt lat="43.6093074" lon="12.3401762"><ele>604.6</ele><time>2026-05-01T14:08:06.255Z</time></trkpt><trkpt lat="43.6092184" lon="12.3402803"><ele>603.4000000000001</ele><time>2026-05-01T14:08:07.253Z</time></trkpt><trkpt lat="43.6091305" lon="12.3403215"><ele>602.2</ele><time>2026-05-01T14:08:08.257Z</time></trkpt><trkpt lat="43.6090521" lon="12.3403171"><ele>601.0</ele><time>2026-05-01T14:08:09.248Z</time></trkpt><trkpt lat="43.6089804" lon="12.3402506"><ele>601.0</ele><time>2026-05-01T14:08:10.258Z</time></trkpt><trkpt lat="43.6089104" lon="12.3401615"><ele>601.0</ele><time>2026-05-01T14:08:11.244Z</time></trkpt><trkpt lat="43.6088454" lon="12.3400133"><ele>601.0</ele><time>2026-05-01T14:08:12.25Z</time></trkpt><trkpt lat="43.6087581" lon="12.3398385"><ele>601.0</ele><time>2026-05-01T14:08:13.236Z</time></trkpt><trkpt lat="43.6086541" lon="12.3396705"><ele>604.75</ele><time>2026-05-01T14:08:14.234Z</time></trkpt><trkpt lat="43.608536" lon="12.3395414"><ele>608.5</ele><time>2026-05-01T14:08:15.239Z</time></trkpt><trkpt lat="43.6083967" lon="12.339453"><ele>612.25</ele><time>2026-05-01T14:08:16.243Z</time></trkpt><trkpt lat="43.6082533" lon="12.33943"><ele>616.0</ele><time>2026-05-01T14:08:17.242Z</time></trkpt><trkpt lat="43.6081117" lon="12.3394604"><ele>616.0</ele><time>2026-05-01T14:08:18.239Z</time></trkpt><trkpt lat="43.6079852" lon="12.339482"><ele>616.0</ele><time>2026-05-01T14:08:19.252Z</time></trkpt><trkpt lat="43.6078596" lon="12.3394874"><ele>616.0</ele><time>2026-05-01T14:08:20.244Z</time></trkpt><trkpt lat="43.6077422" lon="12.3394726"><ele>616.0</ele><time>2026-05-01T14:08:21.245Z</time></trkpt><trkpt lat="43.6076209" lon="12.3394292"><ele>612.0</ele><time>2026-05-01T14:08:22.247Z</time></trkpt><trkpt lat="43.6074889" lon="12.3393812"><ele>608.0</ele><time>2026-05-01T14:08:23.239Z</time></trkpt><trkpt lat="43.6073586" lon="12.3393454"><ele>604.0</ele><time>2026-05-01T14:08:24.24Z</time></trkpt><trkpt lat="43.6072367" lon="12.33931"><ele>600.0</ele><time>2026-05-01T14:08:25.252Z</time></trkpt><trkpt lat="43.6071281" lon="12.3392561"><ele>600.0</ele><time>2026-05-01T14:08:26.257Z</time></trkpt><trkpt lat="43.6070278" lon="12.3391974"><ele>600.0</ele><time>2026-05-01T14:08:27.244Z</time></trkpt><trkpt lat="43.6069409" lon="12.3391531"><ele>600.0</ele><time>2026-05-01T14:08:28.242Z</time></trkpt><trkpt lat="43.6068583" lon="12.339125"><ele>600.0</ele><time>2026-05-01T14:08:29.254Z</time></trkpt><trkpt lat="43.6067948" lon="12.3391167"><ele>600.0</ele><time>2026-05-01T14:08:30.248Z</time></trkpt><trkpt lat="43.6067121" lon="12.3392243"><ele>600.4</ele><time>2026-05-01T14:08:32.237Z</time></trkpt><trkpt lat="43.6066786" lon="12.3393017"><ele>600.8</ele><time>2026-05-01T14:08:33.237Z</time></trkpt><trkpt lat="43.6066566" lon="12.3394077"><ele>601.2</ele><time>2026-05-01T14:08:34.237Z</time></trkpt><trkpt lat="43.6066861" lon="12.3395339"><ele>601.6</ele><time>2026-05-01T14:08:35.24Z</time></trkpt><trkpt lat="43.6067589" lon="12.3396636"><ele>602.0</ele><time>2026-05-01T14:08:36.238Z</time></trkpt><trkpt lat="43.6068853" lon="12.3397922"><ele>599.0</ele><time>2026-05-01T14:08:37.245Z</time></trkpt><trkpt lat="43.6070066" lon="12.3399163"><ele>596.0</ele><time>2026-05-01T14:08:38.236Z</time></trkpt><trkpt lat="43.6071158" lon="12.3400447"><ele>593.0</ele><time>2026-05-01T14:08:39.235Z</time></trkpt><trkpt lat="43.6072064" lon="12.3401759"><ele>590.0</ele><time>2026-05-01T14:08:40.23Z</time></trkpt><trkpt lat="43.6072962" lon="12.3403107"><ele>590.0</ele><time>2026-05-01T14:08:41.243Z</time></trkpt><trkpt lat="43.6073383" lon="12.3404702"><ele>590.0</ele><time>2026-05-01T14:08:42.232Z</time></trkpt><trkpt lat="43.6073784" lon="12.3406494"><ele>590.0</ele><time>2026-05-01T14:08:43.253Z</time></trkpt><trkpt lat="43.6073699" lon="12.3408866"><ele>590.0</ele><time>2026-05-01T14:08:44.251Z</time></trkpt><trkpt lat="43.6073274" lon="12.3411367"><ele>589.75</ele><time>2026-05-01T14:08:45.252Z</time></trkpt><trkpt lat="43.6072828" lon="12.3413706"><ele>589.5</ele><time>2026-05-01T14:08:46.246Z</time></trkpt><trkpt lat="43.6072421" lon="12.3415563"><ele>589.25</ele><time>2026-05-01T14:08:47.256Z</time></trkpt><trkpt lat="43.6072009" lon="12.34169"><ele>589.0</ele><time>2026-05-01T14:08:48.256Z</time></trkpt><trkpt lat="43.607148" lon="12.3418063"><ele>588.75</ele><time>2026-05-01T14:08:49.257Z</time></trkpt><trkpt lat="43.607076" lon="12.3419214"><ele>588.5</ele><time>2026-05-01T14:08:50.258Z</time></trkpt><trkpt lat="43.6069902" lon="12.342031"><ele>588.25</ele><time>2026-05-01T14:08:51.256Z</time></trkpt><trkpt lat="43.6068945" lon="12.3421375"><ele>588.0</ele><time>2026-05-01T14:08:52.247Z</time></trkpt><trkpt lat="43.606796" lon="12.3422125"><ele>590.3333333333334</ele><time>2026-05-01T14:08:53.255Z</time></trkpt><trkpt lat="43.6066928" lon="12.3422592"><ele>592.6666666666666</ele><time>2026-05-01T14:08:54.247Z</time></trkpt><trkpt lat="43.6065973" lon="12.3422785"><ele>595.0</ele><time>2026-05-01T14:08:55.251Z</time></trkpt><trkpt lat="43.6065196" lon="12.3423122"><ele>597.3333333333333</ele><time>2026-05-01T14:08:56.247Z</time></trkpt><trkpt lat="43.6064539" lon="12.3423579"><ele>599.6666666666666</ele><time>2026-05-01T14:08:57.246Z</time></trkpt><trkpt lat="43.6063978" lon="12.342412"><ele>602.0</ele><time>2026-05-01T14:08:58.253Z</time></trkpt><trkpt lat="43.6063932" lon="12.3425768"><ele>602.0</ele><time>2026-05-01T14:09:00.25Z</time></trkpt><trkpt lat="43.6064253" lon="12.3426652"><ele>602.0</ele><time>2026-05-01T14:09:01.244Z</time></trkpt><trkpt lat="43.6064702" lon="12.3427635"><ele>602.0</ele><time>2026-05-01T14:09:02.238Z</time></trkpt><trkpt lat="43.6065381" lon="12.3428664"><ele>602.0</ele><time>2026-05-01T14:09:03.248Z</time></trkpt><trkpt lat="43.6066226" lon="12.3429634"><ele>602.0</ele><time>2026-05-01T14:09:04.26Z</time></trkpt><trkpt lat="43.6067231" lon="12.34307"><ele>602.25</ele><time>2026-05-01T14:09:05.249Z</time></trkpt><trkpt lat="43.606823" lon="12.3431883"><ele>602.5</ele><time>2026-05-01T14:09:06.243Z</time></trkpt><trkpt lat="43.6069305" lon="12.3433191"><ele>602.75</ele><time>2026-05-01T14:09:07.25Z</time></trkpt><trkpt lat="43.6070207" lon="12.3434521"><ele>603.0</ele><time>2026-05-01T14:09:08.257Z</time></trkpt><trkpt lat="43.6070884" lon="12.3435882"><ele>599.1999999999999</ele><time>2026-05-01T14:09:09.258Z</time></trkpt><trkpt lat="43.6071355" lon="12.3437125"><ele>595.4</ele><time>2026-05-01T14:09:10.262Z</time></trkpt><trkpt lat="43.6071553" lon="12.3438338"><ele>591.5999999999999</ele><time>2026-05-01T14:09:11.276Z</time></trkpt><trkpt lat="43.6071547" lon="12.3439445"><ele>587.8</ele><time>2026-05-01T14:09:12.252Z</time></trkpt><trkpt lat="43.60711" lon="12.3440644"><ele>584.0</ele><time>2026-05-01T14:09:13.256Z</time></trkpt><trkpt lat="43.6070247" lon="12.3441797"><ele>588.25</ele><time>2026-05-01T14:09:14.253Z</time></trkpt><trkpt lat="43.6069123" lon="12.3442656"><ele>592.5</ele><time>2026-05-01T14:09:15.256Z</time></trkpt><trkpt lat="43.60679" lon="12.3443241"><ele>596.75</ele><time>2026-05-01T14:09:16.267Z</time></trkpt><trkpt lat="43.6066424" lon="12.3443603"><ele>601.0</ele><time>2026-05-01T14:09:17.25Z</time></trkpt><trkpt lat="43.6064869" lon="12.344406"><ele>601.0</ele><time>2026-05-01T14:09:18.252Z</time></trkpt><trkpt lat="43.6063332" lon="12.3444623"><ele>601.0</ele><time>2026-05-01T14:09:19.256Z</time></trkpt><trkpt lat="43.6061588" lon="12.3445446"><ele>601.0</ele><time>2026-05-01T14:09:20.259Z</time></trkpt><trkpt lat="43.6059949" lon="12.3446524"><ele>603.0</ele><time>2026-05-01T14:09:21.268Z</time></trkpt><trkpt lat="43.6058413" lon="12.3447677"><ele>605.0</ele><time>2026-05-01T14:09:22.252Z</time></trkpt><trkpt lat="43.6057041" lon="12.3448689"><ele>607.0</ele><time>2026-05-01T14:09:23.258Z</time></trkpt><trkpt lat="43.6055823" lon="12.3449806"><ele>607.0</ele><time>2026-05-01T14:09:24.259Z</time></trkpt><trkpt lat="43.6054857" lon="12.3450725"><ele>607.0</ele><time>2026-05-01T14:09:25.255Z</time></trkpt><trkpt lat="43.6053917" lon="12.3451336"><ele>607.0</ele><time>2026-05-01T14:09:26.256Z</time></trkpt><trkpt lat="43.605311" lon="12.3451665"><ele>607.0</ele><time>2026-05-01T14:09:27.264Z</time></trkpt><trkpt lat="43.6052513" lon="12.3452092"><ele>607.0</ele><time>2026-05-01T14:09:28.262Z</time></trkpt><trkpt lat="43.6051829" lon="12.3452973"><ele>609.5</ele><time>2026-05-01T14:09:30.245Z</time></trkpt><trkpt lat="43.6051982" lon="12.3453919"><ele>612.0</ele><time>2026-05-01T14:09:36.254Z</time></trkpt><trkpt lat="43.6052513" lon="12.3455053"><ele>614.5</ele><time>2026-05-01T14:09:38.24Z</time></trkpt><trkpt lat="43.6053699" lon="12.3456392"><ele>617.0</ele><time>2026-05-01T14:09:40.255Z</time></trkpt><trkpt lat="43.6054998" lon="12.3457104"><ele>617.0</ele><time>2026-05-01T14:09:41.25Z</time></trkpt><trkpt lat="43.6056457" lon="12.3457588"><ele>617.0</ele><time>2026-05-01T14:09:42.258Z</time></trkpt><trkpt lat="43.6057957" lon="12.3457838"><ele>617.0</ele><time>2026-05-01T14:09:43.238Z</time></trkpt><trkpt lat="43.6059468" lon="12.3458029"><ele>617.0</ele><time>2026-05-01T14:09:44.241Z</time></trkpt><trkpt lat="43.606089" lon="12.3458315"><ele>617.0</ele><time>2026-05-01T14:09:45.236Z</time></trkpt><trkpt lat="43.6062267" lon="12.3458823"><ele>617.0</ele><time>2026-05-01T14:09:46.245Z</time></trkpt><trkpt lat="43.6063662" lon="12.3459467"><ele>617.0</ele><time>2026-05-01T14:09:47.254Z</time></trkpt><trkpt lat="43.6065031" lon="12.3460088"><ele>614.2</ele><time>2026-05-01T14:09:48.253Z</time></trkpt><trkpt lat="43.6066267" lon="12.3460782"><ele>611.4000000000001</ele><time>2026-05-01T14:09:49.264Z</time></trkpt><trkpt lat="43.606737" lon="12.3461275"><ele>608.5999999999999</ele><time>2026-05-01T14:09:50.25Z</time></trkpt><trkpt lat="43.6068319" lon="12.3461712"><ele>605.8</ele><time>2026-05-01T14:09:51.266Z</time></trkpt><trkpt lat="43.6068991" lon="12.3462259"><ele>603.0</ele><time>2026-05-01T14:09:52.272Z</time></trkpt><trkpt lat="43.6069338" lon="12.3463152"><ele>602.4</ele><time>2026-05-01T14:09:53.265Z</time></trkpt><trkpt lat="43.6069503" lon="12.3464292"><ele>601.8</ele><time>2026-05-01T14:09:54.27Z</time></trkpt><trkpt lat="43.6069502" lon="12.3465984"><ele>601.2</ele><time>2026-05-01T14:09:55.257Z</time></trkpt><trkpt lat="43.606956" lon="12.3467688"><ele>600.6</ele><time>2026-05-01T14:09:56.274Z</time></trkpt><trkpt lat="43.6069878" lon="12.3468947"><ele>600.0</ele><time>2026-05-01T14:09:57.256Z</time></trkpt><trkpt lat="43.6070609" lon="12.3469679"><ele>600.0</ele><time>2026-05-01T14:09:58.252Z</time></trkpt><trkpt lat="43.60715" lon="12.3470243"><ele>600.0</ele><time>2026-05-01T14:09:59.25Z</time></trkpt><trkpt lat="43.6072265" lon="12.3470836"><ele>600.0</ele><time>2026-05-01T14:10:00.267Z</time></trkpt><trkpt lat="43.6072716" lon="12.3471479"><ele>600.0</ele><time>2026-05-01T14:10:01.266Z</time></trkpt><trkpt lat="43.6072818" lon="12.3473223"><ele>600.0</ele><time>2026-05-01T14:10:03.266Z</time></trkpt><trkpt lat="43.6072429" lon="12.3474354"><ele>599.25</ele><time>2026-05-01T14:10:04.249Z</time></trkpt><trkpt lat="43.6071903" lon="12.3475381"><ele>598.5</ele><time>2026-05-01T14:10:05.26Z</time></trkpt><trkpt lat="43.6071044" lon="12.3476473"><ele>597.75</ele><time>2026-05-01T14:10:06.268Z</time></trkpt><trkpt lat="43.606977" lon="12.347736"><ele>597.0</ele><time>2026-05-01T14:10:07.279Z</time></trkpt><trkpt lat="43.6068416" lon="12.3477893"><ele>603.0</ele><time>2026-05-01T14:10:08.271Z</time></trkpt><trkpt lat="43.6067095" lon="12.3478034"><ele>609.0</ele><time>2026-05-01T14:10:09.257Z</time></trkpt><trkpt lat="43.6065736" lon="12.3477944"><ele>615.0</ele><time>2026-05-01T14:10:10.256Z</time></trkpt><trkpt lat="43.6064409" lon="12.3477668"><ele>621.0</ele><time>2026-05-01T14:10:11.263Z</time></trkpt><trkpt lat="43.6063167" lon="12.3477547"><ele>621.0</ele><time>2026-05-01T14:10:12.257Z</time></trkpt><trkpt lat="43.6061889" lon="12.3477699"><ele>621.0</ele><time>2026-05-01T14:10:13.272Z</time></trkpt><trkpt lat="43.6060619" lon="12.3478127"><ele>621.0</ele><time>2026-05-01T14:10:14.274Z</time></trkpt><trkpt lat="43.6059335" lon="12.347864"><ele>621.0</ele><time>2026-05-01T14:10:15.27Z</time></trkpt><trkpt lat="43.6058047" lon="12.3479155"><ele>620.25</ele><time>2026-05-01T14:10:16.264Z</time></trkpt><trkpt lat="43.6056894" lon="12.3479595"><ele>619.5</ele><time>2026-05-01T14:10:17.269Z</time></trkpt><trkpt lat="43.6055821" lon="12.3480068"><ele>618.75</ele><time>2026-05-01T14:10:18.263Z</time></trkpt><trkpt lat="43.6054781" lon="12.3480845"><ele>618.0</ele><time>2026-05-01T14:10:19.26Z</time></trkpt><trkpt lat="43.605373" lon="12.3481705"><ele>622.3333333333334</ele><time>2026-05-01T14:10:20.25Z</time></trkpt><trkpt lat="43.6052473" lon="12.34827"><ele>626.6666666666667</ele><time>2026-05-01T14:10:21.242Z</time></trkpt><trkpt lat="43.6051031" lon="12.3483752"><ele>631.0</ele><time>2026-05-01T14:10:22.243Z</time></trkpt><trkpt lat="43.6049459" lon="12.3484797"><ele>631.0</ele><time>2026-05-01T14:10:23.232Z</time></trkpt><trkpt lat="43.6047899" lon="12.3485985"><ele>631.0</ele><time>2026-05-01T14:10:24.244Z</time></trkpt><trkpt lat="43.6046461" lon="12.3487518"><ele>631.0</ele><time>2026-05-01T14:10:25.246Z</time></trkpt><trkpt lat="43.604527" lon="12.3489226"><ele>633.0</ele><time>2026-05-01T14:10:26.244Z</time></trkpt><trkpt lat="43.6044247" lon="12.3491463"><ele>635.0</ele><time>2026-05-01T14:10:27.258Z</time></trkpt><trkpt lat="43.6043306" lon="12.3493566"><ele>637.0</ele><time>2026-05-01T14:10:28.262Z</time></trkpt><trkpt lat="43.6042457" lon="12.3495418"><ele>637.0</ele><time>2026-05-01T14:10:29.277Z</time></trkpt><trkpt lat="43.6041765" lon="12.34969"><ele>637.0</ele><time>2026-05-01T14:10:30.272Z</time></trkpt><trkpt lat="43.6041124" lon="12.3497945"><ele>637.0</ele><time>2026-05-01T14:10:31.27Z</time></trkpt><trkpt lat="43.6040517" lon="12.3498522"><ele>637.0</ele><time>2026-05-01T14:10:32.272Z</time></trkpt><trkpt lat="43.6039939" lon="12.3498896"><ele>637.0</ele><time>2026-05-01T14:10:33.265Z</time></trkpt><trkpt lat="43.6039192" lon="12.3499391"><ele>637.0</ele><time>2026-05-01T14:10:34.261Z</time></trkpt><trkpt lat="43.6038353" lon="12.3499651"><ele>635.6</ele><time>2026-05-01T14:10:35.265Z</time></trkpt><trkpt lat="43.6037577" lon="12.3499701"><ele>634.2</ele><time>2026-05-01T14:10:36.255Z</time></trkpt><trkpt lat="43.6036735" lon="12.34994"><ele>632.8</ele><time>2026-05-01T14:10:37.256Z</time></trkpt><trkpt lat="43.6035846" lon="12.3498646"><ele>631.4</ele><time>2026-05-01T14:10:38.249Z</time></trkpt><trkpt lat="43.6034916" lon="12.3497667"><ele>630.0</ele><time>2026-05-01T14:10:39.249Z</time></trkpt><trkpt lat="43.6033924" lon="12.3496495"><ele>630.0</ele><time>2026-05-01T14:10:40.237Z</time></trkpt><trkpt lat="43.603291" lon="12.3495031"><ele>630.0</ele><time>2026-05-01T14:10:41.246Z</time></trkpt><trkpt lat="43.6031824" lon="12.3493486"><ele>630.0</ele><time>2026-05-01T14:10:42.255Z</time></trkpt><trkpt lat="43.6030659" lon="12.3492163"><ele>630.0</ele><time>2026-05-01T14:10:43.248Z</time></trkpt><trkpt lat="43.6029475" lon="12.3491246"><ele>630.0</ele><time>2026-05-01T14:10:44.256Z</time></trkpt><trkpt lat="43.6028261" lon="12.3490568"><ele>630.0</ele><time>2026-05-01T14:10:45.241Z</time></trkpt><trkpt lat="43.6027165" lon="12.3490006"><ele>630.0</ele><time>2026-05-01T14:10:46.254Z</time></trkpt><trkpt lat="43.6026083" lon="12.3489591"><ele>631.2</ele><time>2026-05-01T14:10:47.246Z</time></trkpt><trkpt lat="43.602507" lon="12.3489503"><ele>632.4</ele><time>2026-05-01T14:10:48.254Z</time></trkpt><trkpt lat="43.6024203" lon="12.3489416"><ele>633.6</ele><time>2026-05-01T14:10:49.243Z</time></trkpt><trkpt lat="43.6023352" lon="12.3488995"><ele>634.8</ele><time>2026-05-01T14:10:50.247Z</time></trkpt><trkpt lat="43.6022578" lon="12.3488034"><ele>636.0</ele><time>2026-05-01T14:10:51.25Z</time></trkpt><trkpt lat="43.602187" lon="12.3486564"><ele>636.0</ele><time>2026-05-01T14:10:52.239Z</time></trkpt><trkpt lat="43.6021162" lon="12.3485386"><ele>636.0</ele><time>2026-05-01T14:10:53.243Z</time></trkpt><trkpt lat="43.6020491" lon="12.3484503"><ele>636.0</ele><time>2026-05-01T14:10:54.246Z</time></trkpt><trkpt lat="43.6019826" lon="12.3483952"><ele>636.0</ele><time>2026-05-01T14:10:55.244Z</time></trkpt><trkpt lat="43.6018917" lon="12.3483983"><ele>636.0</ele><time>2026-05-01T14:10:56.243Z</time></trkpt><trkpt lat="43.6017794" lon="12.3484391"><ele>633.0</ele><time>2026-05-01T14:10:57.239Z</time></trkpt><trkpt lat="43.6016754" lon="12.3484964"><ele>630.0</ele><time>2026-05-01T14:10:58.241Z</time></trkpt><trkpt lat="43.6015755" lon="12.3485345"><ele>627.0</ele><time>2026-05-01T14:10:59.24Z</time></trkpt><trkpt lat="43.6014836" lon="12.3485099"><ele>624.0</ele><time>2026-05-01T14:11:00.256Z</time></trkpt><trkpt lat="43.6013654" lon="12.3484415"><ele>621.0</ele><time>2026-05-01T14:11:01.243Z</time></trkpt><trkpt lat="43.6012185" lon="12.3483652"><ele>620.6</ele><time>2026-05-01T14:11:02.244Z</time></trkpt><trkpt lat="43.6010908" lon="12.3483108"><ele>620.2</ele><time>2026-05-01T14:11:03.248Z</time></trkpt><trkpt lat="43.6009848" lon="12.3482808"><ele>619.8</ele><time>2026-05-01T14:11:04.247Z</time></trkpt><trkpt lat="43.6008989" lon="12.3482774"><ele>619.4</ele><time>2026-05-01T14:11:05.238Z</time></trkpt><trkpt lat="43.6008276" lon="12.348301"><ele>619.0</ele><time>2026-05-01T14:11:06.242Z</time></trkpt><trkpt lat="43.6007622" lon="12.3483478"><ele>619.0</ele><time>2026-05-01T14:11:07.231Z</time></trkpt><trkpt lat="43.6006944" lon="12.3484099"><ele>619.0</ele><time>2026-05-01T14:11:08.23Z</time></trkpt><trkpt lat="43.6006327" lon="12.3484954"><ele>619.0</ele><time>2026-05-01T14:11:09.234Z</time></trkpt><trkpt lat="43.6006019" lon="12.3485925"><ele>619.0</ele><time>2026-05-01T14:11:10.241Z</time></trkpt><trkpt lat="43.600623" lon="12.3487045"><ele>619.0</ele><time>2026-05-01T14:11:11.237Z</time></trkpt><trkpt lat="43.6006744" lon="12.34887"><ele>620.0</ele><time>2026-05-01T14:11:12.232Z</time></trkpt><trkpt lat="43.600745" lon="12.3490358"><ele>621.0</ele><time>2026-05-01T14:11:13.24Z</time></trkpt><trkpt lat="43.6008309" lon="12.3492007"><ele>622.0</ele><time>2026-05-01T14:11:14.239Z</time></trkpt><trkpt lat="43.6009445" lon="12.3493653"><ele>622.0</ele><time>2026-05-01T14:11:15.253Z</time></trkpt><trkpt lat="43.6010745" lon="12.3494943"><ele>622.0</ele><time>2026-05-01T14:11:16.243Z</time></trkpt><trkpt lat="43.6011963" lon="12.3496186"><ele>622.0</ele><time>2026-05-01T14:11:17.264Z</time></trkpt><trkpt lat="43.6013047" lon="12.3497463"><ele>617.25</ele><time>2026-05-01T14:11:18.248Z</time></trkpt><trkpt lat="43.6013947" lon="12.3498878"><ele>612.5</ele><time>2026-05-01T14:11:19.237Z</time></trkpt><trkpt lat="43.6014716" lon="12.3500331"><ele>607.75</ele><time>2026-05-01T14:11:20.237Z</time></trkpt><trkpt lat="43.6015093" lon="12.3502095"><ele>603.0</ele><time>2026-05-01T14:11:21.237Z</time></trkpt><trkpt lat="43.601479" lon="12.3504425"><ele>603.0</ele><time>2026-05-01T14:11:22.236Z</time></trkpt><trkpt lat="43.6014345" lon="12.3506819"><ele>603.0</ele><time>2026-05-01T14:11:23.262Z</time></trkpt><trkpt lat="43.6013885" lon="12.3508923"><ele>603.0</ele><time>2026-05-01T14:11:24.266Z</time></trkpt><trkpt lat="43.601336" lon="12.351048"><ele>603.0</ele><time>2026-05-01T14:11:25.257Z</time></trkpt><trkpt lat="43.6012703" lon="12.3511904"><ele>603.0</ele><time>2026-05-01T14:11:26.25Z</time></trkpt><trkpt lat="43.6012052" lon="12.3513164"><ele>603.0</ele><time>2026-05-01T14:11:27.269Z</time></trkpt><trkpt lat="43.6010997" lon="12.3514367"><ele>603.0</ele><time>2026-05-01T14:11:28.251Z</time></trkpt><trkpt lat="43.6009513" lon="12.3515451"><ele>604.0</ele><time>2026-05-01T14:11:29.257Z</time></trkpt><trkpt lat="43.6007654" lon="12.351638"><ele>605.0</ele><time>2026-05-01T14:11:30.258Z</time></trkpt><trkpt lat="43.6005523" lon="12.3517198"><ele>606.0</ele><time>2026-05-01T14:11:31.263Z</time></trkpt><trkpt lat="43.6003676" lon="12.3517595"><ele>610.25</ele><time>2026-05-01T14:11:32.273Z</time></trkpt><trkpt lat="43.6001937" lon="12.3517852"><ele>614.5</ele><time>2026-05-01T14:11:33.248Z</time></trkpt><trkpt lat="43.6000644" lon="12.3518098"><ele>618.75</ele><time>2026-05-01T14:11:34.265Z</time></trkpt><trkpt lat="43.5999482" lon="12.3518052"><ele>623.0</ele><time>2026-05-01T14:11:35.251Z</time></trkpt><trkpt lat="43.5998428" lon="12.3518055"><ele>623.0</ele><time>2026-05-01T14:11:36.238Z</time></trkpt><trkpt lat="43.5997534" lon="12.3518308"><ele>623.0</ele><time>2026-05-01T14:11:37.249Z</time></trkpt><trkpt lat="43.5996745" lon="12.3518683"><ele>623.0</ele><time>2026-05-01T14:11:38.245Z</time></trkpt><trkpt lat="43.5996007" lon="12.3519222"><ele>623.0</ele><time>2026-05-01T14:11:39.244Z</time></trkpt><trkpt lat="43.5995441" lon="12.351988"><ele>623.0</ele><time>2026-05-01T14:11:40.239Z</time></trkpt><trkpt lat="43.5994983" lon="12.3521118"><ele>623.0</ele><time>2026-05-01T14:11:41.249Z</time></trkpt><trkpt lat="43.5994858" lon="12.3522747"><ele>623.4</ele><time>2026-05-01T14:11:42.259Z</time></trkpt><trkpt lat="43.599478" lon="12.3524107"><ele>623.8</ele><time>2026-05-01T14:11:43.267Z</time></trkpt><trkpt lat="43.5994683" lon="12.3525521"><ele>624.2</ele><time>2026-05-01T14:11:44.282Z</time></trkpt><trkpt lat="43.599454" lon="12.35269"><ele>624.6</ele><time>2026-05-01T14:11:45.278Z</time></trkpt><trkpt lat="43.5994177" lon="12.3528162"><ele>625.0</ele><time>2026-05-01T14:11:46.267Z</time></trkpt><trkpt lat="43.5993369" lon="12.352938"><ele>620.75</ele><time>2026-05-01T14:11:47.252Z</time></trkpt><trkpt lat="43.5992426" lon="12.3530489"><ele>616.5</ele><time>2026-05-01T14:11:48.262Z</time></trkpt><trkpt lat="43.5991435" lon="12.3531405"><ele>612.25</ele><time>2026-05-01T14:11:49.258Z</time></trkpt><trkpt lat="43.5990274" lon="12.3532143"><ele>608.0</ele><time>2026-05-01T14:11:50.261Z</time></trkpt><trkpt lat="43.5989317" lon="12.3532845"><ele>608.0</ele><time>2026-05-01T14:11:51.245Z</time></trkpt><trkpt lat="43.5988546" lon="12.3533783"><ele>608.0</ele><time>2026-05-01T14:11:52.26Z</time></trkpt><trkpt lat="43.5988054" lon="12.3535054"><ele>608.0</ele><time>2026-05-01T14:11:53.252Z</time></trkpt><trkpt lat="43.598759" lon="12.3536246"><ele>608.0</ele><time>2026-05-01T14:11:54.262Z</time></trkpt><trkpt lat="43.5986924" lon="12.3537344"><ele>608.0</ele><time>2026-05-01T14:11:55.252Z</time></trkpt><trkpt lat="43.5986113" lon="12.3538421"><ele>606.8</ele><time>2026-05-01T14:11:56.265Z</time></trkpt><trkpt lat="43.5985187" lon="12.3539514"><ele>605.5999999999999</ele><time>2026-05-01T14:11:57.269Z</time></trkpt><trkpt lat="43.5984393" lon="12.3540402"><ele>604.4000000000001</ele><time>2026-05-01T14:11:58.278Z</time></trkpt><trkpt lat="43.5983515" lon="12.3541059"><ele>603.2</ele><time>2026-05-01T14:11:59.273Z</time></trkpt><trkpt lat="43.5982512" lon="12.354133"><ele>602.0</ele><time>2026-05-01T14:12:00.281Z</time></trkpt><trkpt lat="43.5981581" lon="12.3541337"><ele>602.0</ele><time>2026-05-01T14:12:01.29Z</time></trkpt><trkpt lat="43.598072" lon="12.3540914"><ele>602.0</ele><time>2026-05-01T14:12:02.267Z</time></trkpt><trkpt lat="43.5979742" lon="12.3539988"><ele>602.0</ele><time>2026-05-01T14:12:03.264Z</time></trkpt><trkpt lat="43.5978569" lon="12.3538875"><ele>602.0</ele><time>2026-05-01T14:12:04.264Z</time></trkpt><trkpt lat="43.5977137" lon="12.3537797"><ele>605.25</ele><time>2026-05-01T14:12:05.259Z</time></trkpt><trkpt lat="43.59753" lon="12.3536928"><ele>608.5</ele><time>2026-05-01T14:12:06.255Z</time></trkpt><trkpt lat="43.5974022" lon="12.3536455"><ele>611.75</ele><time>2026-05-01T14:12:07.254Z</time></trkpt><trkpt lat="43.5973058" lon="12.3536342"><ele>615.0</ele><time>2026-05-01T14:12:08.252Z</time></trkpt><trkpt lat="43.5971993" lon="12.3536212"><ele>615.0</ele><time>2026-05-01T14:12:09.25Z</time></trkpt><trkpt lat="43.597085" lon="12.3535597"><ele>615.0</ele><time>2026-05-01T14:12:10.255Z</time></trkpt><trkpt lat="43.5969724" lon="12.3534376"><ele>615.0</ele><time>2026-05-01T14:12:11.252Z</time></trkpt><trkpt lat="43.5968759" lon="12.3533493"><ele>615.0</ele><time>2026-05-01T14:12:12.253Z</time></trkpt><trkpt lat="43.5967316" lon="12.3533252"><ele>611.6666666666666</ele><time>2026-05-01T14:12:13.244Z</time></trkpt><trkpt lat="43.5965692" lon="12.3533188"><ele>608.3333333333333</ele><time>2026-05-01T14:12:14.248Z</time></trkpt><trkpt lat="43.5964042" lon="12.3533002"><ele>605.0</ele><time>2026-05-01T14:12:15.254Z</time></trkpt><trkpt lat="43.5962204" lon="12.3532566"><ele>601.6666666666666</ele><time>2026-05-01T14:12:16.234Z</time></trkpt><trkpt lat="43.5960252" lon="12.3531953"><ele>598.3333333333334</ele><time>2026-05-01T14:12:17.265Z</time></trkpt><trkpt lat="43.5958338" lon="12.3531602"><ele>595.0</ele><time>2026-05-01T14:12:18.244Z</time></trkpt><trkpt lat="43.5956626" lon="12.3531476"><ele>595.0</ele><time>2026-05-01T14:12:19.254Z</time></trkpt><trkpt lat="43.5954978" lon="12.3531351"><ele>595.0</ele><time>2026-05-01T14:12:20.247Z</time></trkpt><trkpt lat="43.5953447" lon="12.3531203"><ele>595.0</ele><time>2026-05-01T14:12:21.244Z</time></trkpt><trkpt lat="43.5952047" lon="12.353096"><ele>593.0</ele><time>2026-05-01T14:12:22.246Z</time></trkpt><trkpt lat="43.5950736" lon="12.3530622"><ele>591.0</ele><time>2026-05-01T14:12:23.241Z</time></trkpt><trkpt lat="43.5949524" lon="12.3530201"><ele>589.0</ele><time>2026-05-01T14:12:24.254Z</time></trkpt><trkpt lat="43.5948277" lon="12.3529818"><ele>587.0</ele><time>2026-05-01T14:12:25.252Z</time></trkpt><trkpt lat="43.5947179" lon="12.3529687"><ele>587.0</ele><time>2026-05-01T14:12:26.247Z</time></trkpt><trkpt lat="43.5946332" lon="12.3529817"><ele>587.0</ele><time>2026-05-01T14:12:27.252Z</time></trkpt><trkpt lat="43.594567" lon="12.3529897"><ele>587.0</ele><time>2026-05-01T14:12:28.252Z</time></trkpt><trkpt lat="43.5944752" lon="12.3530037"><ele>587.0</ele><time>2026-05-01T14:12:30.251Z</time></trkpt><trkpt lat="43.5944546" lon="12.3531005"><ele>587.0</ele><time>2026-05-01T14:12:33.255Z</time></trkpt><trkpt lat="43.5944955" lon="12.3531805"><ele>587.0</ele><time>2026-05-01T14:12:35.254Z</time></trkpt><trkpt lat="43.5945573" lon="12.353251"><ele>587.0</ele><time>2026-05-01T14:12:37.254Z</time></trkpt><trkpt lat="43.5946256" lon="12.3533323"><ele>587.0</ele><time>2026-05-01T14:12:40.254Z</time></trkpt><trkpt lat="43.5946932" lon="12.3533816"><ele>587.0</ele><time>2026-05-01T14:13:23.245Z</time></trkpt><trkpt lat="43.5947522" lon="12.3534553"><ele>587.0</ele><time>2026-05-01T14:13:25.251Z</time></trkpt><trkpt lat="43.5948386" lon="12.3535394"><ele>587.0</ele><time>2026-05-01T14:13:26.246Z</time></trkpt><trkpt lat="43.5949526" lon="12.3536562"><ele>587.0</ele><time>2026-05-01T14:13:27.253Z</time></trkpt><trkpt lat="43.5950942" lon="12.3537865"><ele>587.0</ele><time>2026-05-01T14:13:28.246Z</time></trkpt><trkpt lat="43.5952492" lon="12.3539301"><ele>587.0</ele><time>2026-05-01T14:13:29.245Z</time></trkpt><trkpt lat="43.5954108" lon="12.3540811"><ele>584.6666666666666</ele><time>2026-05-01T14:13:30.245Z</time></trkpt><trkpt lat="43.5955716" lon="12.354222"><ele>582.3333333333334</ele><time>2026-05-01T14:13:31.242Z</time></trkpt><trkpt lat="43.5957383" lon="12.3543488"><ele>580.0</ele><time>2026-05-01T14:13:32.244Z</time></trkpt><trkpt lat="43.5959094" lon="12.354456"><ele>580.0</ele><time>2026-05-01T14:13:33.243Z</time></trkpt><trkpt lat="43.5960757" lon="12.3545573"><ele>580.0</ele><time>2026-05-01T14:13:34.241Z</time></trkpt><trkpt lat="43.5962319" lon="12.3546429"><ele>580.0</ele><time>2026-05-01T14:13:35.241Z</time></trkpt><trkpt lat="43.5963696" lon="12.3547082"><ele>578.75</ele><time>2026-05-01T14:13:36.24Z</time></trkpt><trkpt lat="43.5964891" lon="12.3547754"><ele>577.5</ele><time>2026-05-01T14:13:37.238Z</time></trkpt><trkpt lat="43.596618" lon="12.3548367"><ele>576.25</ele><time>2026-05-01T14:13:38.248Z</time></trkpt><trkpt lat="43.5967465" lon="12.3548788"><ele>575.0</ele><time>2026-05-01T14:13:39.245Z</time></trkpt><trkpt lat="43.5968517" lon="12.3549351"><ele>575.0</ele><time>2026-05-01T14:13:40.239Z</time></trkpt><trkpt lat="43.596931" lon="12.3549853"><ele>575.0</ele><time>2026-05-01T14:13:41.242Z</time></trkpt><trkpt lat="43.5970245" lon="12.3550662"><ele>575.0</ele><time>2026-05-01T14:13:42.242Z</time></trkpt><trkpt lat="43.5971159" lon="12.3551466"><ele>575.0</ele><time>2026-05-01T14:13:43.244Z</time></trkpt><trkpt lat="43.5972038" lon="12.3552384"><ele>575.0</ele><time>2026-05-01T14:13:44.242Z</time></trkpt><trkpt lat="43.5972986" lon="12.3553196"><ele>575.25</ele><time>2026-05-01T14:13:45.24Z</time></trkpt><trkpt lat="43.5974005" lon="12.3553917"><ele>575.5</ele><time>2026-05-01T14:13:46.242Z</time></trkpt><trkpt lat="43.5975119" lon="12.3554607"><ele>575.75</ele><time>2026-05-01T14:13:47.247Z</time></trkpt><trkpt lat="43.5976346" lon="12.3555303"><ele>576.0</ele><time>2026-05-01T14:13:48.242Z</time></trkpt><trkpt lat="43.5977794" lon="12.3555936"><ele>573.6666666666666</ele><time>2026-05-01T14:13:49.238Z</time></trkpt><trkpt lat="43.5979347" lon="12.3556607"><ele>571.3333333333333</ele><time>2026-05-01T14:13:50.249Z</time></trkpt><trkpt lat="43.5980867" lon="12.3557241"><ele>569.0</ele><time>2026-05-01T14:13:51.24Z</time></trkpt><trkpt lat="43.5982256" lon="12.3557705"><ele>569.0</ele><time>2026-05-01T14:13:52.236Z</time></trkpt><trkpt lat="43.5983637" lon="12.3557839"><ele>569.0</ele><time>2026-05-01T14:13:53.249Z</time></trkpt><trkpt lat="43.5985151" lon="12.3557753"><ele>569.0</ele><time>2026-05-01T14:13:54.244Z</time></trkpt><trkpt lat="43.598679" lon="12.3557158"><ele>568.6666666666666</ele><time>2026-05-01T14:13:55.247Z</time></trkpt><trkpt lat="43.5988352" lon="12.3556196"><ele>568.3333333333334</ele><time>2026-05-01T14:13:56.253Z</time></trkpt><trkpt lat="43.5989684" lon="12.3555079"><ele>568.0</ele><time>2026-05-01T14:13:57.26Z</time></trkpt><trkpt lat="43.5990881" lon="12.3553928"><ele>568.0</ele><time>2026-05-01T14:13:58.256Z</time></trkpt><trkpt lat="43.5991752" lon="12.355276"><ele>568.0</ele><time>2026-05-01T14:13:59.251Z</time></trkpt><trkpt lat="43.5992433" lon="12.3551553"><ele>568.0</ele><time>2026-05-01T14:14:00.246Z</time></trkpt><trkpt lat="43.5992936" lon="12.3550414"><ele>568.0</ele><time>2026-05-01T14:14:01.247Z</time></trkpt><trkpt lat="43.5993942" lon="12.3549947"><ele>568.0</ele><time>2026-05-01T14:14:03.246Z</time></trkpt><trkpt lat="43.5995139" lon="12.3550562"><ele>567.6666666666667</ele><time>2026-05-01T14:14:05.246Z</time></trkpt><trkpt lat="43.5995979" lon="12.355076"><ele>567.3333333333334</ele><time>2026-05-01T14:14:06.251Z</time></trkpt><trkpt lat="43.5996901" lon="12.3550923"><ele>567.0</ele><time>2026-05-01T14:14:07.253Z</time></trkpt><trkpt lat="43.5997812" lon="12.3551052"><ele>566.6666666666666</ele><time>2026-05-01T14:14:08.251Z</time></trkpt><trkpt lat="43.5998755" lon="12.3551241"><ele>566.3333333333333</ele><time>2026-05-01T14:14:09.246Z</time></trkpt><trkpt lat="43.5999451" lon="12.3551402"><ele>566.0</ele><time>2026-05-01T14:14:10.262Z</time></trkpt><trkpt lat="43.6000131" lon="12.3551953"><ele>566.0</ele><time>2026-05-01T14:14:12.253Z</time></trkpt><trkpt lat="43.600078" lon="12.3552535"><ele>566.0</ele><time>2026-05-01T14:14:14.255Z</time></trkpt><trkpt lat="43.6001436" lon="12.3553358"><ele>566.0</ele><time>2026-05-01T14:14:16.255Z</time></trkpt><trkpt lat="43.6001989" lon="12.3554179"><ele>566.0</ele><time>2026-05-01T14:14:18.259Z</time></trkpt><trkpt lat="43.6002703" lon="12.3554917"><ele>566.0</ele><time>2026-05-01T14:14:20.256Z</time></trkpt><trkpt lat="43.6003635" lon="12.3555375"><ele>566.0</ele><time>2026-05-01T14:14:22.264Z</time></trkpt><trkpt lat="43.6004754" lon="12.3555708"><ele>569.0</ele><time>2026-05-01T14:14:24.264Z</time></trkpt><trkpt lat="43.600549" lon="12.3555915"><ele>572.0</ele><time>2026-05-01T14:14:25.256Z</time></trkpt><trkpt lat="43.6006241" lon="12.3556103"><ele>575.0</ele><time>2026-05-01T14:14:26.256Z</time></trkpt><trkpt lat="43.6006992" lon="12.3556363"><ele>578.0</ele><time>2026-05-01T14:14:27.259Z</time></trkpt><trkpt lat="43.6007841" lon="12.3556617"><ele>581.0</ele><time>2026-05-01T14:14:28.255Z</time></trkpt><trkpt lat="43.6008778" lon="12.3556852"><ele>584.0</ele><time>2026-05-01T14:14:29.257Z</time></trkpt><trkpt lat="43.600976" lon="12.3556989"><ele>584.0</ele><time>2026-05-01T14:14:30.259Z</time></trkpt><trkpt lat="43.6010871" lon="12.355687"><ele>584.0</ele><time>2026-05-01T14:14:31.258Z</time></trkpt><trkpt lat="43.6012037" lon="12.3556511"><ele>584.0</ele><time>2026-05-01T14:14:32.258Z</time></trkpt><trkpt lat="43.6013082" lon="12.355609"><ele>584.0</ele><time>2026-05-01T14:14:33.259Z</time></trkpt><trkpt lat="43.6014132" lon="12.3555519"><ele>584.0</ele><time>2026-05-01T14:14:34.247Z</time></trkpt><trkpt lat="43.6015197" lon="12.3554886"><ele>584.0</ele><time>2026-05-01T14:14:35.253Z</time></trkpt><trkpt lat="43.6016237" lon="12.3554373"><ele>584.0</ele><time>2026-05-01T14:14:36.248Z</time></trkpt><trkpt lat="43.6017159" lon="12.3554151"><ele>584.0</ele><time>2026-05-01T14:14:37.252Z</time></trkpt><trkpt lat="43.6018043" lon="12.3554146"><ele>584.0</ele><time>2026-05-01T14:14:38.251Z</time></trkpt><trkpt lat="43.6018838" lon="12.3554371"><ele>584.0</ele><time>2026-05-01T14:14:39.253Z</time></trkpt><trkpt lat="43.6019588" lon="12.355451"><ele>584.0</ele><time>2026-05-01T14:14:40.257Z</time></trkpt><trkpt lat="43.602022" lon="12.3554361"><ele>584.0</ele><time>2026-05-01T14:14:41.249Z</time></trkpt><trkpt lat="43.6021167" lon="12.3553473"><ele>584.0</ele><time>2026-05-01T14:14:43.245Z</time></trkpt><trkpt lat="43.6021656" lon="12.3552053"><ele>584.0</ele><time>2026-05-01T14:14:45.253Z</time></trkpt><trkpt lat="43.6022051" lon="12.3550784"><ele>586.8</ele><time>2026-05-01T14:14:47.249Z</time></trkpt><trkpt lat="43.6022594" lon="12.3549908"><ele>589.5999999999999</ele><time>2026-05-01T14:14:49.258Z</time></trkpt><trkpt lat="43.6023387" lon="12.3549394"><ele>592.4</ele><time>2026-05-01T14:14:51.249Z</time></trkpt><trkpt lat="43.6024596" lon="12.3549008"><ele>595.1999999999999</ele><time>2026-05-01T14:14:53.25Z</time></trkpt><trkpt lat="43.6025472" lon="12.3549439"><ele>598.0</ele><time>2026-05-01T14:14:55.254Z</time></trkpt><trkpt lat="43.6026178" lon="12.3550648"><ele>598.0</ele><time>2026-05-01T14:14:57.255Z</time></trkpt><trkpt lat="43.60266" lon="12.3551565"><ele>598.0</ele><time>2026-05-01T14:14:58.25Z</time></trkpt><trkpt lat="43.6027182" lon="12.355259"><ele>598.0</ele><time>2026-05-01T14:14:59.25Z</time></trkpt><trkpt lat="43.6027934" lon="12.3553581"><ele>598.0</ele><time>2026-05-01T14:15:00.246Z</time></trkpt><trkpt lat="43.6028889" lon="12.3554517"><ele>598.0</ele><time>2026-05-01T14:15:01.252Z</time></trkpt><trkpt lat="43.6030105" lon="12.3555201"><ele>599.5</ele><time>2026-05-01T14:15:02.248Z</time></trkpt><trkpt lat="43.6031522" lon="12.3555534"><ele>601.0</ele><time>2026-05-01T14:15:03.252Z</time></trkpt><trkpt lat="43.6032886" lon="12.3555444"><ele>602.5</ele><time>2026-05-01T14:15:04.247Z</time></trkpt><trkpt lat="43.6034174" lon="12.3555055"><ele>604.0</ele><time>2026-05-01T14:15:05.245Z</time></trkpt><trkpt lat="43.6035476" lon="12.3554437"><ele>606.25</ele><time>2026-05-01T14:15:06.246Z</time></trkpt><trkpt lat="43.6036835" lon="12.3553561"><ele>608.5</ele><time>2026-05-01T14:15:07.239Z</time></trkpt><trkpt lat="43.6038031" lon="12.3552568"><ele>610.75</ele><time>2026-05-01T14:15:08.246Z</time></trkpt><trkpt lat="43.6039042" lon="12.3551525"><ele>613.0</ele><time>2026-05-01T14:15:09.249Z</time></trkpt><trkpt lat="43.6039765" lon="12.3550616"><ele>613.0</ele><time>2026-05-01T14:15:10.253Z</time></trkpt><trkpt lat="43.6040506" lon="12.3550277"><ele>613.0</ele><time>2026-05-01T14:15:11.257Z</time></trkpt><trkpt lat="43.6041186" lon="12.3550498"><ele>613.0</ele><time>2026-05-01T14:15:12.259Z</time></trkpt><trkpt lat="43.6042019" lon="12.3551132"><ele>613.0</ele><time>2026-05-01T14:15:13.249Z</time></trkpt><trkpt lat="43.6043002" lon="12.3551822"><ele>613.0</ele><time>2026-05-01T14:15:14.248Z</time></trkpt><trkpt lat="43.6044249" lon="12.3552715"><ele>615.3333333333334</ele><time>2026-05-01T14:15:15.249Z</time></trkpt><trkpt lat="43.6045612" lon="12.3553588"><ele>617.6666666666666</ele><time>2026-05-01T14:15:16.252Z</time></trkpt><trkpt lat="43.6046958" lon="12.3554569"><ele>620.0</ele><time>2026-05-01T14:15:17.249Z</time></trkpt><trkpt lat="43.6048215" lon="12.3555726"><ele>624.25</ele><time>2026-05-01T14:15:18.256Z</time></trkpt><trkpt lat="43.6049272" lon="12.355676"><ele>628.5</ele><time>2026-05-01T14:15:19.255Z</time></trkpt><trkpt lat="43.6050343" lon="12.3557383"><ele>632.75</ele><time>2026-05-01T14:15:20.255Z</time></trkpt><trkpt lat="43.6051523" lon="12.3557591"><ele>637.0</ele><time>2026-05-01T14:15:21.252Z</time></trkpt><trkpt lat="43.605288" lon="12.3557295"><ele>636.5</ele><time>2026-05-01T14:15:22.252Z</time></trkpt><trkpt lat="43.605408" lon="12.3556545"><ele>636.0</ele><time>2026-05-01T14:15:23.255Z</time></trkpt><trkpt lat="43.6055297" lon="12.3555506"><ele>635.5</ele><time>2026-05-01T14:15:24.242Z</time></trkpt><trkpt lat="43.6056292" lon="12.3554336"><ele>635.0</ele><time>2026-05-01T14:15:25.246Z</time></trkpt><trkpt lat="43.6057236" lon="12.3553058"><ele>635.0</ele><time>2026-05-01T14:15:26.25Z</time></trkpt><trkpt lat="43.6058053" lon="12.3552208"><ele>635.0</ele><time>2026-05-01T14:15:27.254Z</time></trkpt><trkpt lat="43.6058643" lon="12.35519"><ele>635.0</ele><time>2026-05-01T14:15:28.253Z</time></trkpt><trkpt lat="43.6059365" lon="12.3552689"><ele>635.0</ele><time>2026-05-01T14:15:30.248Z</time></trkpt><trkpt lat="43.6059602" lon="12.3554238"><ele>635.0</ele><time>2026-05-01T14:15:32.255Z</time></trkpt><trkpt lat="43.6059359" lon="12.3555043"><ele>635.0</ele><time>2026-05-01T14:15:33.256Z</time></trkpt><trkpt lat="43.6058859" lon="12.3555987"><ele>636.5</ele><time>2026-05-01T14:15:35.254Z</time></trkpt><trkpt lat="43.6058276" lon="12.3556557"><ele>638.0</ele><time>2026-05-01T14:15:37.251Z</time></trkpt><trkpt lat="43.6057534" lon="12.355729"><ele>639.5</ele><time>2026-05-01T14:15:39.249Z</time></trkpt><trkpt lat="43.6056964" lon="12.3558268"><ele>641.0</ele><time>2026-05-01T14:15:41.251Z</time></trkpt><trkpt lat="43.6056273" lon="12.3559315"><ele>642.5</ele><time>2026-05-01T14:15:43.245Z</time></trkpt><trkpt lat="43.605563" lon="12.355998"><ele>644.0</ele><time>2026-05-01T14:15:45.251Z</time></trkpt><trkpt lat="43.6054811" lon="12.3560674"><ele>644.0</ele><time>2026-05-01T14:15:47.256Z</time></trkpt><trkpt lat="43.6054046" lon="12.3560914"><ele>644.0</ele><time>2026-05-01T14:15:49.252Z</time></trkpt><trkpt lat="43.6053059" lon="12.356094"><ele>644.0</ele><time>2026-05-01T14:15:51.248Z</time></trkpt><trkpt lat="43.6052162" lon="12.3560804"><ele>644.0</ele><time>2026-05-01T14:15:53.244Z</time></trkpt><trkpt lat="43.6051217" lon="12.3560659"><ele>644.0</ele><time>2026-05-01T14:15:55.245Z</time></trkpt><trkpt lat="43.605024" lon="12.356047"><ele>642.8333333333333</ele><time>2026-05-01T14:15:57.252Z</time></trkpt><trkpt lat="43.604908" lon="12.3560294"><ele>641.6666666666666</ele><time>2026-05-01T14:15:59.246Z</time></trkpt><trkpt lat="43.6048415" lon="12.3560338"><ele>640.5</ele><time>2026-05-01T14:16:00.24Z</time></trkpt><trkpt lat="43.6047671" lon="12.3560704"><ele>639.3333333333334</ele><time>2026-05-01T14:16:01.255Z</time></trkpt><trkpt lat="43.6046956" lon="12.3561322"><ele>638.1666666666667</ele><time>2026-05-01T14:16:02.254Z</time></trkpt><trkpt lat="43.6046341" lon="12.3562221"><ele>637.0</ele><time>2026-05-01T14:16:03.25Z</time></trkpt><trkpt lat="43.6045943" lon="12.3563238"><ele>640.6</ele><time>2026-05-01T14:16:04.251Z</time></trkpt><trkpt lat="43.6045901" lon="12.3564408"><ele>644.2</ele><time>2026-05-01T14:16:05.252Z</time></trkpt><trkpt lat="43.6046192" lon="12.3565712"><ele>647.8</ele><time>2026-05-01T14:16:06.253Z</time></trkpt><trkpt lat="43.604677" lon="12.3567202"><ele>651.4</ele><time>2026-05-01T14:16:07.253Z</time></trkpt><trkpt lat="43.6047443" lon="12.3568879"><ele>655.0</ele><time>2026-05-01T14:16:08.249Z</time></trkpt><trkpt lat="43.6047991" lon="12.357047"><ele>658.25</ele><time>2026-05-01T14:16:09.247Z</time></trkpt><trkpt lat="43.6048291" lon="12.3572041"><ele>661.5</ele><time>2026-05-01T14:16:10.244Z</time></trkpt><trkpt lat="43.604833" lon="12.3573691"><ele>664.75</ele><time>2026-05-01T14:16:11.241Z</time></trkpt><trkpt lat="43.6048204" lon="12.3575476"><ele>668.0</ele><time>2026-05-01T14:16:12.243Z</time></trkpt><trkpt lat="43.6048069" lon="12.3577022"><ele>668.0</ele><time>2026-05-01T14:16:13.246Z</time></trkpt><trkpt lat="43.6047801" lon="12.3578353"><ele>668.0</ele><time>2026-05-01T14:16:14.244Z</time></trkpt><trkpt lat="43.6047401" lon="12.3579442"><ele>668.0</ele><time>2026-05-01T14:16:15.241Z</time></trkpt><trkpt lat="43.6046756" lon="12.3580413"><ele>668.0</ele><time>2026-05-01T14:16:16.253Z</time></trkpt><trkpt lat="43.6045908" lon="12.3581176"><ele>668.0</ele><time>2026-05-01T14:16:17.248Z</time></trkpt><trkpt lat="43.6044669" lon="12.358144"><ele>669.0</ele><time>2026-05-01T14:16:18.242Z</time></trkpt><trkpt lat="43.6043193" lon="12.3581535"><ele>670.0</ele><time>2026-05-01T14:16:19.248Z</time></trkpt><trkpt lat="43.6041772" lon="12.3581782"><ele>671.0</ele><time>2026-05-01T14:16:20.251Z</time></trkpt><trkpt lat="43.6040393" lon="12.3581968"><ele>672.0</ele><time>2026-05-01T14:16:21.248Z</time></trkpt><trkpt lat="43.6039234" lon="12.3582372"><ele>672.0</ele><time>2026-05-01T14:16:22.248Z</time></trkpt><trkpt lat="43.6038553" lon="12.3583325"><ele>672.0</ele><time>2026-05-01T14:16:23.255Z</time></trkpt><trkpt lat="43.6038166" lon="12.3584836"><ele>672.0</ele><time>2026-05-01T14:16:24.252Z</time></trkpt><trkpt lat="43.603795" lon="12.3586679"><ele>672.0</ele><time>2026-05-01T14:16:25.254Z</time></trkpt><trkpt lat="43.6037708" lon="12.3588294"><ele>671.5</ele><time>2026-05-01T14:16:26.25Z</time></trkpt><trkpt lat="43.6037297" lon="12.3589335"><ele>671.0</ele><time>2026-05-01T14:16:27.251Z</time></trkpt><trkpt lat="43.6036511" lon="12.3590042"><ele>670.5</ele><time>2026-05-01T14:16:28.251Z</time></trkpt><trkpt lat="43.6035348" lon="12.3590561"><ele>670.0</ele><time>2026-05-01T14:16:29.253Z</time></trkpt><trkpt lat="43.6033877" lon="12.35911"><ele>670.0</ele><time>2026-05-01T14:16:30.248Z</time></trkpt><trkpt lat="43.6032249" lon="12.3591432"><ele>670.0</ele><time>2026-05-01T14:16:31.245Z</time></trkpt><trkpt lat="43.6030744" lon="12.3591593"><ele>670.0</ele><time>2026-05-01T14:16:32.246Z</time></trkpt><trkpt lat="43.6029649" lon="12.359149"><ele>670.0</ele><time>2026-05-01T14:16:33.249Z</time></trkpt><trkpt lat="43.6028675" lon="12.3591627"><ele>668.8</ele><time>2026-05-01T14:16:34.251Z</time></trkpt><trkpt lat="43.6027878" lon="12.3592331"><ele>667.6</ele><time>2026-05-01T14:16:35.254Z</time></trkpt><trkpt lat="43.6027453" lon="12.359314"><ele>666.4000000000001</ele><time>2026-05-01T14:16:36.245Z</time></trkpt><trkpt lat="43.6027156" lon="12.3594235"><ele>665.2</ele><time>2026-05-01T14:16:37.248Z</time></trkpt><trkpt lat="43.6027047" lon="12.359587"><ele>664.0</ele><time>2026-05-01T14:16:38.248Z</time></trkpt><trkpt lat="43.602692" lon="12.3597573"><ele>664.0</ele><time>2026-05-01T14:16:39.248Z</time></trkpt><trkpt lat="43.6026651" lon="12.3599035"><ele>664.0</ele><time>2026-05-01T14:16:40.258Z</time></trkpt><trkpt lat="43.6026208" lon="12.3600267"><ele>664.0</ele><time>2026-05-01T14:16:41.26Z</time></trkpt><trkpt lat="43.6025427" lon="12.3601382"><ele>664.0</ele><time>2026-05-01T14:16:42.269Z</time></trkpt><trkpt lat="43.6024347" lon="12.3602184"><ele>664.0</ele><time>2026-05-01T14:16:43.26Z</time></trkpt><trkpt lat="43.6023262" lon="12.3602758"><ele>664.0</ele><time>2026-05-01T14:16:44.251Z</time></trkpt><trkpt lat="43.6022219" lon="12.3603094"><ele>664.0</ele><time>2026-05-01T14:16:45.257Z</time></trkpt><trkpt lat="43.6021063" lon="12.3603359"><ele>664.0</ele><time>2026-05-01T14:16:46.258Z</time></trkpt><trkpt lat="43.6019558" lon="12.3603405"><ele>664.0</ele><time>2026-05-01T14:16:47.268Z</time></trkpt><trkpt lat="43.6017877" lon="12.3603597"><ele>662.25</ele><time>2026-05-01T14:16:48.267Z</time></trkpt><trkpt lat="43.6016188" lon="12.360397"><ele>660.5</ele><time>2026-05-01T14:16:49.259Z</time></trkpt><trkpt lat="43.6014816" lon="12.3604561"><ele>658.75</ele><time>2026-05-01T14:16:50.262Z</time></trkpt><trkpt lat="43.6013804" lon="12.3605157"><ele>657.0</ele><time>2026-05-01T14:16:51.251Z</time></trkpt><trkpt lat="43.6012645" lon="12.3605706"><ele>654.25</ele><time>2026-05-01T14:16:52.255Z</time></trkpt><trkpt lat="43.6011313" lon="12.3605968"><ele>651.5</ele><time>2026-05-01T14:16:53.255Z</time></trkpt><trkpt lat="43.6010078" lon="12.3606166"><ele>648.75</ele><time>2026-05-01T14:16:54.257Z</time></trkpt><trkpt lat="43.600903" lon="12.3606359"><ele>646.0</ele><time>2026-05-01T14:16:55.275Z</time></trkpt><trkpt lat="43.6007879" lon="12.3606667"><ele>646.0</ele><time>2026-05-01T14:16:56.279Z</time></trkpt><trkpt lat="43.600663" lon="12.3606961"><ele>646.0</ele><time>2026-05-01T14:16:57.262Z</time></trkpt><trkpt lat="43.6005318" lon="12.3607141"><ele>646.0</ele><time>2026-05-01T14:16:58.259Z</time></trkpt><trkpt lat="43.600403" lon="12.3607009"><ele>646.0</ele><time>2026-05-01T14:16:59.258Z</time></trkpt><trkpt lat="43.6002763" lon="12.3606817"><ele>646.75</ele><time>2026-05-01T14:17:00.256Z</time></trkpt><trkpt lat="43.6001552" lon="12.3606789"><ele>647.5</ele><time>2026-05-01T14:17:01.255Z</time></trkpt><trkpt lat="43.6000209" lon="12.3607071"><ele>648.25</ele><time>2026-05-01T14:17:02.248Z</time></trkpt><trkpt lat="43.5998864" lon="12.3607358"><ele>649.0</ele><time>2026-05-01T14:17:03.265Z</time></trkpt><trkpt lat="43.599761" lon="12.3607758"><ele>649.0</ele><time>2026-05-01T14:17:04.262Z</time></trkpt><trkpt lat="43.599634" lon="12.3608184"><ele>649.0</ele><time>2026-05-01T14:17:05.263Z</time></trkpt><trkpt lat="43.5995069" lon="12.3608733"><ele>649.0</ele><time>2026-05-01T14:17:06.258Z</time></trkpt><trkpt lat="43.5993774" lon="12.3609452"><ele>649.0</ele><time>2026-05-01T14:17:07.254Z</time></trkpt><trkpt lat="43.5992436" lon="12.361029"><ele>651.0</ele><time>2026-05-01T14:17:08.248Z</time></trkpt><trkpt lat="43.5991165" lon="12.3611343"><ele>653.0</ele><time>2026-05-01T14:17:09.248Z</time></trkpt><trkpt lat="43.598994" lon="12.3612587"><ele>655.0</ele><time>2026-05-01T14:17:10.251Z</time></trkpt><trkpt lat="43.5988849" lon="12.3613572"><ele>657.0</ele><time>2026-05-01T14:17:11.246Z</time></trkpt><trkpt lat="43.5987575" lon="12.3614495"><ele>652.6666666666666</ele><time>2026-05-01T14:17:12.239Z</time></trkpt><trkpt lat="43.5986191" lon="12.3615032"><ele>648.3333333333333</ele><time>2026-05-01T14:17:13.239Z</time></trkpt><trkpt lat="43.5984657" lon="12.3615566"><ele>644.0</ele><time>2026-05-01T14:17:14.238Z</time></trkpt><trkpt lat="43.5983041" lon="12.361615"><ele>644.0</ele><time>2026-05-01T14:17:15.24Z</time></trkpt><trkpt lat="43.5981495" lon="12.3616677"><ele>644.0</ele><time>2026-05-01T14:17:16.246Z</time></trkpt><trkpt lat="43.5980086" lon="12.3617136"><ele>644.0</ele><time>2026-05-01T14:17:17.244Z</time></trkpt><trkpt lat="43.5978956" lon="12.3617201"><ele>644.0</ele><time>2026-05-01T14:17:18.243Z</time></trkpt><trkpt lat="43.5978041" lon="12.3617045"><ele>641.5</ele><time>2026-05-01T14:17:19.247Z</time></trkpt><trkpt lat="43.597698" lon="12.3616318"><ele>639.0</ele><time>2026-05-01T14:17:20.252Z</time></trkpt><trkpt lat="43.5975702" lon="12.3615403"><ele>636.5</ele><time>2026-05-01T14:17:21.246Z</time></trkpt><trkpt lat="43.5974416" lon="12.3614703"><ele>634.0</ele><time>2026-05-01T14:17:22.251Z</time></trkpt><trkpt lat="43.5973212" lon="12.3614244"><ele>634.0</ele><time>2026-05-01T14:17:23.256Z</time></trkpt><trkpt lat="43.5972368" lon="12.3613749"><ele>634.0</ele><time>2026-05-01T14:17:24.258Z</time></trkpt><trkpt lat="43.5971738" lon="12.3613437"><ele>634.0</ele><time>2026-05-01T14:17:25.253Z</time></trkpt><trkpt lat="43.5970831" lon="12.361387"><ele>634.0</ele><time>2026-05-01T14:17:27.248Z</time></trkpt><trkpt lat="43.5970329" lon="12.3614669"><ele>634.0</ele><time>2026-05-01T14:17:28.246Z</time></trkpt><trkpt lat="43.5970113" lon="12.3615685"><ele>634.0</ele><time>2026-05-01T14:17:29.247Z</time></trkpt><trkpt lat="43.5970065" lon="12.361658"><ele>634.0</ele><time>2026-05-01T14:17:30.243Z</time></trkpt><trkpt lat="43.5970095" lon="12.3617624"><ele>634.0</ele><time>2026-05-01T14:17:31.246Z</time></trkpt><trkpt lat="43.5970341" lon="12.3618681"><ele>634.0</ele><time>2026-05-01T14:17:32.245Z</time></trkpt><trkpt lat="43.5970923" lon="12.3619845"><ele>634.0</ele><time>2026-05-01T14:17:33.243Z</time></trkpt><trkpt lat="43.5971804" lon="12.3621125"><ele>634.0</ele><time>2026-05-01T14:17:34.24Z</time></trkpt><trkpt lat="43.5972892" lon="12.3622269"><ele>633.75</ele><time>2026-05-01T14:17:35.238Z</time></trkpt><trkpt lat="43.5973974" lon="12.3623366"><ele>633.5</ele><time>2026-05-01T14:17:36.246Z</time></trkpt><trkpt lat="43.5975" lon="12.3624347"><ele>633.25</ele><time>2026-05-01T14:17:37.247Z</time></trkpt><trkpt lat="43.5975982" lon="12.3625291"><ele>633.0</ele><time>2026-05-01T14:17:38.25Z</time></trkpt><trkpt lat="43.5976893" lon="12.3626297"><ele>633.0</ele><time>2026-05-01T14:17:39.265Z</time></trkpt><trkpt lat="43.5977741" lon="12.3627543"><ele>633.0</ele><time>2026-05-01T14:17:40.246Z</time></trkpt><trkpt lat="43.5978611" lon="12.3629071"><ele>633.0</ele><time>2026-05-01T14:17:41.241Z</time></trkpt><trkpt lat="43.597937" lon="12.3631242"><ele>633.0</ele><time>2026-05-01T14:17:42.245Z</time></trkpt><trkpt lat="43.5980072" lon="12.3634084"><ele>632.3333333333334</ele><time>2026-05-01T14:17:43.248Z</time></trkpt><trkpt lat="43.5980681" lon="12.3636838"><ele>631.6666666666667</ele><time>2026-05-01T14:17:44.247Z</time></trkpt><trkpt lat="43.5981236" lon="12.363953"><ele>631.0</ele><time>2026-05-01T14:17:45.249Z</time></trkpt><trkpt lat="43.5981817" lon="12.3642047"><ele>632.75</ele><time>2026-05-01T14:17:46.247Z</time></trkpt><trkpt lat="43.5982511" lon="12.3644124"><ele>634.5</ele><time>2026-05-01T14:17:47.251Z</time></trkpt><trkpt lat="43.5983282" lon="12.3645561"><ele>636.25</ele><time>2026-05-01T14:17:48.25Z</time></trkpt><trkpt lat="43.5984049" lon="12.364643"><ele>638.0</ele><time>2026-05-01T14:17:49.244Z</time></trkpt><trkpt lat="43.5984917" lon="12.3647245"><ele>639.25</ele><time>2026-05-01T14:17:50.248Z</time></trkpt><trkpt lat="43.5985788" lon="12.3648284"><ele>640.5</ele><time>2026-05-01T14:17:51.252Z</time></trkpt><trkpt lat="43.5986587" lon="12.3649643"><ele>641.75</ele><time>2026-05-01T14:17:52.259Z</time></trkpt><trkpt lat="43.5987295" lon="12.3651514"><ele>643.0</ele><time>2026-05-01T14:17:53.241Z</time></trkpt><trkpt lat="43.5988022" lon="12.3653325"><ele>643.0</ele><time>2026-05-01T14:17:54.253Z</time></trkpt><trkpt lat="43.598868" lon="12.3654846"><ele>643.0</ele><time>2026-05-01T14:17:55.25Z</time></trkpt><trkpt lat="43.5989214" lon="12.3655997"><ele>643.0</ele><time>2026-05-01T14:17:56.257Z</time></trkpt><trkpt lat="43.5989482" lon="12.3657117"><ele>643.0</ele><time>2026-05-01T14:17:57.258Z</time></trkpt><trkpt lat="43.5989624" lon="12.3658284"><ele>643.0</ele><time>2026-05-01T14:17:58.258Z</time></trkpt><trkpt lat="43.5989572" lon="12.3659349"><ele>645.8333333333334</ele><time>2026-05-01T14:17:59.255Z</time></trkpt><trkpt lat="43.5988998" lon="12.366002"><ele>648.6666666666667</ele><time>2026-05-01T14:18:00.244Z</time></trkpt><trkpt lat="43.5988333" lon="12.3660532"><ele>651.5</ele><time>2026-05-01T14:18:01.241Z</time></trkpt><trkpt lat="43.5987585" lon="12.3660874"><ele>654.3333333333334</ele><time>2026-05-01T14:18:02.242Z</time></trkpt><trkpt lat="43.5986751" lon="12.3660986"><ele>657.1666666666666</ele><time>2026-05-01T14:18:03.242Z</time></trkpt><trkpt lat="43.5985705" lon="12.3660483"><ele>660.0</ele><time>2026-05-01T14:18:04.237Z</time></trkpt><trkpt lat="43.5984566" lon="12.3659602"><ele>661.0</ele><time>2026-05-01T14:18:05.241Z</time></trkpt><trkpt lat="43.5983477" lon="12.3658799"><ele>662.0</ele><time>2026-05-01T14:18:06.24Z</time></trkpt><trkpt lat="43.5982336" lon="12.3657859"><ele>663.0</ele><time>2026-05-01T14:18:07.244Z</time></trkpt><trkpt lat="43.5981143" lon="12.3656956"><ele>664.0</ele><time>2026-05-01T14:18:08.243Z</time></trkpt><trkpt lat="43.5979926" lon="12.3656055"><ele>664.0</ele><time>2026-05-01T14:18:09.245Z</time></trkpt><trkpt lat="43.5978836" lon="12.3655357"><ele>664.0</ele><time>2026-05-01T14:18:10.248Z</time></trkpt><trkpt lat="43.5977776" lon="12.3655"><ele>664.0</ele><time>2026-05-01T14:18:11.248Z</time></trkpt><trkpt lat="43.5976478" lon="12.3655066"><ele>664.0</ele><time>2026-05-01T14:18:12.247Z</time></trkpt><trkpt lat="43.5975099" lon="12.3655399"><ele>664.0</ele><time>2026-05-01T14:18:13.246Z</time></trkpt><trkpt lat="43.5973928" lon="12.3655673"><ele>664.0</ele><time>2026-05-01T14:18:14.247Z</time></trkpt><trkpt lat="43.5972914" lon="12.3655678"><ele>664.0</ele><time>2026-05-01T14:18:15.252Z</time></trkpt><trkpt lat="43.5972056" lon="12.3655139"><ele>664.0</ele><time>2026-05-01T14:18:16.248Z</time></trkpt><trkpt lat="43.5971254" lon="12.3654255"><ele>664.0</ele><time>2026-05-01T14:18:17.247Z</time></trkpt><trkpt lat="43.5970528" lon="12.3653179"><ele>667.0</ele><time>2026-05-01T14:18:18.251Z</time></trkpt><trkpt lat="43.5969933" lon="12.3652082"><ele>670.0</ele><time>2026-05-01T14:18:19.246Z</time></trkpt><trkpt lat="43.5969348" lon="12.3651298"><ele>673.0</ele><time>2026-05-01T14:18:20.25Z</time></trkpt><trkpt lat="43.596869" lon="12.3650907"><ele>676.0</ele><time>2026-05-01T14:18:21.253Z</time></trkpt><trkpt lat="43.5967858" lon="12.3651064"><ele>679.0</ele><time>2026-05-01T14:18:22.244Z</time></trkpt><trkpt lat="43.5967019" lon="12.3651495"><ele>682.0</ele><time>2026-05-01T14:18:23.257Z</time></trkpt><trkpt lat="43.596629" lon="12.3652408"><ele>682.0</ele><time>2026-05-01T14:18:24.249Z</time></trkpt><trkpt lat="43.5965714" lon="12.3653991"><ele>682.0</ele><time>2026-05-01T14:18:25.249Z</time></trkpt><trkpt lat="43.5965371" lon="12.3656163"><ele>682.0</ele><time>2026-05-01T14:18:26.246Z</time></trkpt><trkpt lat="43.596536" lon="12.3658356"><ele>682.0</ele><time>2026-05-01T14:18:27.24Z</time></trkpt><trkpt lat="43.5965447" lon="12.3660379"><ele>684.25</ele><time>2026-05-01T14:18:28.246Z</time></trkpt><trkpt lat="43.596513" lon="12.3662067"><ele>686.5</ele><time>2026-05-01T14:18:29.25Z</time></trkpt><trkpt lat="43.5964704" lon="12.3663546"><ele>688.75</ele><time>2026-05-01T14:18:30.255Z</time></trkpt><trkpt lat="43.5964003" lon="12.3665065"><ele>691.0</ele><time>2026-05-01T14:18:31.261Z</time></trkpt><trkpt lat="43.596326" lon="12.3666263"><ele>691.8333333333334</ele><time>2026-05-01T14:18:32.258Z</time></trkpt><trkpt lat="43.5962595" lon="12.3667156"><ele>692.6666666666667</ele><time>2026-05-01T14:18:33.253Z</time></trkpt><trkpt lat="43.5962184" lon="12.366804"><ele>693.5</ele><time>2026-05-01T14:18:34.245Z</time></trkpt><trkpt lat="43.5961898" lon="12.3669031"><ele>694.3333333333334</ele><time>2026-05-01T14:18:35.244Z</time></trkpt><trkpt lat="43.5961669" lon="12.3669911"><ele>695.1666666666666</ele><time>2026-05-01T14:18:36.248Z</time></trkpt><trkpt lat="43.5961252" lon="12.3670767"><ele>696.0</ele><time>2026-05-01T14:20:47.26Z</time></trkpt><trkpt lat="43.5960612" lon="12.3671967"><ele>698.5</ele><time>2026-05-01T14:20:49.254Z</time></trkpt><trkpt lat="43.5960205" lon="12.3672711"><ele>701.0</ele><time>2026-05-01T14:20:50.256Z</time></trkpt><trkpt lat="43.5959728" lon="12.3673509"><ele>703.5</ele><time>2026-05-01T14:20:51.256Z</time></trkpt><trkpt lat="43.5959197" lon="12.3674444"><ele>706.0</ele><time>2026-05-01T14:20:52.255Z</time></trkpt><trkpt lat="43.5958643" lon="12.367547"><ele>708.5</ele><time>2026-05-01T14:20:53.266Z</time></trkpt><trkpt lat="43.5958127" lon="12.3676545"><ele>711.0</ele><time>2026-05-01T14:20:54.254Z</time></trkpt><trkpt lat="43.5957553" lon="12.3677748"><ele>711.0</ele><time>2026-05-01T14:20:55.256Z</time></trkpt><trkpt lat="43.5956929" lon="12.3679003"><ele>711.0</ele><time>2026-05-01T14:20:56.257Z</time></trkpt><trkpt lat="43.5956312" lon="12.3680291"><ele>711.0</ele><time>2026-05-01T14:20:57.254Z</time></trkpt><trkpt lat="43.5955722" lon="12.3681568"><ele>711.0</ele><time>2026-05-01T14:20:58.254Z</time></trkpt><trkpt lat="43.5955124" lon="12.3682855"><ele>711.0</ele><time>2026-05-01T14:20:59.255Z</time></trkpt><trkpt lat="43.5954489" lon="12.3684187"><ele>712.75</ele><time>2026-05-01T14:21:00.254Z</time></trkpt><trkpt lat="43.5953777" lon="12.3685581"><ele>714.5</ele><time>2026-05-01T14:21:01.254Z</time></trkpt><trkpt lat="43.5952958" lon="12.3687035"><ele>716.25</ele><time>2026-05-01T14:21:02.258Z</time></trkpt><trkpt lat="43.5952223" lon="12.3688514"><ele>718.0</ele><time>2026-05-01T14:21:03.263Z</time></trkpt><trkpt lat="43.5951536" lon="12.368989"><ele>721.2</ele><time>2026-05-01T14:21:04.265Z</time></trkpt><trkpt lat="43.5950956" lon="12.3691179"><ele>724.4</ele><time>2026-05-01T14:21:05.267Z</time></trkpt><trkpt lat="43.5950407" lon="12.3692448"><ele>727.6</ele><time>2026-05-01T14:21:06.252Z</time></trkpt><trkpt lat="43.5949835" lon="12.3693661"><ele>730.8000000000001</ele><time>2026-05-01T14:21:07.242Z</time></trkpt><trkpt lat="43.5949183" lon="12.3694821"><ele>734.0</ele><time>2026-05-01T14:21:08.253Z</time></trkpt><trkpt lat="43.5948382" lon="12.3695865"><ele>734.0</ele><time>2026-05-01T14:21:09.248Z</time></trkpt><trkpt lat="43.5947514" lon="12.369672"><ele>734.0</ele><time>2026-05-01T14:21:10.247Z</time></trkpt><trkpt lat="43.5946682" lon="12.36974"><ele>734.0</ele><time>2026-05-01T14:21:11.253Z</time></trkpt><trkpt lat="43.5945855" lon="12.3697919"><ele>734.0</ele><time>2026-05-01T14:21:12.245Z</time></trkpt><trkpt lat="43.5944963" lon="12.3698039"><ele>734.0</ele><time>2026-05-01T14:21:13.248Z</time></trkpt><trkpt lat="43.5943954" lon="12.369779"><ele>733.4000000000001</ele><time>2026-05-01T14:21:14.258Z</time></trkpt><trkpt lat="43.5942852" lon="12.369712"><ele>732.8</ele><time>2026-05-01T14:21:15.254Z</time></trkpt><trkpt lat="43.5941864" lon="12.3696375"><ele>732.2</ele><time>2026-05-01T14:21:16.251Z</time></trkpt><trkpt lat="43.5941061" lon="12.3695601"><ele>731.5999999999999</ele><time>2026-05-01T14:21:17.255Z</time></trkpt><trkpt lat="43.594037" lon="12.3695077"><ele>731.0</ele><time>2026-05-01T14:21:18.258Z</time></trkpt><trkpt lat="43.5939367" lon="12.3695698"><ele>731.0</ele><time>2026-05-01T14:21:20.246Z</time></trkpt><trkpt lat="43.593906" lon="12.3696613"><ele>731.0</ele><time>2026-05-01T14:21:21.251Z</time></trkpt><trkpt lat="43.5938797" lon="12.3697867"><ele>731.0</ele><time>2026-05-01T14:21:22.253Z</time></trkpt><trkpt lat="43.593864" lon="12.369926"><ele>731.0</ele><time>2026-05-01T14:21:23.258Z</time></trkpt><trkpt lat="43.5938552" lon="12.3701107"><ele>731.0</ele><time>2026-05-01T14:21:24.257Z</time></trkpt><trkpt lat="43.5938541" lon="12.370301"><ele>732.75</ele><time>2026-05-01T14:21:25.258Z</time></trkpt><trkpt lat="43.5938531" lon="12.370483"><ele>734.5</ele><time>2026-05-01T14:21:26.264Z</time></trkpt><trkpt lat="43.5938478" lon="12.3706541"><ele>736.25</ele><time>2026-05-01T14:21:27.267Z</time></trkpt><trkpt lat="43.5938338" lon="12.3708089"><ele>738.0</ele><time>2026-05-01T14:21:28.264Z</time></trkpt><trkpt lat="43.593815" lon="12.3709687"><ele>740.75</ele><time>2026-05-01T14:21:29.264Z</time></trkpt><trkpt lat="43.5937876" lon="12.3711385"><ele>743.5</ele><time>2026-05-01T14:21:30.258Z</time></trkpt><trkpt lat="43.5937499" lon="12.3713134"><ele>746.25</ele><time>2026-05-01T14:21:31.255Z</time></trkpt><trkpt lat="43.5937131" lon="12.3714812"><ele>749.0</ele><time>2026-05-01T14:21:32.264Z</time></trkpt><trkpt lat="43.5936791" lon="12.3716448"><ele>748.25</ele><time>2026-05-01T14:21:33.267Z</time></trkpt><trkpt lat="43.5936499" lon="12.3718114"><ele>747.5</ele><time>2026-05-01T14:21:34.265Z</time></trkpt><trkpt lat="43.5936199" lon="12.3719737"><ele>746.75</ele><time>2026-05-01T14:21:35.272Z</time></trkpt><trkpt lat="43.5935869" lon="12.3721228"><ele>746.0</ele><time>2026-05-01T14:21:36.257Z</time></trkpt><trkpt lat="43.593553" lon="12.3722763"><ele>746.0</ele><time>2026-05-01T14:21:37.259Z</time></trkpt><trkpt lat="43.5935187" lon="12.372423"><ele>746.0</ele><time>2026-05-01T14:21:38.247Z</time></trkpt><trkpt lat="43.5934783" lon="12.3725579"><ele>746.0</ele><time>2026-05-01T14:21:39.248Z</time></trkpt><trkpt lat="43.5934317" lon="12.3726841"><ele>746.0</ele><time>2026-05-01T14:21:40.248Z</time></trkpt><trkpt lat="43.5933772" lon="12.37279"><ele>746.0</ele><time>2026-05-01T14:21:41.251Z</time></trkpt><trkpt lat="43.593316" lon="12.3728641"><ele>746.0</ele><time>2026-05-01T14:21:42.259Z</time></trkpt><trkpt lat="43.5932459" lon="12.3729363"><ele>746.0</ele><time>2026-05-01T14:21:43.253Z</time></trkpt><trkpt lat="43.5931703" lon="12.3730173"><ele>746.0</ele><time>2026-05-01T14:21:44.258Z</time></trkpt><trkpt lat="43.5930936" lon="12.37311"><ele>746.0</ele><time>2026-05-01T14:21:45.256Z</time></trkpt><trkpt lat="43.5930118" lon="12.3732091"><ele>746.0</ele><time>2026-05-01T14:21:46.257Z</time></trkpt><trkpt lat="43.5929252" lon="12.3733104"><ele>745.5</ele><time>2026-05-01T14:21:47.256Z</time></trkpt><trkpt lat="43.5928352" lon="12.3734131"><ele>745.0</ele><time>2026-05-01T14:21:48.255Z</time></trkpt><trkpt lat="43.5927403" lon="12.3735156"><ele>744.5</ele><time>2026-05-01T14:21:49.256Z</time></trkpt><trkpt lat="43.5926448" lon="12.3736211"><ele>744.0</ele><time>2026-05-01T14:21:50.256Z</time></trkpt><trkpt lat="43.5925423" lon="12.3737301"><ele>744.0</ele><time>2026-05-01T14:21:51.256Z</time></trkpt><trkpt lat="43.5924338" lon="12.3738442"><ele>744.0</ele><time>2026-05-01T14:21:52.256Z</time></trkpt><trkpt lat="43.5923187" lon="12.3739609"><ele>744.0</ele><time>2026-05-01T14:21:53.254Z</time></trkpt><trkpt lat="43.5921929" lon="12.3741119"><ele>744.0</ele><time>2026-05-01T14:21:54.256Z</time></trkpt><trkpt lat="43.5920647" lon="12.3743039"><ele>747.0</ele><time>2026-05-01T14:21:55.255Z</time></trkpt><trkpt lat="43.5919324" lon="12.3745503"><ele>750.0</ele><time>2026-05-01T14:21:56.257Z</time></trkpt><trkpt lat="43.5918056" lon="12.3747853"><ele>753.0</ele><time>2026-05-01T14:21:57.26Z</time></trkpt><trkpt lat="43.5916949" lon="12.3749892"><ele>754.25</ele><time>2026-05-01T14:21:58.253Z</time></trkpt><trkpt lat="43.5916004" lon="12.3751659"><ele>755.5</ele><time>2026-05-01T14:21:59.254Z</time></trkpt><trkpt lat="43.5915141" lon="12.3753321"><ele>756.75</ele><time>2026-05-01T14:22:00.253Z</time></trkpt><trkpt lat="43.5914364" lon="12.3754798"><ele>758.0</ele><time>2026-05-01T14:22:01.25Z</time></trkpt><trkpt lat="43.5913618" lon="12.3756225"><ele>758.0</ele><time>2026-05-01T14:22:02.256Z</time></trkpt><trkpt lat="43.5912894" lon="12.3757639"><ele>758.0</ele><time>2026-05-01T14:22:03.257Z</time></trkpt><trkpt lat="43.5912173" lon="12.3758966"><ele>758.0</ele><time>2026-05-01T14:22:04.257Z</time></trkpt><trkpt lat="43.5911425" lon="12.3760192"><ele>758.0</ele><time>2026-05-01T14:22:05.254Z</time></trkpt><trkpt lat="43.5910689" lon="12.3761257"><ele>757.75</ele><time>2026-05-01T14:22:06.266Z</time></trkpt><trkpt lat="43.5909889" lon="12.3762266"><ele>757.5</ele><time>2026-05-01T14:22:07.254Z</time></trkpt><trkpt lat="43.5909021" lon="12.3763189"><ele>757.25</ele><time>2026-05-01T14:22:08.254Z</time></trkpt><trkpt lat="43.5908054" lon="12.3764056"><ele>757.0</ele><time>2026-05-01T14:22:09.254Z</time></trkpt><trkpt lat="43.590702" lon="12.3764897"><ele>757.75</ele><time>2026-05-01T14:22:10.261Z</time></trkpt><trkpt lat="43.5905928" lon="12.3765658"><ele>758.5</ele><time>2026-05-01T14:22:11.253Z</time></trkpt><trkpt lat="43.5904726" lon="12.3766283"><ele>759.25</ele><time>2026-05-01T14:22:12.253Z</time></trkpt><trkpt lat="43.5903457" lon="12.3766756"><ele>760.0</ele><time>2026-05-01T14:22:13.256Z</time></trkpt><trkpt lat="43.5902284" lon="12.376727"><ele>760.2</ele><time>2026-05-01T14:22:14.254Z</time></trkpt><trkpt lat="43.5901261" lon="12.3767821"><ele>760.4</ele><time>2026-05-01T14:22:15.255Z</time></trkpt><trkpt lat="43.5900365" lon="12.3768428"><ele>760.5999999999999</ele><time>2026-05-01T14:22:16.253Z</time></trkpt><trkpt lat="43.5899455" lon="12.3768893"><ele>760.8</ele><time>2026-05-01T14:22:17.253Z</time></trkpt><trkpt lat="43.5898559" lon="12.3768911"><ele>761.0</ele><time>2026-05-01T14:22:18.253Z</time></trkpt><trkpt lat="43.5897685" lon="12.3768341"><ele>761.0</ele><time>2026-05-01T14:22:19.253Z</time></trkpt><trkpt lat="43.5896793" lon="12.3767367"><ele>761.0</ele><time>2026-05-01T14:22:20.253Z</time></trkpt><trkpt lat="43.5895876" lon="12.3765998"><ele>761.0</ele><time>2026-05-01T14:22:21.254Z</time></trkpt><trkpt lat="43.5894988" lon="12.3764493"><ele>761.0</ele><time>2026-05-01T14:22:22.251Z</time></trkpt><trkpt lat="43.5894127" lon="12.3763144"><ele>759.25</ele><time>2026-05-01T14:22:23.255Z</time></trkpt><trkpt lat="43.5893082" lon="12.3762055"><ele>757.5</ele><time>2026-05-01T14:22:24.255Z</time></trkpt><trkpt lat="43.5891922" lon="12.3761172"><ele>755.75</ele><time>2026-05-01T14:22:25.254Z</time></trkpt><trkpt lat="43.5890608" lon="12.3760579"><ele>754.0</ele><time>2026-05-01T14:22:26.255Z</time></trkpt><trkpt lat="43.5889259" lon="12.3760208"><ele>754.0</ele><time>2026-05-01T14:22:27.263Z</time></trkpt><trkpt lat="43.5888009" lon="12.376004"><ele>754.0</ele><time>2026-05-01T14:22:28.253Z</time></trkpt><trkpt lat="43.5886826" lon="12.375991"><ele>754.0</ele><time>2026-05-01T14:22:29.249Z</time></trkpt><trkpt lat="43.5885737" lon="12.3759803"><ele>754.0</ele><time>2026-05-01T14:22:30.247Z</time></trkpt><trkpt lat="43.5884692" lon="12.3759609"><ele>754.6</ele><time>2026-05-01T14:22:31.248Z</time></trkpt><trkpt lat="43.5883614" lon="12.375941"><ele>755.2</ele><time>2026-05-01T14:22:32.251Z</time></trkpt><trkpt lat="43.588254" lon="12.3759123"><ele>755.8000000000001</ele><time>2026-05-01T14:22:33.252Z</time></trkpt><trkpt lat="43.5881489" lon="12.375867"><ele>756.4000000000001</ele><time>2026-05-01T14:22:34.251Z</time></trkpt><trkpt lat="43.5880442" lon="12.3757888"><ele>757.0</ele><time>2026-05-01T14:22:35.255Z</time></trkpt><trkpt lat="43.5879328" lon="12.3756795"><ele>757.0</ele><time>2026-05-01T14:22:36.259Z</time></trkpt><trkpt lat="43.5878107" lon="12.3755651"><ele>757.0</ele><time>2026-05-01T14:22:37.265Z</time></trkpt><trkpt lat="43.5876689" lon="12.375449"><ele>757.0</ele><time>2026-05-01T14:22:38.26Z</time></trkpt><trkpt lat="43.587502" lon="12.375358"><ele>756.3333333333334</ele><time>2026-05-01T14:22:39.259Z</time></trkpt><trkpt lat="43.5873422" lon="12.3752708"><ele>755.6666666666666</ele><time>2026-05-01T14:22:40.259Z</time></trkpt><trkpt lat="43.5871942" lon="12.3751948"><ele>755.0</ele><time>2026-05-01T14:22:41.257Z</time></trkpt><trkpt lat="43.587076" lon="12.3751196"><ele>754.5</ele><time>2026-05-01T14:22:42.26Z</time></trkpt><trkpt lat="43.5869653" lon="12.3750296"><ele>754.0</ele><time>2026-05-01T14:22:43.263Z</time></trkpt><trkpt lat="43.5868501" lon="12.3749559"><ele>753.5</ele><time>2026-05-01T14:22:44.259Z</time></trkpt><trkpt lat="43.5867387" lon="12.3748972"><ele>753.0</ele><time>2026-05-01T14:22:45.263Z</time></trkpt><trkpt lat="43.5866154" lon="12.374853"><ele>753.0</ele><time>2026-05-01T14:22:46.263Z</time></trkpt><trkpt lat="43.5864985" lon="12.3748178"><ele>753.0</ele><time>2026-05-01T14:22:47.264Z</time></trkpt><trkpt lat="43.5863939" lon="12.3747697"><ele>753.0</ele><time>2026-05-01T14:22:48.255Z</time></trkpt><trkpt lat="43.5862682" lon="12.3746946"><ele>753.0</ele><time>2026-05-01T14:22:49.254Z</time></trkpt><trkpt lat="43.5861379" lon="12.3745944"><ele>752.0</ele><time>2026-05-01T14:22:50.258Z</time></trkpt><trkpt lat="43.5859984" lon="12.3744529"><ele>751.0</ele><time>2026-05-01T14:22:51.26Z</time></trkpt><trkpt lat="43.5858335" lon="12.3742998"><ele>750.0</ele><time>2026-05-01T14:22:52.256Z</time></trkpt><trkpt lat="43.5857015" lon="12.3741773"><ele>750.0</ele><time>2026-05-01T14:22:53.255Z</time></trkpt><trkpt lat="43.5856022" lon="12.3740476"><ele>750.0</ele><time>2026-05-01T14:22:54.259Z</time></trkpt><trkpt lat="43.5854936" lon="12.3739019"><ele>750.0</ele><time>2026-05-01T14:22:55.253Z</time></trkpt><trkpt lat="43.5853621" lon="12.3738104"><ele>750.0</ele><time>2026-05-01T14:22:56.249Z</time></trkpt><trkpt lat="43.5852362" lon="12.3737594"><ele>749.0</ele><time>2026-05-01T14:22:57.244Z</time></trkpt><trkpt lat="43.5851341" lon="12.3737305"><ele>748.0</ele><time>2026-05-01T14:22:58.245Z</time></trkpt><trkpt lat="43.5850437" lon="12.373718"><ele>747.0</ele><time>2026-05-01T14:22:59.245Z</time></trkpt><trkpt lat="43.5849439" lon="12.3737774"><ele>746.0</ele><time>2026-05-01T14:23:00.246Z</time></trkpt><trkpt lat="43.5848649" lon="12.3739272"><ele>745.0</ele><time>2026-05-01T14:23:01.243Z</time></trkpt><trkpt lat="43.5848001" lon="12.3741031"><ele>745.0</ele><time>2026-05-01T14:23:02.242Z</time></trkpt><trkpt lat="43.5847601" lon="12.3742635"><ele>745.0</ele><time>2026-05-01T14:23:03.241Z</time></trkpt><trkpt lat="43.5847268" lon="12.3744253"><ele>745.0</ele><time>2026-05-01T14:23:04.248Z</time></trkpt><trkpt lat="43.5846818" lon="12.3745753"><ele>745.0</ele><time>2026-05-01T14:23:05.263Z</time></trkpt><trkpt lat="43.5846238" lon="12.3746943"><ele>742.5</ele><time>2026-05-01T14:23:06.274Z</time></trkpt><trkpt lat="43.5845304" lon="12.3747537"><ele>740.0</ele><time>2026-05-01T14:23:07.263Z</time></trkpt><trkpt lat="43.5844221" lon="12.3747724"><ele>737.5</ele><time>2026-05-01T14:23:08.273Z</time></trkpt><trkpt lat="43.584297" lon="12.3747614"><ele>735.0</ele><time>2026-05-01T14:23:09.242Z</time></trkpt><trkpt lat="43.5841458" lon="12.3746959"><ele>741.0</ele><time>2026-05-01T14:23:10.248Z</time></trkpt><trkpt lat="43.5839759" lon="12.3746149"><ele>747.0</ele><time>2026-05-01T14:23:11.251Z</time></trkpt><trkpt lat="43.5838221" lon="12.3745435"><ele>753.0</ele><time>2026-05-01T14:23:12.253Z</time></trkpt><trkpt lat="43.5836714" lon="12.3744661"><ele>753.0</ele><time>2026-05-01T14:23:13.247Z</time></trkpt><trkpt lat="43.5835165" lon="12.3743559"><ele>753.0</ele><time>2026-05-01T14:23:14.25Z</time></trkpt><trkpt lat="43.5833692" lon="12.3742575"><ele>753.0</ele><time>2026-05-01T14:23:15.25Z</time></trkpt><trkpt lat="43.5832285" lon="12.3742254"><ele>753.0</ele><time>2026-05-01T14:23:16.248Z</time></trkpt><trkpt lat="43.583103" lon="12.3742318"><ele>753.0</ele><time>2026-05-01T14:23:17.242Z</time></trkpt><trkpt lat="43.582967" lon="12.3742197"><ele>753.0</ele><time>2026-05-01T14:23:18.244Z</time></trkpt><trkpt lat="43.5828214" lon="12.3741862"><ele>753.0</ele><time>2026-05-01T14:23:19.249Z</time></trkpt><trkpt lat="43.5826884" lon="12.3741219"><ele>753.75</ele><time>2026-05-01T14:23:20.242Z</time></trkpt><trkpt lat="43.5825614" lon="12.3740786"><ele>754.5</ele><time>2026-05-01T14:23:21.241Z</time></trkpt><trkpt lat="43.5824346" lon="12.374057"><ele>755.25</ele><time>2026-05-01T14:23:22.249Z</time></trkpt><trkpt lat="43.5822818" lon="12.3741062"><ele>756.0</ele><time>2026-05-01T14:23:23.251Z</time></trkpt><trkpt lat="43.5821258" lon="12.3741907"><ele>758.6666666666666</ele><time>2026-05-01T14:23:24.248Z</time></trkpt><trkpt lat="43.5819814" lon="12.3743075"><ele>761.3333333333333</ele><time>2026-05-01T14:23:25.245Z</time></trkpt><trkpt lat="43.5818626" lon="12.3744647"><ele>764.0</ele><time>2026-05-01T14:23:26.242Z</time></trkpt><trkpt lat="43.5817488" lon="12.3745713"><ele>764.0</ele><time>2026-05-01T14:23:27.242Z</time></trkpt><trkpt lat="43.5816542" lon="12.374645"><ele>764.0</ele><time>2026-05-01T14:23:28.248Z</time></trkpt><trkpt lat="43.5815904" lon="12.3747176"><ele>764.0</ele><time>2026-05-01T14:23:29.25Z</time></trkpt><trkpt lat="43.5815549" lon="12.3748402"><ele>764.0</ele><time>2026-05-01T14:23:30.238Z</time></trkpt><trkpt lat="43.5815315" lon="12.3750187"><ele>764.0</ele><time>2026-05-01T14:23:31.241Z</time></trkpt><trkpt lat="43.5815083" lon="12.3751797"><ele>759.75</ele><time>2026-05-01T14:23:32.242Z</time></trkpt><trkpt lat="43.5814763" lon="12.3753401"><ele>755.5</ele><time>2026-05-01T14:23:33.241Z</time></trkpt><trkpt lat="43.5814244" lon="12.3754945"><ele>751.25</ele><time>2026-05-01T14:23:34.245Z</time></trkpt><trkpt lat="43.5813555" lon="12.3756279"><ele>747.0</ele><time>2026-05-01T14:23:35.255Z</time></trkpt><trkpt lat="43.5812792" lon="12.3757344"><ele>747.0</ele><time>2026-05-01T14:23:36.247Z</time></trkpt><trkpt lat="43.5811829" lon="12.375798"><ele>747.0</ele><time>2026-05-01T14:23:37.248Z</time></trkpt><trkpt lat="43.581064" lon="12.375828"><ele>747.0</ele><time>2026-05-01T14:23:38.251Z</time></trkpt><trkpt lat="43.5809363" lon="12.3758499"><ele>747.0</ele><time>2026-05-01T14:23:39.265Z</time></trkpt><trkpt lat="43.5808041" lon="12.3759014"><ele>747.0</ele><time>2026-05-01T14:23:40.263Z</time></trkpt><trkpt lat="43.5806741" lon="12.375981"><ele>747.0</ele><time>2026-05-01T14:23:41.262Z</time></trkpt><trkpt lat="43.5805568" lon="12.3760937"><ele>747.0</ele><time>2026-05-01T14:23:42.257Z</time></trkpt><trkpt lat="43.5804595" lon="12.376231"><ele>747.0</ele><time>2026-05-01T14:23:43.26Z</time></trkpt><trkpt lat="43.580384" lon="12.3763692"><ele>747.0</ele><time>2026-05-01T14:23:44.268Z</time></trkpt><trkpt lat="43.58032" lon="12.3764929"><ele>747.0</ele><time>2026-05-01T14:23:45.262Z</time></trkpt><trkpt lat="43.5802704" lon="12.3765978"><ele>747.0</ele><time>2026-05-01T14:23:46.252Z</time></trkpt><trkpt lat="43.5802144" lon="12.376704"><ele>747.0</ele><time>2026-05-01T14:23:47.263Z</time></trkpt><trkpt lat="43.5801537" lon="12.3768097"><ele>747.0</ele><time>2026-05-01T14:23:48.273Z</time></trkpt><trkpt lat="43.5801059" lon="12.3769156"><ele>747.0</ele><time>2026-05-01T14:23:49.27Z</time></trkpt><trkpt lat="43.5800885" lon="12.3770317"><ele>747.0</ele><time>2026-05-01T14:23:50.263Z</time></trkpt><trkpt lat="43.5800793" lon="12.3771506"><ele>747.0</ele><time>2026-05-01T14:23:51.262Z</time></trkpt><trkpt lat="43.5800794" lon="12.3772807"><ele>747.0</ele><time>2026-05-01T14:23:52.259Z</time></trkpt><trkpt lat="43.5800806" lon="12.3774246"><ele>747.0</ele><time>2026-05-01T14:23:53.264Z</time></trkpt><trkpt lat="43.5800862" lon="12.3775861"><ele>747.0</ele><time>2026-05-01T14:23:54.264Z</time></trkpt><trkpt lat="43.5801036" lon="12.3777667"><ele>747.0</ele><time>2026-05-01T14:23:55.269Z</time></trkpt><trkpt lat="43.580118" lon="12.3779454"><ele>747.0</ele><time>2026-05-01T14:23:56.273Z</time></trkpt><trkpt lat="43.5801235" lon="12.3781159"><ele>747.0</ele><time>2026-05-01T14:23:57.273Z</time></trkpt><trkpt lat="43.5801167" lon="12.3782764"><ele>747.0</ele><time>2026-05-01T14:23:58.265Z</time></trkpt><trkpt lat="43.5800968" lon="12.3784208"><ele>747.0</ele><time>2026-05-01T14:23:59.276Z</time></trkpt><trkpt lat="43.5800527" lon="12.3785489"><ele>747.0</ele><time>2026-05-01T14:24:00.277Z</time></trkpt><trkpt lat="43.579968" lon="12.378674"><ele>747.0</ele><time>2026-05-01T14:24:01.255Z</time></trkpt><trkpt lat="43.5798461" lon="12.3788431"><ele>743.3333333333334</ele><time>2026-05-01T14:24:02.252Z</time></trkpt><trkpt lat="43.5797321" lon="12.3790317"><ele>739.6666666666667</ele><time>2026-05-01T14:24:03.255Z</time></trkpt><trkpt lat="43.5796442" lon="12.3792167"><ele>736.0</ele><time>2026-05-01T14:24:04.257Z</time></trkpt><trkpt lat="43.5795732" lon="12.3793705"><ele>737.1999999999999</ele><time>2026-05-01T14:24:05.264Z</time></trkpt><trkpt lat="43.5795125" lon="12.3795039"><ele>738.4</ele><time>2026-05-01T14:24:06.255Z</time></trkpt><trkpt lat="43.5794537" lon="12.3796188"><ele>739.6</ele><time>2026-05-01T14:24:07.26Z</time></trkpt><trkpt lat="43.579362" lon="12.3796992"><ele>740.8</ele><time>2026-05-01T14:24:08.253Z</time></trkpt><trkpt lat="43.5792649" lon="12.3797321"><ele>742.0</ele><time>2026-05-01T14:24:09.257Z</time></trkpt><trkpt lat="43.5791491" lon="12.3797417"><ele>742.0</ele><time>2026-05-01T14:24:10.264Z</time></trkpt><trkpt lat="43.5790143" lon="12.3797144"><ele>742.0</ele><time>2026-05-01T14:24:11.25Z</time></trkpt><trkpt lat="43.5788738" lon="12.3796794"><ele>742.0</ele><time>2026-05-01T14:24:12.252Z</time></trkpt><trkpt lat="43.5787555" lon="12.3796799"><ele>742.0</ele><time>2026-05-01T14:24:13.246Z</time></trkpt><trkpt lat="43.5786422" lon="12.379705"><ele>742.3333333333334</ele><time>2026-05-01T14:24:14.253Z</time></trkpt><trkpt lat="43.5785446" lon="12.3797431"><ele>742.6666666666667</ele><time>2026-05-01T14:24:15.252Z</time></trkpt><trkpt lat="43.5784739" lon="12.3798126"><ele>743.0</ele><time>2026-05-01T14:24:16.252Z</time></trkpt><trkpt lat="43.5784305" lon="12.3798967"><ele>743.3333333333334</ele><time>2026-05-01T14:24:17.253Z</time></trkpt><trkpt lat="43.5784125" lon="12.3799867"><ele>743.6666666666666</ele><time>2026-05-01T14:24:18.25Z</time></trkpt><trkpt lat="43.5784354" lon="12.3801414"><ele>744.0</ele><time>2026-05-01T14:24:20.257Z</time></trkpt><trkpt lat="43.5784682" lon="12.3802233"><ele>744.0</ele><time>2026-05-01T14:24:21.251Z</time></trkpt><trkpt lat="43.578508" lon="12.3803358"><ele>744.0</ele><time>2026-05-01T14:24:22.258Z</time></trkpt><trkpt lat="43.5785576" lon="12.3804717"><ele>744.0</ele><time>2026-05-01T14:24:23.25Z</time></trkpt><trkpt lat="43.5786084" lon="12.3806228"><ele>744.0</ele><time>2026-05-01T14:24:24.251Z</time></trkpt><trkpt lat="43.5786665" lon="12.3807678"><ele>744.0</ele><time>2026-05-01T14:24:25.25Z</time></trkpt><trkpt lat="43.5787336" lon="12.3808992"><ele>743.2</ele><time>2026-05-01T14:24:26.25Z</time></trkpt><trkpt lat="43.5787802" lon="12.3810178"><ele>742.4000000000001</ele><time>2026-05-01T14:24:27.256Z</time></trkpt><trkpt lat="43.5788027" lon="12.381142"><ele>741.6</ele><time>2026-05-01T14:24:28.259Z</time></trkpt><trkpt lat="43.5787976" lon="12.3812753"><ele>740.8</ele><time>2026-05-01T14:24:29.257Z</time></trkpt><trkpt lat="43.578767" lon="12.3813969"><ele>740.0</ele><time>2026-05-01T14:24:30.251Z</time></trkpt><trkpt lat="43.5787198" lon="12.3815068"><ele>738.5</ele><time>2026-05-01T14:24:31.255Z</time></trkpt><trkpt lat="43.5786415" lon="12.3816103"><ele>737.0</ele><time>2026-05-01T14:24:32.264Z</time></trkpt><trkpt lat="43.5785327" lon="12.3817092"><ele>735.5</ele><time>2026-05-01T14:24:33.266Z</time></trkpt><trkpt lat="43.5783901" lon="12.3818114"><ele>734.0</ele><time>2026-05-01T14:24:34.269Z</time></trkpt><trkpt lat="43.5782447" lon="12.3819131"><ele>734.0</ele><time>2026-05-01T14:24:35.262Z</time></trkpt><trkpt lat="43.5781051" lon="12.3820198"><ele>734.0</ele><time>2026-05-01T14:24:36.263Z</time></trkpt><trkpt lat="43.5779972" lon="12.382135"><ele>734.0</ele><time>2026-05-01T14:24:37.263Z</time></trkpt><trkpt lat="43.5779071" lon="12.3822627"><ele>734.0</ele><time>2026-05-01T14:24:38.26Z</time></trkpt><trkpt lat="43.5778237" lon="12.3824279"><ele>734.6666666666666</ele><time>2026-05-01T14:24:39.262Z</time></trkpt><trkpt lat="43.5777372" lon="12.3826176"><ele>735.3333333333334</ele><time>2026-05-01T14:24:40.254Z</time></trkpt><trkpt lat="43.5776328" lon="12.3828132"><ele>736.0</ele><time>2026-05-01T14:24:41.269Z</time></trkpt><trkpt lat="43.5775305" lon="12.3829881"><ele>736.0</ele><time>2026-05-01T14:24:42.256Z</time></trkpt><trkpt lat="43.5774273" lon="12.3831267"><ele>736.0</ele><time>2026-05-01T14:24:43.257Z</time></trkpt><trkpt lat="43.5773207" lon="12.3832274"><ele>736.0</ele><time>2026-05-01T14:24:44.257Z</time></trkpt><trkpt lat="43.5772134" lon="12.3832943"><ele>736.0</ele><time>2026-05-01T14:24:45.263Z</time></trkpt><trkpt lat="43.5770961" lon="12.3833412"><ele>736.4</ele><time>2026-05-01T14:24:46.254Z</time></trkpt><trkpt lat="43.5770001" lon="12.383395"><ele>736.8</ele><time>2026-05-01T14:24:47.253Z</time></trkpt><trkpt lat="43.5769373" lon="12.3834758"><ele>737.1999999999999</ele><time>2026-05-01T14:24:48.265Z</time></trkpt><trkpt lat="43.5768873" lon="12.3836146"><ele>737.5999999999999</ele><time>2026-05-01T14:24:49.252Z</time></trkpt><trkpt lat="43.5768256" lon="12.3837416"><ele>738.0</ele><time>2026-05-01T14:24:50.251Z</time></trkpt><trkpt lat="43.5767542" lon="12.383846"><ele>740.5</ele><time>2026-05-01T14:24:51.262Z</time></trkpt><trkpt lat="43.57666" lon="12.3839114"><ele>743.0</ele><time>2026-05-01T14:24:52.253Z</time></trkpt><trkpt lat="43.5765438" lon="12.3839287"><ele>745.5</ele><time>2026-05-01T14:24:53.252Z</time></trkpt><trkpt lat="43.5764132" lon="12.3839056"><ele>748.0</ele><time>2026-05-01T14:24:54.248Z</time></trkpt><trkpt lat="43.5762742" lon="12.3838656"><ele>746.5</ele><time>2026-05-01T14:24:55.246Z</time></trkpt><trkpt lat="43.5761597" lon="12.3838305"><ele>745.0</ele><time>2026-05-01T14:24:56.249Z</time></trkpt><trkpt lat="43.5760636" lon="12.3838"><ele>743.5</ele><time>2026-05-01T14:24:57.253Z</time></trkpt><trkpt lat="43.5759861" lon="12.3837583"><ele>742.0</ele><time>2026-05-01T14:24:58.253Z</time></trkpt><trkpt lat="43.5759331" lon="12.3837054"><ele>740.5</ele><time>2026-05-01T14:24:59.252Z</time></trkpt><trkpt lat="43.5758879" lon="12.3836337"><ele>739.0</ele><time>2026-05-01T14:25:00.252Z</time></trkpt><trkpt lat="43.5758395" lon="12.3835597"><ele>739.0</ele><time>2026-05-01T14:25:01.255Z</time></trkpt><trkpt lat="43.575792" lon="12.3834854"><ele>739.0</ele><time>2026-05-01T14:25:02.262Z</time></trkpt><trkpt lat="43.5757444" lon="12.3834217"><ele>739.0</ele><time>2026-05-01T14:25:03.258Z</time></trkpt><trkpt lat="43.5756683" lon="12.3833415"><ele>739.0</ele><time>2026-05-01T14:25:05.254Z</time></trkpt><trkpt lat="43.5756217" lon="12.383254"><ele>739.0</ele><time>2026-05-01T14:25:42.262Z</time></trkpt><trkpt lat="43.5755623" lon="12.3832002"><ele>739.0</ele><time>2026-05-01T14:25:43.267Z</time></trkpt><trkpt lat="43.5754703" lon="12.3831283"><ele>737.25</ele><time>2026-05-01T14:25:44.261Z</time></trkpt><trkpt lat="43.5753497" lon="12.3830455"><ele>735.5</ele><time>2026-05-01T14:25:45.26Z</time></trkpt><trkpt lat="43.5752214" lon="12.3829618"><ele>733.75</ele><time>2026-05-01T14:25:46.262Z</time></trkpt><trkpt lat="43.5750914" lon="12.382885"><ele>732.0</ele><time>2026-05-01T14:25:47.265Z</time></trkpt><trkpt lat="43.5749708" lon="12.3828256"><ele>732.0</ele><time>2026-05-01T14:25:48.261Z</time></trkpt><trkpt lat="43.5748593" lon="12.3827882"><ele>732.0</ele><time>2026-05-01T14:25:49.264Z</time></trkpt><trkpt lat="43.5747514" lon="12.382789"><ele>732.0</ele><time>2026-05-01T14:25:50.263Z</time></trkpt><trkpt lat="43.5746399" lon="12.3828333"><ele>732.0</ele><time>2026-05-01T14:25:51.264Z</time></trkpt><trkpt lat="43.5745267" lon="12.3829216"><ele>731.0</ele><time>2026-05-01T14:25:52.258Z</time></trkpt><trkpt lat="43.5744208" lon="12.3830166"><ele>730.0</ele><time>2026-05-01T14:25:53.261Z</time></trkpt><trkpt lat="43.5743244" lon="12.3830894"><ele>729.0</ele><time>2026-05-01T14:25:54.259Z</time></trkpt><trkpt lat="43.5742187" lon="12.3831357"><ele>728.0</ele><time>2026-05-01T14:25:55.257Z</time></trkpt><trkpt lat="43.5741181" lon="12.3831639"><ele>728.0</ele><time>2026-05-01T14:25:56.254Z</time></trkpt><trkpt lat="43.5740353" lon="12.3832111"><ele>728.0</ele><time>2026-05-01T14:25:57.261Z</time></trkpt><trkpt lat="43.573962" lon="12.3833006"><ele>728.0</ele><time>2026-05-01T14:25:58.259Z</time></trkpt><trkpt lat="43.5739081" lon="12.3834131"><ele>728.0</ele><time>2026-05-01T14:25:59.255Z</time></trkpt><trkpt lat="43.5738642" lon="12.3834939"><ele>728.0</ele><time>2026-05-01T14:26:00.256Z</time></trkpt><trkpt lat="43.5737493" lon="12.3835641"><ele>728.0</ele><time>2026-05-01T14:26:02.259Z</time></trkpt><trkpt lat="43.5736759" lon="12.3835439"><ele>728.0</ele><time>2026-05-01T14:26:03.258Z</time></trkpt><trkpt lat="43.573595" lon="12.3835097"><ele>728.0</ele><time>2026-05-01T14:26:04.258Z</time></trkpt><trkpt lat="43.5734973" lon="12.3834144"><ele>728.0</ele><time>2026-05-01T14:26:05.254Z</time></trkpt><trkpt lat="43.5733929" lon="12.383303"><ele>728.0</ele><time>2026-05-01T14:26:06.254Z</time></trkpt><trkpt lat="43.5732817" lon="12.3832261"><ele>728.0</ele><time>2026-05-01T14:26:07.248Z</time></trkpt><trkpt lat="43.5731503" lon="12.3831987"><ele>728.0</ele><time>2026-05-01T14:26:08.247Z</time></trkpt><trkpt lat="43.5730159" lon="12.3832461"><ele>728.0</ele><time>2026-05-01T14:26:09.248Z</time></trkpt><trkpt lat="43.5728683" lon="12.383339"><ele>728.0</ele><time>2026-05-01T14:26:10.249Z</time></trkpt><trkpt lat="43.5727394" lon="12.3833853"><ele>727.75</ele><time>2026-05-01T14:26:11.256Z</time></trkpt><trkpt lat="43.57263" lon="12.3833895"><ele>727.5</ele><time>2026-05-01T14:26:12.251Z</time></trkpt><trkpt lat="43.5725211" lon="12.3833781"><ele>727.25</ele><time>2026-05-01T14:26:13.254Z</time></trkpt><trkpt lat="43.5724118" lon="12.3834022"><ele>727.0</ele><time>2026-05-01T14:26:14.274Z</time></trkpt><trkpt lat="43.5722976" lon="12.3835095"><ele>727.0</ele><time>2026-05-01T14:26:15.266Z</time></trkpt><trkpt lat="43.5722013" lon="12.3836439"><ele>727.0</ele><time>2026-05-01T14:26:16.252Z</time></trkpt><trkpt lat="43.5721146" lon="12.3837752"><ele>727.0</ele><time>2026-05-01T14:26:17.249Z</time></trkpt><trkpt lat="43.5720381" lon="12.3838867"><ele>727.0</ele><time>2026-05-01T14:26:18.252Z</time></trkpt><trkpt lat="43.5719654" lon="12.3839626"><ele>727.2</ele><time>2026-05-01T14:26:19.258Z</time></trkpt><trkpt lat="43.5718975" lon="12.3840063"><ele>727.4000000000001</ele><time>2026-05-01T14:26:20.258Z</time></trkpt><trkpt lat="43.5718264" lon="12.3840073"><ele>727.5999999999999</ele><time>2026-05-01T14:26:21.259Z</time></trkpt><trkpt lat="43.571729" lon="12.3839635"><ele>727.8</ele><time>2026-05-01T14:26:22.258Z</time></trkpt><trkpt lat="43.571595" lon="12.383879"><ele>728.0</ele><time>2026-05-01T14:26:23.257Z</time></trkpt><trkpt lat="43.5714645" lon="12.3838006"><ele>728.0</ele><time>2026-05-01T14:26:24.26Z</time></trkpt><trkpt lat="43.5713382" lon="12.3837433"><ele>728.0</ele><time>2026-05-01T14:26:25.248Z</time></trkpt><trkpt lat="43.5712178" lon="12.3837718"><ele>728.0</ele><time>2026-05-01T14:26:26.246Z</time></trkpt><trkpt lat="43.5711223" lon="12.3838369"><ele>728.0</ele><time>2026-05-01T14:26:27.25Z</time></trkpt><trkpt lat="43.5710466" lon="12.3838684"><ele>728.0</ele><time>2026-05-01T14:26:28.243Z</time></trkpt><trkpt lat="43.5709663" lon="12.3838708"><ele>728.25</ele><time>2026-05-01T14:26:29.243Z</time></trkpt><trkpt lat="43.5708551" lon="12.383822"><ele>728.5</ele><time>2026-05-01T14:26:30.247Z</time></trkpt><trkpt lat="43.5707092" lon="12.3837072"><ele>728.75</ele><time>2026-05-01T14:26:31.241Z</time></trkpt><trkpt lat="43.5705779" lon="12.3835845"><ele>729.0</ele><time>2026-05-01T14:26:32.242Z</time></trkpt><trkpt lat="43.5704585" lon="12.3834867"><ele>726.6</ele><time>2026-05-01T14:26:33.253Z</time></trkpt><trkpt lat="43.570338" lon="12.3834386"><ele>724.2</ele><time>2026-05-01T14:26:34.251Z</time></trkpt><trkpt lat="43.5702514" lon="12.3834048"><ele>721.8000000000001</ele><time>2026-05-01T14:26:35.258Z</time></trkpt><trkpt lat="43.5701625" lon="12.3834129"><ele>719.4000000000001</ele><time>2026-05-01T14:26:36.259Z</time></trkpt><trkpt lat="43.5700753" lon="12.3834671"><ele>717.0</ele><time>2026-05-01T14:26:37.26Z</time></trkpt><trkpt lat="43.5699753" lon="12.3835931"><ele>717.0</ele><time>2026-05-01T14:26:38.258Z</time></trkpt><trkpt lat="43.5698715" lon="12.3837336"><ele>717.0</ele><time>2026-05-01T14:26:39.255Z</time></trkpt><trkpt lat="43.5697819" lon="12.3838363"><ele>717.0</ele><time>2026-05-01T14:26:40.268Z</time></trkpt><trkpt lat="43.5697162" lon="12.3839012"><ele>717.0</ele><time>2026-05-01T14:26:41.259Z</time></trkpt><trkpt lat="43.5695989" lon="12.383943"><ele>715.5</ele><time>2026-05-01T14:26:43.269Z</time></trkpt><trkpt lat="43.5695328" lon="12.3839244"><ele>714.0</ele><time>2026-05-01T14:26:44.264Z</time></trkpt><trkpt lat="43.5694588" lon="12.3838495"><ele>712.5</ele><time>2026-05-01T14:26:45.265Z</time></trkpt><trkpt lat="43.5693873" lon="12.3837748"><ele>711.0</ele><time>2026-05-01T14:26:46.26Z</time></trkpt><trkpt lat="43.5693306" lon="12.3837232"><ele>709.5</ele><time>2026-05-01T14:26:47.263Z</time></trkpt><trkpt lat="43.5692273" lon="12.3836784"><ele>708.0</ele><time>2026-05-01T14:26:49.262Z</time></trkpt><trkpt lat="43.5691114" lon="12.3836933"><ele>708.0</ele><time>2026-05-01T14:26:51.262Z</time></trkpt><trkpt lat="43.5690555" lon="12.3837348"><ele>708.0</ele><time>2026-05-01T14:26:52.262Z</time></trkpt><trkpt lat="43.5690037" lon="12.3837913"><ele>708.0</ele><time>2026-05-01T14:26:53.264Z</time></trkpt><trkpt lat="43.5689469" lon="12.3838625"><ele>708.0</ele><time>2026-05-01T14:26:54.263Z</time></trkpt><trkpt lat="43.5688879" lon="12.3839447"><ele>708.0</ele><time>2026-05-01T14:26:55.265Z</time></trkpt><trkpt lat="43.5688368" lon="12.3840342"><ele>708.0</ele><time>2026-05-01T14:26:56.26Z</time></trkpt><trkpt lat="43.5687944" lon="12.3841325"><ele>707.6666666666666</ele><time>2026-05-01T14:26:57.266Z</time></trkpt><trkpt lat="43.5687613" lon="12.3842467"><ele>707.3333333333334</ele><time>2026-05-01T14:26:58.265Z</time></trkpt><trkpt lat="43.5687404" lon="12.3843652"><ele>707.0</ele><time>2026-05-01T14:26:59.264Z</time></trkpt><trkpt lat="43.5687247" lon="12.3844714"><ele>706.6666666666667</ele><time>2026-05-01T14:27:00.26Z</time></trkpt><trkpt lat="43.5687134" lon="12.3845619"><ele>706.3333333333334</ele><time>2026-05-01T14:27:01.263Z</time></trkpt><trkpt lat="43.5687026" lon="12.3846475"><ele>706.0</ele><time>2026-05-01T14:27:02.268Z</time></trkpt><trkpt lat="43.5686768" lon="12.3848019"><ele>707.1666666666667</ele><time>2026-05-01T14:27:04.261Z</time></trkpt><trkpt lat="43.5686524" lon="12.3848835"><ele>708.3333333333334</ele><time>2026-05-01T14:27:05.258Z</time></trkpt><trkpt lat="43.5686127" lon="12.3849798"><ele>709.5</ele><time>2026-05-01T14:27:06.266Z</time></trkpt><trkpt lat="43.5685521" lon="12.3850689"><ele>710.6666666666666</ele><time>2026-05-01T14:27:07.258Z</time></trkpt><trkpt lat="43.5684761" lon="12.3851421"><ele>711.8333333333333</ele><time>2026-05-01T14:27:08.265Z</time></trkpt><trkpt lat="43.5683691" lon="12.3851944"><ele>713.0</ele><time>2026-05-01T14:27:09.262Z</time></trkpt><trkpt lat="43.5682146" lon="12.3852351"><ele>713.0</ele><time>2026-05-01T14:27:10.264Z</time></trkpt><trkpt lat="43.568031" lon="12.3852728"><ele>713.0</ele><time>2026-05-01T14:27:11.263Z</time></trkpt><trkpt lat="43.567866" lon="12.38533"><ele>713.0</ele><time>2026-05-01T14:27:12.262Z</time></trkpt><trkpt lat="43.5677133" lon="12.3854178"><ele>710.3333333333333</ele><time>2026-05-01T14:27:13.262Z</time></trkpt><trkpt lat="43.5675511" lon="12.3855442"><ele>707.6666666666666</ele><time>2026-05-01T14:27:14.265Z</time></trkpt><trkpt lat="43.56741" lon="12.3856804"><ele>705.0</ele><time>2026-05-01T14:27:15.262Z</time></trkpt><trkpt lat="43.5672877" lon="12.385807"><ele>705.0</ele><time>2026-05-01T14:27:16.272Z</time></trkpt><trkpt lat="43.5671816" lon="12.3859308"><ele>705.0</ele><time>2026-05-01T14:27:17.261Z</time></trkpt><trkpt lat="43.5670842" lon="12.3860467"><ele>705.0</ele><time>2026-05-01T14:27:18.26Z</time></trkpt><trkpt lat="43.566995" lon="12.3861591"><ele>705.0</ele><time>2026-05-01T14:27:19.262Z</time></trkpt><trkpt lat="43.5668836" lon="12.3862654"><ele>704.0</ele><time>2026-05-01T14:27:20.263Z</time></trkpt><trkpt lat="43.5667643" lon="12.3863826"><ele>703.0</ele><time>2026-05-01T14:27:21.267Z</time></trkpt><trkpt lat="43.5666418" lon="12.3864835"><ele>702.0</ele><time>2026-05-01T14:27:22.265Z</time></trkpt><trkpt lat="43.5665237" lon="12.3865632"><ele>701.0</ele><time>2026-05-01T14:27:23.264Z</time></trkpt><trkpt lat="43.5663981" lon="12.386629"><ele>701.0</ele><time>2026-05-01T14:27:24.266Z</time></trkpt><trkpt lat="43.5662834" lon="12.3866853"><ele>701.0</ele><time>2026-05-01T14:27:25.263Z</time></trkpt><trkpt lat="43.5661673" lon="12.3867295"><ele>701.0</ele><time>2026-05-01T14:27:26.265Z</time></trkpt><trkpt lat="43.5660475" lon="12.3867452"><ele>701.0</ele><time>2026-05-01T14:27:27.262Z</time></trkpt><trkpt lat="43.5659142" lon="12.3867398"><ele>702.5</ele><time>2026-05-01T14:27:28.26Z</time></trkpt><trkpt lat="43.5657769" lon="12.3867167"><ele>704.0</ele><time>2026-05-01T14:27:29.262Z</time></trkpt><trkpt lat="43.5656363" lon="12.3866633"><ele>705.5</ele><time>2026-05-01T14:27:30.264Z</time></trkpt><trkpt lat="43.5655172" lon="12.3866021"><ele>707.0</ele><time>2026-05-01T14:27:31.261Z</time></trkpt><trkpt lat="43.5653928" lon="12.3865644"><ele>710.0</ele><time>2026-05-01T14:27:32.259Z</time></trkpt><trkpt lat="43.565249" lon="12.3865459"><ele>713.0</ele><time>2026-05-01T14:27:33.259Z</time></trkpt><trkpt lat="43.565088" lon="12.3865667"><ele>716.0</ele><time>2026-05-01T14:27:34.255Z</time></trkpt><trkpt lat="43.5649365" lon="12.386593"><ele>716.0</ele><time>2026-05-01T14:27:35.257Z</time></trkpt><trkpt lat="43.5647998" lon="12.3866018"><ele>716.0</ele><time>2026-05-01T14:27:36.259Z</time></trkpt><trkpt lat="43.5646901" lon="12.3866018"><ele>716.0</ele><time>2026-05-01T14:27:37.256Z</time></trkpt><trkpt lat="43.5646049" lon="12.3866037"><ele>716.0</ele><time>2026-05-01T14:27:38.26Z</time></trkpt><trkpt lat="43.5645355" lon="12.3866265"><ele>716.0</ele><time>2026-05-01T14:27:39.264Z</time></trkpt><trkpt lat="43.5644557" lon="12.3866941"><ele>716.25</ele><time>2026-05-01T14:27:40.265Z</time></trkpt><trkpt lat="43.5643584" lon="12.3867747"><ele>716.5</ele><time>2026-05-01T14:27:41.26Z</time></trkpt><trkpt lat="43.5642416" lon="12.3868473"><ele>716.75</ele><time>2026-05-01T14:27:42.264Z</time></trkpt><trkpt lat="43.5641017" lon="12.3868783"><ele>717.0</ele><time>2026-05-01T14:27:43.267Z</time></trkpt><trkpt lat="43.5639499" lon="12.3868912"><ele>717.0</ele><time>2026-05-01T14:27:44.26Z</time></trkpt><trkpt lat="43.5637988" lon="12.3869013"><ele>717.0</ele><time>2026-05-01T14:27:45.26Z</time></trkpt><trkpt lat="43.5636588" lon="12.3868994"><ele>717.0</ele><time>2026-05-01T14:27:46.263Z</time></trkpt><trkpt lat="43.5635388" lon="12.3868795"><ele>717.0</ele><time>2026-05-01T14:27:47.269Z</time></trkpt><trkpt lat="43.5634301" lon="12.3868547"><ele>715.6</ele><time>2026-05-01T14:27:48.264Z</time></trkpt><trkpt lat="43.5633281" lon="12.3868291"><ele>714.2</ele><time>2026-05-01T14:27:49.266Z</time></trkpt><trkpt lat="43.5632268" lon="12.3868048"><ele>712.8</ele><time>2026-05-01T14:27:50.266Z</time></trkpt><trkpt lat="43.5631326" lon="12.3867734"><ele>711.4</ele><time>2026-05-01T14:27:51.267Z</time></trkpt><trkpt lat="43.5630415" lon="12.3867535"><ele>710.0</ele><time>2026-05-01T14:27:52.264Z</time></trkpt><trkpt lat="43.5629617" lon="12.3867411"><ele>710.0</ele><time>2026-05-01T14:27:53.263Z</time></trkpt><trkpt lat="43.5628889" lon="12.386754"><ele>710.0</ele><time>2026-05-01T14:27:54.266Z</time></trkpt><trkpt lat="43.5628212" lon="12.3868104"><ele>710.0</ele><time>2026-05-01T14:27:55.267Z</time></trkpt><trkpt lat="43.5627606" lon="12.3869136"><ele>710.0</ele><time>2026-05-01T14:27:56.26Z</time></trkpt><trkpt lat="43.5627118" lon="12.3870203"><ele>710.0</ele><time>2026-05-01T14:27:57.266Z</time></trkpt><trkpt lat="43.5626671" lon="12.3871203"><ele>710.0</ele><time>2026-05-01T14:27:58.261Z</time></trkpt><trkpt lat="43.5626239" lon="12.3872072"><ele>708.5</ele><time>2026-05-01T14:27:59.264Z</time></trkpt><trkpt lat="43.5625833" lon="12.3872803"><ele>707.0</ele><time>2026-05-01T14:28:00.264Z</time></trkpt><trkpt lat="43.562523" lon="12.3873881"><ele>705.5</ele><time>2026-05-01T14:28:02.263Z</time></trkpt><trkpt lat="43.5624794" lon="12.3874566"><ele>704.0</ele><time>2026-05-01T14:28:04.262Z</time></trkpt><trkpt lat="43.5624409" lon="12.3875274"><ele>702.5</ele><time>2026-05-01T14:28:37.271Z</time></trkpt><trkpt lat="43.5624122" lon="12.3876056"><ele>701.0</ele><time>2026-05-01T14:28:38.265Z</time></trkpt><trkpt lat="43.56236" lon="12.3877298"><ele>701.0</ele><time>2026-05-01T14:28:39.261Z</time></trkpt><trkpt lat="43.5623003" lon="12.3878743"><ele>701.0</ele><time>2026-05-01T14:28:40.261Z</time></trkpt><trkpt lat="43.5622361" lon="12.3880283"><ele>701.0</ele><time>2026-05-01T14:28:41.265Z</time></trkpt><trkpt lat="43.5621733" lon="12.3881805"><ele>701.0</ele><time>2026-05-01T14:28:42.264Z</time></trkpt><trkpt lat="43.5621159" lon="12.3883302"><ele>701.0</ele><time>2026-05-01T14:28:43.261Z</time></trkpt><trkpt lat="43.5620692" lon="12.3884919"><ele>701.0</ele><time>2026-05-01T14:28:44.261Z</time></trkpt><trkpt lat="43.5620295" lon="12.3886719"><ele>701.0</ele><time>2026-05-01T14:28:45.266Z</time></trkpt><trkpt lat="43.5619941" lon="12.3888599"><ele>701.0</ele><time>2026-05-01T14:28:46.266Z</time></trkpt><trkpt lat="43.5619564" lon="12.3890423"><ele>701.0</ele><time>2026-05-01T14:28:47.259Z</time></trkpt><trkpt lat="43.561924" lon="12.389212"><ele>701.0</ele><time>2026-05-01T14:28:48.268Z</time></trkpt><trkpt lat="43.5618827" lon="12.3893731"><ele>701.0</ele><time>2026-05-01T14:28:49.271Z</time></trkpt><trkpt lat="43.5618357" lon="12.3895358"><ele>701.0</ele><time>2026-05-01T14:28:50.269Z</time></trkpt><trkpt lat="43.5617888" lon="12.3896876"><ele>701.0</ele><time>2026-05-01T14:28:51.276Z</time></trkpt><trkpt lat="43.5617459" lon="12.3898346"><ele>701.0</ele><time>2026-05-01T14:28:52.263Z</time></trkpt><trkpt lat="43.5617099" lon="12.3899645"><ele>701.0</ele><time>2026-05-01T14:28:53.265Z</time></trkpt><trkpt lat="43.5616771" lon="12.3900899"><ele>701.0</ele><time>2026-05-01T14:28:54.267Z</time></trkpt><trkpt lat="43.5616525" lon="12.3902069"><ele>701.0</ele><time>2026-05-01T14:28:55.26Z</time></trkpt><trkpt lat="43.5616299" lon="12.3903139"><ele>701.0</ele><time>2026-05-01T14:28:56.26Z</time></trkpt><trkpt lat="43.5616116" lon="12.3904166"><ele>701.0</ele><time>2026-05-01T14:28:57.267Z</time></trkpt><trkpt lat="43.5616026" lon="12.3905114"><ele>701.0</ele><time>2026-05-01T14:28:58.262Z</time></trkpt><trkpt lat="43.5616057" lon="12.3906139"><ele>701.0</ele><time>2026-05-01T14:28:59.264Z</time></trkpt><trkpt lat="43.5616246" lon="12.3907184"><ele>701.0</ele><time>2026-05-01T14:29:00.268Z</time></trkpt><trkpt lat="43.5616624" lon="12.3908318"><ele>701.0</ele><time>2026-05-01T14:29:01.267Z</time></trkpt><trkpt lat="43.5617213" lon="12.3909547"><ele>698.75</ele><time>2026-05-01T14:29:02.271Z</time></trkpt><trkpt lat="43.5618012" lon="12.3910882"><ele>696.5</ele><time>2026-05-01T14:29:03.269Z</time></trkpt><trkpt lat="43.5618844" lon="12.3912267"><ele>694.25</ele><time>2026-05-01T14:29:04.265Z</time></trkpt><trkpt lat="43.561959" lon="12.3913608"><ele>692.0</ele><time>2026-05-01T14:29:05.268Z</time></trkpt><trkpt lat="43.5620144" lon="12.3914829"><ele>691.8</ele><time>2026-05-01T14:29:06.261Z</time></trkpt><trkpt lat="43.5620596" lon="12.3915916"><ele>691.6</ele><time>2026-05-01T14:29:07.267Z</time></trkpt><trkpt lat="43.5621212" lon="12.3916977"><ele>691.4</ele><time>2026-05-01T14:29:08.265Z</time></trkpt><trkpt lat="43.5622045" lon="12.391808"><ele>691.1999999999999</ele><time>2026-05-01T14:29:09.27Z</time></trkpt><trkpt lat="43.5623073" lon="12.3919352"><ele>691.0</ele><time>2026-05-01T14:29:10.263Z</time></trkpt><trkpt lat="43.5624235" lon="12.3920968"><ele>687.0</ele><time>2026-05-01T14:29:11.266Z</time></trkpt><trkpt lat="43.5625565" lon="12.3922974"><ele>683.0</ele><time>2026-05-01T14:29:12.262Z</time></trkpt><trkpt lat="43.5626575" lon="12.3924628"><ele>679.0</ele><time>2026-05-01T14:29:13.26Z</time></trkpt><trkpt lat="43.5627496" lon="12.3925974"><ele>679.0</ele><time>2026-05-01T14:29:14.26Z</time></trkpt><trkpt lat="43.5628335" lon="12.3927036"><ele>679.0</ele><time>2026-05-01T14:29:15.257Z</time></trkpt><trkpt lat="43.5629176" lon="12.3927996"><ele>679.0</ele><time>2026-05-01T14:29:16.254Z</time></trkpt><trkpt lat="43.5629905" lon="12.392889"><ele>679.0</ele><time>2026-05-01T14:29:17.252Z</time></trkpt><trkpt lat="43.5630423" lon="12.3929612"><ele>679.0</ele><time>2026-05-01T14:29:18.255Z</time></trkpt><trkpt lat="43.5630716" lon="12.3930385"><ele>679.4000000000001</ele><time>2026-05-01T14:29:19.256Z</time></trkpt><trkpt lat="43.5630951" lon="12.3931772"><ele>679.8</ele><time>2026-05-01T14:29:21.265Z</time></trkpt><trkpt lat="43.5630529" lon="12.3933156"><ele>680.2</ele><time>2026-05-01T14:29:23.261Z</time></trkpt><trkpt lat="43.5629475" lon="12.3933652"><ele>680.5999999999999</ele><time>2026-05-01T14:29:25.258Z</time></trkpt><trkpt lat="43.5628358" lon="12.3933079"><ele>681.0</ele><time>2026-05-01T14:29:27.264Z</time></trkpt><trkpt lat="43.5627814" lon="12.3931894"><ele>680.3333333333334</ele><time>2026-05-01T14:29:28.256Z</time></trkpt><trkpt lat="43.5626849" lon="12.39306"><ele>679.6666666666667</ele><time>2026-05-01T14:29:29.261Z</time></trkpt><trkpt lat="43.5625469" lon="12.3929444"><ele>679.0</ele><time>2026-05-01T14:29:30.258Z</time></trkpt><trkpt lat="43.5623675" lon="12.3928469"><ele>679.0</ele><time>2026-05-01T14:29:31.248Z</time></trkpt><trkpt lat="43.5621859" lon="12.39278"><ele>679.0</ele><time>2026-05-01T14:29:32.25Z</time></trkpt><trkpt lat="43.5620168" lon="12.3927076"><ele>679.0</ele><time>2026-05-01T14:29:33.253Z</time></trkpt><trkpt lat="43.5618786" lon="12.3926248"><ele>675.0</ele><time>2026-05-01T14:29:34.25Z</time></trkpt><trkpt lat="43.5617512" lon="12.3925629"><ele>671.0</ele><time>2026-05-01T14:29:35.249Z</time></trkpt><trkpt lat="43.5616382" lon="12.3925038"><ele>667.0</ele><time>2026-05-01T14:29:36.254Z</time></trkpt><trkpt lat="43.561527" lon="12.3924428"><ele>663.0</ele><time>2026-05-01T14:29:37.248Z</time></trkpt><trkpt lat="43.5614093" lon="12.3923823"><ele>663.0</ele><time>2026-05-01T14:29:38.252Z</time></trkpt><trkpt lat="43.561294" lon="12.3923416"><ele>663.0</ele><time>2026-05-01T14:29:39.246Z</time></trkpt><trkpt lat="43.5611837" lon="12.3922905"><ele>663.0</ele><time>2026-05-01T14:29:40.245Z</time></trkpt><trkpt lat="43.5610815" lon="12.3922508"><ele>663.0</ele><time>2026-05-01T14:29:41.248Z</time></trkpt><trkpt lat="43.5609767" lon="12.3922187"><ele>663.0</ele><time>2026-05-01T14:29:42.247Z</time></trkpt><trkpt lat="43.5608859" lon="12.3921862"><ele>660.2</ele><time>2026-05-01T14:29:43.252Z</time></trkpt><trkpt lat="43.5607858" lon="12.3921745"><ele>657.4</ele><time>2026-05-01T14:29:44.248Z</time></trkpt><trkpt lat="43.5606871" lon="12.3921828"><ele>654.6</ele><time>2026-05-01T14:29:45.254Z</time></trkpt><trkpt lat="43.5605859" lon="12.3922309"><ele>651.8000000000001</ele><time>2026-05-01T14:29:46.243Z</time></trkpt><trkpt lat="43.5604949" lon="12.3923046"><ele>649.0</ele><time>2026-05-01T14:29:47.246Z</time></trkpt><trkpt lat="43.5604184" lon="12.3923639"><ele>648.8571428571428</ele><time>2026-05-01T14:29:48.25Z</time></trkpt><trkpt lat="43.5603466" lon="12.3924032"><ele>648.7142857142857</ele><time>2026-05-01T14:29:49.251Z</time></trkpt><trkpt lat="43.5602746" lon="12.3924137"><ele>648.5714285714286</ele><time>2026-05-01T14:29:50.249Z</time></trkpt><trkpt lat="43.5602062" lon="12.3924036"><ele>648.4285714285713</ele><time>2026-05-01T14:29:51.274Z</time></trkpt><trkpt lat="43.5601516" lon="12.3923568"><ele>648.2857142857142</ele><time>2026-05-01T14:29:52.257Z</time></trkpt><trkpt lat="43.5601105" lon="12.3922827"><ele>648.1428571428571</ele><time>2026-05-01T14:29:53.255Z</time></trkpt><trkpt lat="43.5600756" lon="12.3921917"><ele>648.0</ele><time>2026-05-01T14:29:54.257Z</time></trkpt><trkpt lat="43.5600494" lon="12.3920909"><ele>648.0</ele><time>2026-05-01T14:29:55.256Z</time></trkpt><trkpt lat="43.5600313" lon="12.3919974"><ele>648.0</ele><time>2026-05-01T14:29:56.256Z</time></trkpt><trkpt lat="43.5599836" lon="12.391906"><ele>648.0</ele><time>2026-05-01T14:29:58.258Z</time></trkpt><trkpt lat="43.5599045" lon="12.3919012"><ele>648.0</ele><time>2026-05-01T14:30:00.265Z</time></trkpt><trkpt lat="43.5598487" lon="12.3920085"><ele>648.0</ele><time>2026-05-01T14:30:02.257Z</time></trkpt><trkpt lat="43.5598709" lon="12.392177"><ele>645.25</ele><time>2026-05-01T14:30:04.254Z</time></trkpt><trkpt lat="43.5599026" lon="12.3922867"><ele>642.5</ele><time>2026-05-01T14:30:05.251Z</time></trkpt><trkpt lat="43.5599538" lon="12.3924281"><ele>639.75</ele><time>2026-05-01T14:30:06.26Z</time></trkpt><trkpt lat="43.5600246" lon="12.3926008"><ele>637.0</ele><time>2026-05-01T14:30:07.254Z</time></trkpt><trkpt lat="43.560096" lon="12.3927631"><ele>637.0</ele><time>2026-05-01T14:30:08.253Z</time></trkpt><trkpt lat="43.5601733" lon="12.3929239"><ele>637.0</ele><time>2026-05-01T14:30:09.256Z</time></trkpt><trkpt lat="43.5602627" lon="12.3930775"><ele>637.0</ele><time>2026-05-01T14:30:10.256Z</time></trkpt><trkpt lat="43.560344" lon="12.3932229"><ele>637.0</ele><time>2026-05-01T14:30:11.26Z</time></trkpt><trkpt lat="43.5604107" lon="12.3933632"><ele>636.5</ele><time>2026-05-01T14:30:12.254Z</time></trkpt><trkpt lat="43.5604656" lon="12.3935121"><ele>636.0</ele><time>2026-05-01T14:30:13.253Z</time></trkpt><trkpt lat="43.560508" lon="12.3936939"><ele>635.5</ele><time>2026-05-01T14:30:14.256Z</time></trkpt><trkpt lat="43.5605521" lon="12.3938829"><ele>635.0</ele><time>2026-05-01T14:30:15.252Z</time></trkpt><trkpt lat="43.560578" lon="12.3940844"><ele>632.25</ele><time>2026-05-01T14:30:16.258Z</time></trkpt><trkpt lat="43.5605984" lon="12.3942765"><ele>629.5</ele><time>2026-05-01T14:30:17.256Z</time></trkpt><trkpt lat="43.5606053" lon="12.3944542"><ele>626.75</ele><time>2026-05-01T14:30:18.259Z</time></trkpt><trkpt lat="43.5605967" lon="12.3946006"><ele>624.0</ele><time>2026-05-01T14:30:19.258Z</time></trkpt><trkpt lat="43.5605739" lon="12.3947452"><ele>623.0</ele><time>2026-05-01T14:30:20.256Z</time></trkpt><trkpt lat="43.5605019" lon="12.3949069"><ele>622.0</ele><time>2026-05-01T14:30:21.26Z</time></trkpt><trkpt lat="43.5603784" lon="12.3950644"><ele>621.0</ele><time>2026-05-01T14:30:22.264Z</time></trkpt><trkpt lat="43.5602441" lon="12.39521"><ele>621.0</ele><time>2026-05-01T14:30:23.26Z</time></trkpt><trkpt lat="43.5601198" lon="12.3953375"><ele>621.0</ele><time>2026-05-01T14:30:24.264Z</time></trkpt><trkpt lat="43.560001" lon="12.3954561"><ele>621.0</ele><time>2026-05-01T14:30:25.259Z</time></trkpt><trkpt lat="43.5598965" lon="12.3955713"><ele>621.0</ele><time>2026-05-01T14:30:26.266Z</time></trkpt><trkpt lat="43.5597993" lon="12.395683"><ele>621.25</ele><time>2026-05-01T14:30:27.271Z</time></trkpt><trkpt lat="43.5596992" lon="12.3957908"><ele>621.5</ele><time>2026-05-01T14:30:28.267Z</time></trkpt><trkpt lat="43.5595946" lon="12.3959025"><ele>621.75</ele><time>2026-05-01T14:30:29.267Z</time></trkpt><trkpt lat="43.5594929" lon="12.3960119"><ele>622.0</ele><time>2026-05-01T14:30:30.267Z</time></trkpt><trkpt lat="43.5593884" lon="12.3961123"><ele>622.5</ele><time>2026-05-01T14:30:31.267Z</time></trkpt><trkpt lat="43.5592757" lon="12.3962267"><ele>623.0</ele><time>2026-05-01T14:30:32.265Z</time></trkpt><trkpt lat="43.5591559" lon="12.3963433"><ele>623.5</ele><time>2026-05-01T14:30:33.269Z</time></trkpt><trkpt lat="43.559035" lon="12.3964525"><ele>624.0</ele><time>2026-05-01T14:30:34.265Z</time></trkpt><trkpt lat="43.5589239" lon="12.3965531"><ele>624.0</ele><time>2026-05-01T14:30:35.264Z</time></trkpt><trkpt lat="43.5588157" lon="12.3966554"><ele>624.0</ele><time>2026-05-01T14:30:36.266Z</time></trkpt><trkpt lat="43.5587072" lon="12.3967582"><ele>624.0</ele><time>2026-05-01T14:30:37.266Z</time></trkpt><trkpt lat="43.558603" lon="12.3968322"><ele>624.0</ele><time>2026-05-01T14:30:38.261Z</time></trkpt><trkpt lat="43.558499" lon="12.3969093"><ele>624.25</ele><time>2026-05-01T14:30:39.262Z</time></trkpt><trkpt lat="43.5583966" lon="12.3969774"><ele>624.5</ele><time>2026-05-01T14:30:40.261Z</time></trkpt><trkpt lat="43.5582951" lon="12.3970583"><ele>624.75</ele><time>2026-05-01T14:30:41.271Z</time></trkpt><trkpt lat="43.5581921" lon="12.3971584"><ele>625.0</ele><time>2026-05-01T14:30:42.262Z</time></trkpt><trkpt lat="43.5580798" lon="12.39727"><ele>625.0</ele><time>2026-05-01T14:30:43.261Z</time></trkpt><trkpt lat="43.5579674" lon="12.3973741"><ele>625.0</ele><time>2026-05-01T14:30:44.263Z</time></trkpt><trkpt lat="43.5578585" lon="12.3974722"><ele>625.0</ele><time>2026-05-01T14:30:45.265Z</time></trkpt><trkpt lat="43.5577529" lon="12.3975624"><ele>625.0</ele><time>2026-05-01T14:30:46.26Z</time></trkpt><trkpt lat="43.5576486" lon="12.3976516"><ele>624.6</ele><time>2026-05-01T14:30:47.263Z</time></trkpt><trkpt lat="43.5575453" lon="12.3977359"><ele>624.2</ele><time>2026-05-01T14:30:48.261Z</time></trkpt><trkpt lat="43.557447" lon="12.3978172"><ele>623.8</ele><time>2026-05-01T14:30:49.263Z</time></trkpt><trkpt lat="43.5573573" lon="12.3978987"><ele>623.4</ele><time>2026-05-01T14:30:50.265Z</time></trkpt><trkpt lat="43.557271" lon="12.3979824"><ele>623.0</ele><time>2026-05-01T14:30:51.264Z</time></trkpt><trkpt lat="43.557186" lon="12.3980659"><ele>623.0</ele><time>2026-05-01T14:30:52.263Z</time></trkpt><trkpt lat="43.5571" lon="12.3981475"><ele>623.0</ele><time>2026-05-01T14:30:53.273Z</time></trkpt><trkpt lat="43.5570064" lon="12.3982329"><ele>623.0</ele><time>2026-05-01T14:30:54.263Z</time></trkpt><trkpt lat="43.5569006" lon="12.3983348"><ele>623.0</ele><time>2026-05-01T14:30:55.258Z</time></trkpt><trkpt lat="43.5567878" lon="12.3984448"><ele>618.0</ele><time>2026-05-01T14:30:56.26Z</time></trkpt><trkpt lat="43.5566726" lon="12.3985508"><ele>613.0</ele><time>2026-05-01T14:30:57.263Z</time></trkpt><trkpt lat="43.556557" lon="12.3986536"><ele>608.0</ele><time>2026-05-01T14:30:58.261Z</time></trkpt><trkpt lat="43.5564486" lon="12.3987517"><ele>603.0</ele><time>2026-05-01T14:30:59.261Z</time></trkpt><trkpt lat="43.5563497" lon="12.3988316"><ele>604.1666666666666</ele><time>2026-05-01T14:31:00.263Z</time></trkpt><trkpt lat="43.556258" lon="12.3988862"><ele>605.3333333333334</ele><time>2026-05-01T14:31:01.254Z</time></trkpt><trkpt lat="43.5561715" lon="12.398945"><ele>606.5</ele><time>2026-05-01T14:31:02.256Z</time></trkpt><trkpt lat="43.5560942" lon="12.3990136"><ele>607.6666666666667</ele><time>2026-05-01T14:31:03.26Z</time></trkpt><trkpt lat="43.5560339" lon="12.3990878"><ele>608.8333333333334</ele><time>2026-05-01T14:31:04.256Z</time></trkpt><trkpt lat="43.5559899" lon="12.3991749"><ele>610.0</ele><time>2026-05-01T14:31:05.254Z</time></trkpt><trkpt lat="43.5559635" lon="12.3992716"><ele>607.6666666666667</ele><time>2026-05-01T14:31:06.254Z</time></trkpt><trkpt lat="43.5559565" lon="12.3993803"><ele>605.3333333333334</ele><time>2026-05-01T14:31:07.256Z</time></trkpt><trkpt lat="43.5559716" lon="12.3995045"><ele>603.0</ele><time>2026-05-01T14:31:08.263Z</time></trkpt><trkpt lat="43.5559992" lon="12.3996306"><ele>600.6666666666666</ele><time>2026-05-01T14:31:09.263Z</time></trkpt><trkpt lat="43.5560183" lon="12.3997435"><ele>598.3333333333333</ele><time>2026-05-01T14:31:10.256Z</time></trkpt><trkpt lat="43.5560058" lon="12.3998555"><ele>596.0</ele><time>2026-05-01T14:31:11.258Z</time></trkpt><trkpt lat="43.5559623" lon="12.3999652"><ele>596.0</ele><time>2026-05-01T14:31:12.252Z</time></trkpt><trkpt lat="43.5558738" lon="12.4000456"><ele>596.0</ele><time>2026-05-01T14:31:13.262Z</time></trkpt><trkpt lat="43.5557524" lon="12.4001189"><ele>596.0</ele><time>2026-05-01T14:31:14.249Z</time></trkpt><trkpt lat="43.55562" lon="12.4001852"><ele>596.0</ele><time>2026-05-01T14:31:15.26Z</time></trkpt><trkpt lat="43.5554913" lon="12.4002377"><ele>592.0</ele><time>2026-05-01T14:31:16.256Z</time></trkpt><trkpt lat="43.5553669" lon="12.4002925"><ele>588.0</ele><time>2026-05-01T14:31:17.257Z</time></trkpt><trkpt lat="43.5552502" lon="12.4003525"><ele>584.0</ele><time>2026-05-01T14:31:18.256Z</time></trkpt><trkpt lat="43.5551477" lon="12.4004114"><ele>580.0</ele><time>2026-05-01T14:31:19.256Z</time></trkpt><trkpt lat="43.5550646" lon="12.4004745"><ele>580.3333333333334</ele><time>2026-05-01T14:31:20.256Z</time></trkpt><trkpt lat="43.5550077" lon="12.4005458"><ele>580.6666666666667</ele><time>2026-05-01T14:31:21.257Z</time></trkpt><trkpt lat="43.5549781" lon="12.4006239"><ele>581.0</ele><time>2026-05-01T14:31:22.263Z</time></trkpt><trkpt lat="43.5549676" lon="12.4007266"><ele>581.3333333333334</ele><time>2026-05-01T14:31:23.263Z</time></trkpt><trkpt lat="43.5549738" lon="12.4008551"><ele>581.6666666666666</ele><time>2026-05-01T14:31:24.263Z</time></trkpt><trkpt lat="43.554994" lon="12.4010016"><ele>582.0</ele><time>2026-05-01T14:31:25.257Z</time></trkpt><trkpt lat="43.5550201" lon="12.4011507"><ele>582.0</ele><time>2026-05-01T14:31:26.263Z</time></trkpt><trkpt lat="43.5550608" lon="12.4013004"><ele>582.0</ele><time>2026-05-01T14:31:27.258Z</time></trkpt><trkpt lat="43.555114" lon="12.401454"><ele>582.0</ele><time>2026-05-01T14:31:28.255Z</time></trkpt><trkpt lat="43.5551848" lon="12.4016023"><ele>582.0</ele><time>2026-05-01T14:31:29.258Z</time></trkpt><trkpt lat="43.5552587" lon="12.4017441"><ele>580.8000000000001</ele><time>2026-05-01T14:31:30.256Z</time></trkpt><trkpt lat="43.5553259" lon="12.4018908"><ele>579.6</ele><time>2026-05-01T14:31:31.256Z</time></trkpt><trkpt lat="43.5553875" lon="12.4020262"><ele>578.4000000000001</ele><time>2026-05-01T14:31:32.253Z</time></trkpt><trkpt lat="43.555445" lon="12.4021302"><ele>577.2</ele><time>2026-05-01T14:31:33.256Z</time></trkpt><trkpt lat="43.5555052" lon="12.4021991"><ele>576.0</ele><time>2026-05-01T14:31:34.255Z</time></trkpt><trkpt lat="43.5555765" lon="12.4022376"><ele>573.0</ele><time>2026-05-01T14:31:35.25Z</time></trkpt><trkpt lat="43.5556614" lon="12.4022524"><ele>570.0</ele><time>2026-05-01T14:31:36.251Z</time></trkpt><trkpt lat="43.5557594" lon="12.4022518"><ele>567.0</ele><time>2026-05-01T14:31:37.25Z</time></trkpt><trkpt lat="43.5558616" lon="12.402239"><ele>564.0</ele><time>2026-05-01T14:31:38.251Z</time></trkpt><trkpt lat="43.5559665" lon="12.4022411"><ele>561.0</ele><time>2026-05-01T14:31:39.25Z</time></trkpt><trkpt lat="43.5560629" lon="12.4022634"><ele>561.0</ele><time>2026-05-01T14:31:40.251Z</time></trkpt><trkpt lat="43.556152" lon="12.4023089"><ele>561.0</ele><time>2026-05-01T14:31:41.248Z</time></trkpt><trkpt lat="43.5562296" lon="12.4023732"><ele>561.0</ele><time>2026-05-01T14:31:42.249Z</time></trkpt><trkpt lat="43.5562814" lon="12.4024862"><ele>561.0</ele><time>2026-05-01T14:31:43.245Z</time></trkpt><trkpt lat="43.5562901" lon="12.4026182"><ele>561.0</ele><time>2026-05-01T14:31:44.251Z</time></trkpt><trkpt lat="43.5562649" lon="12.402768"><ele>560.4</ele><time>2026-05-01T14:31:45.246Z</time></trkpt><trkpt lat="43.5562222" lon="12.4029022"><ele>559.8</ele><time>2026-05-01T14:31:46.251Z</time></trkpt><trkpt lat="43.5561536" lon="12.4030089"><ele>559.1999999999999</ele><time>2026-05-01T14:31:47.247Z</time></trkpt><trkpt lat="43.5560673" lon="12.4031053"><ele>558.6</ele><time>2026-05-01T14:31:48.241Z</time></trkpt><trkpt lat="43.5559914" lon="12.403206"><ele>558.0</ele><time>2026-05-01T14:31:49.241Z</time></trkpt><trkpt lat="43.555929" lon="12.4033186"><ele>558.0</ele><time>2026-05-01T14:31:50.244Z</time></trkpt><trkpt lat="43.5558809" lon="12.40345"><ele>558.0</ele><time>2026-05-01T14:31:51.247Z</time></trkpt><trkpt lat="43.5558343" lon="12.4035789"><ele>558.0</ele><time>2026-05-01T14:31:52.247Z</time></trkpt><trkpt lat="43.5557961" lon="12.4037128"><ele>558.0</ele><time>2026-05-01T14:31:53.243Z</time></trkpt><trkpt lat="43.5557585" lon="12.4038523"><ele>558.0</ele><time>2026-05-01T14:31:54.247Z</time></trkpt><trkpt lat="43.5557328" lon="12.4039948"><ele>556.8</ele><time>2026-05-01T14:31:55.252Z</time></trkpt><trkpt lat="43.5557235" lon="12.4041394"><ele>555.5999999999999</ele><time>2026-05-01T14:31:56.25Z</time></trkpt><trkpt lat="43.5557227" lon="12.4042789"><ele>554.4000000000001</ele><time>2026-05-01T14:31:57.259Z</time></trkpt><trkpt lat="43.5557307" lon="12.4044117"><ele>553.2</ele><time>2026-05-01T14:31:58.258Z</time></trkpt><trkpt lat="43.5557485" lon="12.4045352"><ele>552.0</ele><time>2026-05-01T14:31:59.247Z</time></trkpt><trkpt lat="43.5557788" lon="12.4046547"><ele>548.6</ele><time>2026-05-01T14:32:00.248Z</time></trkpt><trkpt lat="43.5558252" lon="12.4047667"><ele>545.2</ele><time>2026-05-01T14:32:01.245Z</time></trkpt><trkpt lat="43.5558886" lon="12.4048835"><ele>541.8</ele><time>2026-05-01T14:32:02.246Z</time></trkpt><trkpt lat="43.5559644" lon="12.4050004"><ele>538.4</ele><time>2026-05-01T14:32:03.246Z</time></trkpt><trkpt lat="43.5560398" lon="12.4051215"><ele>535.0</ele><time>2026-05-01T14:32:04.243Z</time></trkpt><trkpt lat="43.5561145" lon="12.4052365"><ele>535.0</ele><time>2026-05-01T14:32:05.244Z</time></trkpt><trkpt lat="43.5561858" lon="12.4053517"><ele>535.0</ele><time>2026-05-01T14:32:06.245Z</time></trkpt><trkpt lat="43.5562514" lon="12.4054641"><ele>535.0</ele><time>2026-05-01T14:32:07.244Z</time></trkpt><trkpt lat="43.5563112" lon="12.4055758"><ele>535.0</ele><time>2026-05-01T14:32:08.247Z</time></trkpt><trkpt lat="43.5563637" lon="12.4056933"><ele>535.0</ele><time>2026-05-01T14:32:09.249Z</time></trkpt><trkpt lat="43.5564115" lon="12.4058093"><ele>534.5</ele><time>2026-05-01T14:32:10.247Z</time></trkpt><trkpt lat="43.5564492" lon="12.405921"><ele>534.0</ele><time>2026-05-01T14:32:11.253Z</time></trkpt><trkpt lat="43.5564759" lon="12.4060168"><ele>533.5</ele><time>2026-05-01T14:32:12.247Z</time></trkpt><trkpt lat="43.5565208" lon="12.40615"><ele>533.0</ele><time>2026-05-01T14:32:14.251Z</time></trkpt><trkpt lat="43.5566027" lon="12.4062432"><ele>532.5</ele><time>2026-05-01T14:32:16.245Z</time></trkpt><trkpt lat="43.5566656" lon="12.4062777"><ele>532.0</ele><time>2026-05-01T14:32:17.246Z</time></trkpt><trkpt lat="43.556739" lon="12.4063165"><ele>529.1666666666667</ele><time>2026-05-01T14:32:18.247Z</time></trkpt><trkpt lat="43.5568181" lon="12.4063432"><ele>526.3333333333334</ele><time>2026-05-01T14:32:19.248Z</time></trkpt><trkpt lat="43.5568962" lon="12.4063689"><ele>523.5</ele><time>2026-05-01T14:32:20.249Z</time></trkpt><trkpt lat="43.5569732" lon="12.4063907"><ele>520.6666666666666</ele><time>2026-05-01T14:32:21.248Z</time></trkpt><trkpt lat="43.5570505" lon="12.4064107"><ele>517.8333333333333</ele><time>2026-05-01T14:32:22.248Z</time></trkpt><trkpt lat="43.557125" lon="12.4064382"><ele>515.0</ele><time>2026-05-01T14:32:23.249Z</time></trkpt><trkpt lat="43.5571955" lon="12.4064714"><ele>514.4</ele><time>2026-05-01T14:32:24.249Z</time></trkpt><trkpt lat="43.5572657" lon="12.4065213"><ele>513.8</ele><time>2026-05-01T14:32:25.246Z</time></trkpt><trkpt lat="43.5573286" lon="12.4065813"><ele>513.2</ele><time>2026-05-01T14:32:26.253Z</time></trkpt><trkpt lat="43.5573867" lon="12.4066681"><ele>512.6</ele><time>2026-05-01T14:32:27.251Z</time></trkpt><trkpt lat="43.5574397" lon="12.406787"><ele>512.0</ele><time>2026-05-01T14:32:28.246Z</time></trkpt><trkpt lat="43.5574959" lon="12.406924"><ele>512.0</ele><time>2026-05-01T14:32:29.25Z</time></trkpt><trkpt lat="43.5575588" lon="12.4070738"><ele>512.0</ele><time>2026-05-01T14:32:30.25Z</time></trkpt><trkpt lat="43.5576259" lon="12.4072454"><ele>512.0</ele><time>2026-05-01T14:32:31.25Z</time></trkpt><trkpt lat="43.5576943" lon="12.40742"><ele>512.0</ele><time>2026-05-01T14:32:32.252Z</time></trkpt><trkpt lat="43.5577578" lon="12.4075881"><ele>511.20000000000005</ele><time>2026-05-01T14:32:33.253Z</time></trkpt><trkpt lat="43.5578158" lon="12.4077487"><ele>510.40000000000003</ele><time>2026-05-01T14:32:34.251Z</time></trkpt><trkpt lat="43.557862" lon="12.4078968"><ele>509.59999999999997</ele><time>2026-05-01T14:32:35.248Z</time></trkpt><trkpt lat="43.5579043" lon="12.4080259"><ele>508.79999999999995</ele><time>2026-05-01T14:32:36.248Z</time></trkpt><trkpt lat="43.5579318" lon="12.4081404"><ele>508.0</ele><time>2026-05-01T14:32:37.248Z</time></trkpt><trkpt lat="43.557952" lon="12.4082445"><ele>504.59999999999997</ele><time>2026-05-01T14:32:38.249Z</time></trkpt><trkpt lat="43.557964" lon="12.4083349"><ele>501.19999999999993</ele><time>2026-05-01T14:32:39.25Z</time></trkpt><trkpt lat="43.5579936" lon="12.4084983"><ele>497.8</ele><time>2026-05-01T14:32:41.252Z</time></trkpt><trkpt lat="43.5580212" lon="12.4086589"><ele>494.4</ele><time>2026-05-01T14:32:43.247Z</time></trkpt><trkpt lat="43.5579847" lon="12.4087887"><ele>491.0</ele><time>2026-05-01T14:32:45.251Z</time></trkpt><trkpt lat="43.5578723" lon="12.4088453"><ele>491.4</ele><time>2026-05-01T14:32:47.25Z</time></trkpt><trkpt lat="43.5577989" lon="12.4088385"><ele>491.8</ele><time>2026-05-01T14:32:48.257Z</time></trkpt><trkpt lat="43.5577079" lon="12.4087932"><ele>492.19999999999993</ele><time>2026-05-01T14:32:49.256Z</time></trkpt><trkpt lat="43.5576064" lon="12.4087336"><ele>492.59999999999997</ele><time>2026-05-01T14:32:50.259Z</time></trkpt><trkpt lat="43.557501" lon="12.408674"><ele>493.0</ele><time>2026-05-01T14:32:51.26Z</time></trkpt><trkpt lat="43.5573971" lon="12.408621"><ele>493.0</ele><time>2026-05-01T14:32:52.267Z</time></trkpt><trkpt lat="43.5573028" lon="12.4085871"><ele>492.99999999999994</ele><time>2026-05-01T14:32:53.266Z</time></trkpt><trkpt lat="43.5572091" lon="12.4085699"><ele>492.99999999999994</ele><time>2026-05-01T14:32:54.259Z</time></trkpt><trkpt lat="43.5571175" lon="12.4085561"><ele>493.0</ele><time>2026-05-01T14:32:55.257Z</time></trkpt><trkpt lat="43.5570279" lon="12.4085487"><ele>493.0</ele><time>2026-05-01T14:32:56.258Z</time></trkpt><trkpt lat="43.5569396" lon="12.4085392"><ele>493.00000000000006</ele><time>2026-05-01T14:32:57.268Z</time></trkpt><trkpt lat="43.5568525" lon="12.4085346"><ele>493.0</ele><time>2026-05-01T14:32:58.264Z</time></trkpt><trkpt lat="43.5567736" lon="12.4085295"><ele>493.0</ele><time>2026-05-01T14:32:59.257Z</time></trkpt><trkpt lat="43.5567032" lon="12.4085253"><ele>493.0</ele><time>2026-05-01T14:33:00.253Z</time></trkpt><trkpt lat="43.5565921" lon="12.4085255"><ele>493.00000000000006</ele><time>2026-05-01T14:33:02.251Z</time></trkpt><trkpt lat="43.556515" lon="12.4085483"><ele>493.0</ele><time>2026-05-01T14:33:04.251Z</time></trkpt><trkpt lat="43.5564552" lon="12.4085929"><ele>493.0</ele><time>2026-05-01T14:33:19.255Z</time></trkpt><trkpt lat="43.5564797" lon="12.4086758"><ele>493.0</ele><time>2026-05-01T14:33:21.255Z</time></trkpt><trkpt lat="43.5565314" lon="12.4087288"><ele>493.0</ele><time>2026-05-01T14:33:22.254Z</time></trkpt><trkpt lat="43.5566397" lon="12.4087976"><ele>493.0</ele><time>2026-05-01T14:33:24.251Z</time></trkpt><trkpt lat="43.5567104" lon="12.4088647"><ele>486.0</ele><time>2026-05-01T14:33:26.248Z</time></trkpt><trkpt lat="43.556772" lon="12.4089234"><ele>486.0</ele><time>2026-05-01T14:33:28.252Z</time></trkpt></trkseg></trk></gpx>